Darstellungsparameter: Aktuell verwendete Einstellungen:
Skalierung der Graphiken ... ?
xyx+y,   Skalierungsfaktor:      Skalierung: Modus: x, Faktor: 1
Darstellungszeitraum ... ?
Vom - - bis: - -   Zeitraum: 05.04.2020 - 04.07.2020
Min/Max/Avg-Anzeige ... ?
Zeige MMA aktuell
Zeige MMA Monat
Zeige MMA alles
Zeige --A aktuell
Zeige --A Monat
Zeige --A alles
Keine MMA-Anzeige
MMA:
Average (ber die Originaldaten)
MMA-Basis: 23.02.2003 - 03.08.2020
Quicknavigation für Darstellung... ?
Tage:      1T, 2T, 3T, 5T -1T -2T -3T -5T +1T +2T +3T +5T
Wochen: 1W, 2W, 3W -1W -2W -3W +1W +2W +3W
Monate: 1M, 3M, 6M -1M -3M -6M +1M +3M +6M
Jahre:    1J, 3J, 5J, 10J -1J -3J -5J -10J +1J +3J +5J +10J
Nutze für die Darstellung ... ?
Originaldaten oder ...
Mittelwerte Minima Maxima auf...
Stundenbasis Tagesbasis Wochenbasis
Monatsbasis Jahresbasis      Datenbasis: Mittelwerte auf Stundenbasis
Darstellen als:
Statistik (Auto) Statistik J:M      Darstellung:
Zur Graphik,    zurück zur Übersicht aller Sensoren.
 
Tabellarische Datenbersicht: ?
 
Sensor: Nr:Datum:Temp:Abs-Feuchte:Windchill:Wind:
Aussen-T/F 1 05-04-2020 00:00:00 3.59167 C 4.98 g/m*3 3.59 C 0 km/h
2 05-04-2020 01:00:00 2.9 C 4.96 g/m*3 2.9 C 0 km/h
3 05-04-2020 02:00:00 2.31667 C 4.9 g/m*3 2.32 C 0.26667 km/h
4 05-04-2020 03:00:00 1.81667 C 4.82 g/m*3 1.82 C 0.26667 km/h
5 05-04-2020 04:00:00 1.28333 C 4.75 g/m*3 1.28 C 0 km/h
6 05-04-2020 05:00:00 0.73333 C 4.63 g/m*3 0.73 C 0 km/h
7 05-04-2020 06:00:00 0.36667 C 4.58 g/m*3 0.37 C 0 km/h
8 05-04-2020 07:00:00 0.325 C 4.61 g/m*3 0.33 C 0 km/h
9 05-04-2020 08:00:00 0.925 C 4.85 g/m*3 0.93 C 0 km/h
10 05-04-2020 09:00:00 2.525 C 5.44 g/m*3 2.53 C 0 km/h
11 05-04-2020 10:00:00 5.60833 C 6.31 g/m*3 5.61 C 0 km/h
12 05-04-2020 11:00:00 11.425 C 6.61 g/m*3 11.43 C 5.36667 km/h
13 05-04-2020 12:00:00 16.28333 C 5.52 g/m*3 16.28 C 11.825 km/h
14 05-04-2020 13:00:00 17.225 C 5.45 g/m*3 17.23 C 12.5 km/h
15 05-04-2020 14:00:00 18.21667 C 5.55 g/m*3 18.22 C 14.36667 km/h
16 05-04-2020 15:00:00 18.91667 C 5.46 g/m*3 18.92 C 9.39167 km/h
17 05-04-2020 16:00:00 19.7 C 5.52 g/m*3 19.7 C 14.23333 km/h
18 05-04-2020 17:00:00 20.9 C 5.6 g/m*3 20.9 C 10.08333 km/h
19 05-04-2020 18:00:00 20.60833 C 5.55 g/m*3 20.61 C 9.28333 km/h
20 05-04-2020 19:00:00 19.36667 C 5.88 g/m*3 19.37 C 4.275 km/h
21 05-04-2020 20:00:00 13.875 C 5.99 g/m*3 13.88 C 6 km/h
22 05-04-2020 21:00:00 11.36667 C 5.91 g/m*3 11.37 C 5.86667 km/h
23 05-04-2020 22:00:00 9.58333 C 5.76 g/m*3 9.58 C 2.53333 km/h
24 05-04-2020 23:00:00 8.01667 C 5.7 g/m*3 8.02 C 0.13333 km/h
25 06-04-2020 00:00:00 6.9 C 5.61 g/m*3 6.9 C 0 km/h
Sensor: Nr:Datum:Temp:Abs-Feuchte:Windchill:Wind:
Aussen-T/F 26 06-04-2020 01:00:00 5.84167 C 5.56 g/m*3 5.84 C 0 km/h
27 06-04-2020 02:00:00 4.94167 C 5.45 g/m*3 4.94 C 0 km/h
28 06-04-2020 03:00:00 4.16667 C 5.32 g/m*3 4.17 C 0 km/h
29 06-04-2020 04:00:00 3.625 C 5.23 g/m*3 3.63 C 0 km/h
30 06-04-2020 05:00:00 2.99167 C 5.14 g/m*3 2.99 C 0 km/h
31 06-04-2020 06:00:00 2.26667 C 5 g/m*3 2.27 C 0 km/h
32 06-04-2020 07:00:00 2.375 C 5.14 g/m*3 2.38 C 0 km/h
33 06-04-2020 08:00:00 3.25833 C 5.44 g/m*3 3.26 C 0.13333 km/h
34 06-04-2020 09:00:00 4.5 C 5.78 g/m*3 4.5 C 0.13333 km/h
35 06-04-2020 10:00:00 7.48333 C 6.5 g/m*3 7.48 C 0.26667 km/h
36 06-04-2020 11:00:00 14.03333 C 6.7 g/m*3 14.03 C 7.65 km/h
37 06-04-2020 12:00:00 18.70833 C 5.85 g/m*3 18.71 C 12.63333 km/h
38 06-04-2020 13:00:00 20.18333 C 6.06 g/m*3 20.18 C 9.55833 km/h
39 06-04-2020 14:00:00 21.85833 C 6.06 g/m*3 21.86 C 10.89167 km/h
40 06-04-2020 15:00:00 22.68333 C 5.03 g/m*3 22.68 C 18.23333 km/h
41 06-04-2020 16:00:00 23.78333 C 5.52 g/m*3 23.78 C 11.68333 km/h
42 06-04-2020 17:00:00 23.825 C 5.82 g/m*3 23.83 C 15.3 km/h
43 06-04-2020 18:00:00 23.45833 C 5.57 g/m*3 23.46 C 13.03333 km/h
44 06-04-2020 19:00:00 21.58333 C 6.13 g/m*3 21.58 C 6.56667 km/h
45 06-04-2020 20:00:00 16.28333 C 6.48 g/m*3 16.28 C 5.73333 km/h
46 06-04-2020 21:00:00 13.21667 C 6.46 g/m*3 13.22 C 2.26667 km/h
47 06-04-2020 22:00:00 11.06667 C 6.32 g/m*3 11.07 C 0.8 km/h
48 06-04-2020 23:00:00 10.00833 C 6.15 g/m*3 10.01 C 1.60833 km/h
49 07-04-2020 00:00:00 9.56667 C 6.36 g/m*3 9.57 C 1.875 km/h
50 07-04-2020 01:00:00 9.68333 C 6.57 g/m*3 9.68 C 1.46667 km/h
Sensor: Nr:Datum:Temp:Abs-Feuchte:Windchill:Wind:
Aussen-T/F 51 07-04-2020 02:00:00 9.24167 C 6.56 g/m*3 9.24 C 0.26667 km/h
52 07-04-2020 03:00:00 8.15 C 6.66 g/m*3 8.15 C 0.13333 km/h
53 07-04-2020 04:00:00 7.98333 C 6.68 g/m*3 7.98 C 0 km/h
54 07-04-2020 05:00:00 6.725 C 6.42 g/m*3 6.73 C 0 km/h
55 07-04-2020 06:00:00 5.975 C 6.32 g/m*3 5.98 C 0 km/h
56 07-04-2020 07:00:00 5.65833 C 6.39 g/m*3 5.66 C 0 km/h
57 07-04-2020 08:00:00 6.50833 C 6.73 g/m*3 6.51 C 0.26667 km/h
58 07-04-2020 09:00:00 7.83333 C 7.32 g/m*3 7.83 C 0 km/h
59 07-04-2020 10:00:00 10.73333 C 8.39 g/m*3 10.73 C 0 km/h
60 07-04-2020 11:00:00 14.89167 C 9.14 g/m*3 14.89 C 1.86667 km/h
61 07-04-2020 12:00:00 17.65833 C 9.23 g/m*3 17.66 C 4.13333 km/h
62 07-04-2020 13:00:00 19.4 C 9.13 g/m*3 19.4 C 5.88333 km/h
63 07-04-2020 14:00:00 20.875 C 8.99 g/m*3 20.88 C 8.06667 km/h
64 07-04-2020 15:00:00 21.86667 C 8.73 g/m*3 21.87 C 10.09167 km/h
65 07-04-2020 16:00:00 22.43333 C 8.39 g/m*3 22.43 C 7.50833 km/h
66 07-04-2020 17:00:00 23.35833 C 7.69 g/m*3 23.36 C 6.025 km/h
67 07-04-2020 18:00:00 23.46667 C 7.72 g/m*3 23.47 C 6.58333 km/h
68 07-04-2020 19:00:00 21.05 C 8.37 g/m*3 21.05 C 4 km/h
69 07-04-2020 20:00:00 16.79167 C 8.03 g/m*3 16.79 C 5.74167 km/h
70 07-04-2020 21:00:00 14.95833 C 8.2 g/m*3 14.96 C 5.73333 km/h
71 07-04-2020 22:00:00 13.575 C 8.25 g/m*3 13.58 C 2.93333 km/h
72 07-04-2020 23:00:00 12.94167 C 8.36 g/m*3 12.94 C 3.33333 km/h
73 08-04-2020 00:00:00 12.11667 C 8.36 g/m*3 12.12 C 3.33333 km/h
74 08-04-2020 01:00:00 10.99167 C 8.15 g/m*3 10.99 C 1.2 km/h
75 08-04-2020 02:00:00 9.44167 C 7.72 g/m*3 9.44 C 0 km/h
Sensor: Nr:Datum:Temp:Abs-Feuchte:Windchill:Wind:
Aussen-T/F 76 08-04-2020 03:00:00 7.95 C 7.33 g/m*3 7.95 C 0 km/h
77 08-04-2020 04:00:00 7.175 C 7.16 g/m*3 7.18 C 0 km/h
78 08-04-2020 05:00:00 6.48333 C 6.93 g/m*3 6.48 C 0 km/h
79 08-04-2020 06:00:00 5.95 C 6.76 g/m*3 5.95 C 0 km/h
80 08-04-2020 07:00:00 5.85833 C 6.79 g/m*3 5.86 C 0.13333 km/h
81 08-04-2020 08:00:00 6.64167 C 7.21 g/m*3 6.64 C 0 km/h
82 08-04-2020 09:00:00 7.875 C 7.87 g/m*3 7.88 C 0 km/h
83 08-04-2020 10:00:00 10.2 C 9 g/m*3 10.2 C 0 km/h
84 08-04-2020 11:00:00 14.9 C 10.07 g/m*3 14.9 C 0.26667 km/h
85 08-04-2020 12:00:00 19.86667 C 8.9 g/m*3 19.87 C 3.48333 km/h
86 08-04-2020 13:00:00 21.76667 C 6.78 g/m*3 21.77 C 7.78333 km/h
87 08-04-2020 14:00:00 22.86667 C 5.86 g/m*3 22.87 C 7.79167 km/h
88 08-04-2020 15:00:00 23.1 C 6.2 g/m*3 23.1 C 8.875 km/h
89 08-04-2020 16:00:00 24.20833 C 6.02 g/m*3 24.21 C 6.16667 km/h
90 08-04-2020 17:00:00 25.29167 C 5.87 g/m*3 25.29 C 6.575 km/h
91 08-04-2020 18:00:00 25.375 C 6.21 g/m*3 25.38 C 4.40833 km/h
92 08-04-2020 19:00:00 22.95833 C 7.23 g/m*3 22.96 C 2.53333 km/h
93 08-04-2020 20:00:00 17.6 C 7.02 g/m*3 17.6 C 4.93333 km/h
94 08-04-2020 21:00:00 14.65 C 7 g/m*3 14.65 C 2.4 km/h
95 08-04-2020 22:00:00 12.70833 C 6.98 g/m*3 12.71 C 0.26667 km/h
96 08-04-2020 23:00:00 11.65833 C 6.95 g/m*3 11.66 C 0.66667 km/h
97 09-04-2020 00:00:00 11.4 C 6.99 g/m*3 11.4 C 0.93333 km/h
98 09-04-2020 01:00:00 10.33333 C 7.07 g/m*3 10.33 C 1.33333 km/h
99 09-04-2020 02:00:00 9.40833 C 7.01 g/m*3 9.41 C 0 km/h
100 09-04-2020 03:00:00 9.68333 C 7.16 g/m*3 9.68 C 2.275 km/h
Sensor: Nr:Datum:Temp:Abs-Feuchte:Windchill:Wind:
Aussen-T/F 101 09-04-2020 04:00:00 9.98333 C 7.35 g/m*3 9.98 C 3.075 km/h
102 09-04-2020 05:00:00 9.06667 C 7.14 g/m*3 9.07 C 0 km/h
103 09-04-2020 06:00:00 7.90833 C 6.89 g/m*3 7.91 C 0 km/h
104 09-04-2020 07:00:00 7.55833 C 6.94 g/m*3 7.56 C 0 km/h
105 09-04-2020 08:00:00 7.91667 C 7.22 g/m*3 7.92 C 0.13333 km/h
106 09-04-2020 09:00:00 9.25833 C 7.8 g/m*3 9.26 C 0 km/h
107 09-04-2020 10:00:00 11.775 C 8.55 g/m*3 11.78 C 0 km/h
108 09-04-2020 11:00:00 16.34167 C 8.89 g/m*3 16.34 C 0.4 km/h
109 09-04-2020 12:00:00 19.93333 C 8.94 g/m*3 19.93 C 2.13333 km/h
110 09-04-2020 13:00:00 21.825 C 8.34 g/m*3 21.83 C 5.63333 km/h
111 09-04-2020 14:00:00 23.09167 C 7.27 g/m*3 23.09 C 6.84167 km/h
112 09-04-2020 15:00:00 23.71667 C 7.32 g/m*3 23.72 C 11.425 km/h
113 09-04-2020 16:00:00 24.3 C 7.47 g/m*3 24.3 C 11.28333 km/h
114 09-04-2020 17:00:00 24.7 C 7.49 g/m*3 24.7 C 11.3 km/h
115 09-04-2020 18:00:00 24.00833 C 7.76 g/m*3 24.01 C 11.56667 km/h
116 09-04-2020 19:00:00 22.30833 C 8 g/m*3 22.31 C 7.53333 km/h
117 09-04-2020 20:00:00 18.3 C 8.42 g/m*3 18.3 C 3.06667 km/h
118 09-04-2020 21:00:00 15.94167 C 8.33 g/m*3 15.94 C 2.26667 km/h
119 09-04-2020 22:00:00 14.73333 C 8.27 g/m*3 14.73 C 3.46667 km/h
120 09-04-2020 23:00:00 13.50833 C 8.16 g/m*3 13.51 C 2.66667 km/h
121 10-04-2020 00:00:00 12.04167 C 8 g/m*3 12.04 C 2 km/h
122 10-04-2020 01:00:00 10.34167 C 7.72 g/m*3 10.34 C 0 km/h
123 10-04-2020 02:00:00 9.29167 C 7.48 g/m*3 9.29 C 0 km/h
124 10-04-2020 03:00:00 8.3 C 7.23 g/m*3 8.3 C 0 km/h
125 10-04-2020 04:00:00 7.45 C 7.02 g/m*3 7.45 C 0 km/h
Sensor: Nr:Datum:Temp:Abs-Feuchte:Windchill:Wind:
Aussen-T/F 126 10-04-2020 05:00:00 6.94167 C 6.93 g/m*3 6.94 C 0 km/h
127 10-04-2020 06:00:00 6.30833 C 6.75 g/m*3 6.31 C 0 km/h
128 10-04-2020 07:00:00 6.05 C 6.74 g/m*3 6.05 C 0.13333 km/h
129 10-04-2020 08:00:00 6.525 C 7.03 g/m*3 6.53 C 0 km/h
130 10-04-2020 09:00:00 7.91667 C 7.7 g/m*3 7.92 C 0 km/h
131 10-04-2020 10:00:00 10.53333 C 8.57 g/m*3 10.53 C 0.8 km/h
132 10-04-2020 11:00:00 15.09167 C 9.26 g/m*3 15.09 C 2 km/h
133 10-04-2020 12:00:00 18.73333 C 8.33 g/m*3 18.73 C 6.575 km/h
134 10-04-2020 13:00:00 20.01667 C 7.8 g/m*3 20.02 C 8.73333 km/h
135 10-04-2020 14:00:00 21.06667 C 7.51 g/m*3 21.07 C 7.38333 km/h
136 10-04-2020 15:00:00 21.975 C 6.93 g/m*3 21.98 C 6.84167 km/h
137 10-04-2020 16:00:00 23.04167 C 7.55 g/m*3 23.04 C 8.06667 km/h
138 10-04-2020 17:00:00 24 C 7.36 g/m*3 24 C 9.41667 km/h
139 10-04-2020 18:00:00 23.1 C 7.36 g/m*3 23.1 C 10.9 km/h
140 10-04-2020 19:00:00 21.46667 C 7.23 g/m*3 21.47 C 10.76667 km/h
141 10-04-2020 20:00:00 17.7 C 7.72 g/m*3 17.7 C 2.4 km/h
142 10-04-2020 21:00:00 14.525 C 7.54 g/m*3 14.53 C 2.66667 km/h
143 10-04-2020 22:00:00 14.05 C 7.71 g/m*3 14.05 C 2 km/h
144 10-04-2020 23:00:00 12.80833 C 7.4 g/m*3 12.81 C 2.66667 km/h
145 11-04-2020 00:00:00 11.16667 C 7.24 g/m*3 11.17 C 2.4 km/h
146 11-04-2020 01:00:00 10 C 6.87 g/m*3 10 C 0.13333 km/h
147 11-04-2020 02:00:00 8.975 C 6.52 g/m*3 8.98 C 1.73333 km/h
148 11-04-2020 03:00:00 8.5 C 6.08 g/m*3 8.5 C 3.86667 km/h
149 11-04-2020 04:00:00 7.86667 C 5.72 g/m*3 7.87 C 4.26667 km/h
150 11-04-2020 05:00:00 7.06667 C 5.47 g/m*3 7.07 C 2.53333 km/h
Sensor: Nr:Datum:Temp:Abs-Feuchte:Windchill:Wind:
Aussen-T/F 151 11-04-2020 06:00:00 5.80833 C 5.43 g/m*3 5.81 C 0 km/h
152 11-04-2020 07:00:00 5.225 C 5.4 g/m*3 5.23 C 0 km/h
153 11-04-2020 08:00:00 5.8 C 5.54 g/m*3 5.8 C 0.8 km/h
154 11-04-2020 09:00:00 7.31667 C 5.82 g/m*3 7.32 C 0.66667 km/h
155 11-04-2020 10:00:00 10.08333 C 6.12 g/m*3 10.08 C 1.6 km/h
156 11-04-2020 11:00:00 14.15833 C 6.11 g/m*3 14.16 C 0.93333 km/h
157 11-04-2020 12:00:00 18.01667 C 6.09 g/m*3 18.02 C 6.725 km/h
158 11-04-2020 13:00:00 19.75833 C 6.13 g/m*3 19.76 C 10.89167 km/h
159 11-04-2020 14:00:00 21.23333 C 6.67 g/m*3 21.23 C 9.15833 km/h
160 11-04-2020 15:00:00 22.14167 C 6.85 g/m*3 22.14 C 8.325 km/h
161 11-04-2020 16:00:00 23.375 C 7.28 g/m*3 23.38 C 4.675 km/h
162 11-04-2020 17:00:00 24.39167 C 7.23 g/m*3 24.39 C 8.6 km/h
163 11-04-2020 18:00:00 24.025 C 7.17 g/m*3 24.03 C 7.26667 km/h
164 11-04-2020 19:00:00 22.83333 C 7.5 g/m*3 22.83 C 3.86667 km/h
165 11-04-2020 20:00:00 17.31667 C 7.62 g/m*3 17.32 C 5.06667 km/h
166 11-04-2020 21:00:00 15.18333 C 7.35 g/m*3 15.18 C 5.6 km/h
167 11-04-2020 22:00:00 14.175 C 7.52 g/m*3 14.18 C 3.2 km/h
168 11-04-2020 23:00:00 13.15833 C 7.51 g/m*3 13.16 C 0.4 km/h
169 12-04-2020 00:00:00 11.83333 C 7.41 g/m*3 11.83 C 0 km/h
170 12-04-2020 01:00:00 11.01667 C 7.11 g/m*3 11.02 C 0 km/h
171 12-04-2020 02:00:00 10.75 C 7.26 g/m*3 10.75 C 0 km/h
172 12-04-2020 03:00:00 10.375 C 7.35 g/m*3 10.38 C 0 km/h
173 12-04-2020 04:00:00 9.7 C 7.23 g/m*3 9.7 C 0.66667 km/h
174 12-04-2020 05:00:00 8.675 C 7.09 g/m*3 8.68 C 0 km/h
175 12-04-2020 06:00:00 7.925 C 6.99 g/m*3 7.93 C 0.8 km/h
Sensor: Nr:Datum:Temp:Abs-Feuchte:Windchill:Wind:
Aussen-T/F 176 12-04-2020 07:00:00 7.38333 C 6.94 g/m*3 7.38 C 0 km/h
177 12-04-2020 08:00:00 8.00833 C 7.34 g/m*3 8.01 C 0.13333 km/h
178 12-04-2020 09:00:00 9.375 C 8.01 g/m*3 9.38 C 0.53333 km/h
179 12-04-2020 10:00:00 12.29167 C 8.95 g/m*3 12.29 C 0.8 km/h
180 12-04-2020 11:00:00 16.63333 C 9.45 g/m*3 16.63 C 2.13333 km/h
181 12-04-2020 12:00:00 20.175 C 8.56 g/m*3 20.18 C 6.15 km/h
182 12-04-2020 13:00:00 21.58333 C 6.9 g/m*3 21.58 C 11.43333 km/h
183 12-04-2020 14:00:00 22.41667 C 6.38 g/m*3 22.42 C 11.15 km/h
184 12-04-2020 15:00:00 23.375 C 6.16 g/m*3 23.38 C 11.28333 km/h
185 12-04-2020 16:00:00 23.85 C 6.33 g/m*3 23.85 C 7.125 km/h
186 12-04-2020 17:00:00 24.33333 C 6.28 g/m*3 24.33 C 7.25 km/h
187 12-04-2020 18:00:00 24.49167 C 6.06 g/m*3 24.49 C 6.56667 km/h
188 12-04-2020 19:00:00 22.625 C 6.54 g/m*3 22.63 C 4.68333 km/h
189 12-04-2020 20:00:00 17.7 C 6.93 g/m*3 17.7 C 6.275 km/h
190 12-04-2020 21:00:00 14.60833 C 7.13 g/m*3 14.61 C 2 km/h
191 12-04-2020 22:00:00 13.06667 C 6.99 g/m*3 13.07 C 0.13333 km/h
192 12-04-2020 23:00:00 11.45 C 6.86 g/m*3 11.45 C 0.26667 km/h
193 13-04-2020 00:00:00 10.64167 C 7.03 g/m*3 10.64 C 0 km/h
194 13-04-2020 01:00:00 9.74167 C 6.96 g/m*3 9.74 C 0.4 km/h
195 13-04-2020 02:00:00 9.38333 C 6.92 g/m*3 9.38 C 2.26667 km/h
196 13-04-2020 03:00:00 8.675 C 6.87 g/m*3 8.68 C 1.6 km/h
197 13-04-2020 04:00:00 7.66667 C 6.76 g/m*3 7.67 C 1.06667 km/h
198 13-04-2020 05:00:00 7.55 C 6.9 g/m*3 7.55 C 1.33333 km/h
199 13-04-2020 06:00:00 7.31667 C 6.77 g/m*3 7.32 C 0 km/h
200 13-04-2020 07:00:00 7.56667 C 7.02 g/m*3 7.57 C 1.06667 km/h
Sensor: Nr:Datum:Temp:Abs-Feuchte:Windchill:Wind:
Aussen-T/F 201 13-04-2020 08:00:00 9.325 C 7.73 g/m*3 9.32 C 4.40833 km/h
202 13-04-2020 09:00:00 11.49167 C 8.63 g/m*3 11.49 C 10.75833 km/h
203 13-04-2020 10:00:00 11.25 C 8.01 g/m*3 11.25 C 10.5 km/h
204 13-04-2020 11:00:00 11.18333 C 7.48 g/m*3 11.18 C 14.76667 km/h
205 13-04-2020 12:00:00 10.36667 C 7.31 g/m*3 8.08 C 17.56667 km/h
206 13-04-2020 13:00:00 9.525 C 7.19 g/m*3 6.89 C 18.9 km/h
207 13-04-2020 14:00:00 8.55833 C 7.08 g/m*3 6.87 C 10.21667 km/h
208 13-04-2020 15:00:00 10.56667 C 6.1 g/m*3 8.52 C 15.83333 km/h
209 13-04-2020 16:00:00 11.425 C 5.11 g/m*3 11.43 C 17.96667 km/h
210 13-04-2020 17:00:00 12.55 C 4.8 g/m*3 12.55 C 16.63333 km/h
211 13-04-2020 18:00:00 12.51667 C 4.42 g/m*3 12.52 C 16.63333 km/h
212 13-04-2020 19:00:00 10.925 C 4.21 g/m*3 9.02 C 15.3 km/h
213 13-04-2020 20:00:00 9.14167 C 4.06 g/m*3 7.45 C 10.9 km/h
214 13-04-2020 21:00:00 7.91667 C 3.98 g/m*3 6.51 C 8.20833 km/h
215 13-04-2020 22:00:00 6.05833 C 4.21 g/m*3 6.06 C 2.4 km/h
216 13-04-2020 23:00:00 4.29167 C 4.25 g/m*3 4.29 C 3.475 km/h
217 14-04-2020 00:00:00 4.05833 C 4.15 g/m*3 4.06 C 2.94167 km/h
218 14-04-2020 01:00:00 3.55 C 4.15 g/m*3 3.55 C 2.26667 km/h
219 14-04-2020 02:00:00 2.05 C 4.15 g/m*3 2.05 C 0.66667 km/h
220 14-04-2020 03:00:00 1.48333 C 4.14 g/m*3 1.48 C 2.4 km/h
221 14-04-2020 04:00:00 1.16667 C 4.11 g/m*3 1.17 C 2.4 km/h
222 14-04-2020 05:00:00 0.775 C 4.14 g/m*3 0.78 C 1.73333 km/h
223 14-04-2020 06:00:00 0.41667 C 4.18 g/m*3 0.42 C 0.53333 km/h
224 14-04-2020 07:00:00 1.325 C 4.49 g/m*3 1.33 C 0 km/h
225 14-04-2020 08:00:00 2.54167 C 4.77 g/m*3 2.54 C 0.8 km/h
Sensor: Nr:Datum:Temp:Abs-Feuchte:Windchill:Wind:
Aussen-T/F 226 14-04-2020 09:00:00 4.325 C 5.02 g/m*3 4.33 C 2 km/h
227 14-04-2020 10:00:00 6.44167 C 4.99 g/m*3 5.21 C 6.56667 km/h
228 14-04-2020 11:00:00 7.76667 C 4.54 g/m*3 5.38 C 13.43333 km/h
229 14-04-2020 12:00:00 8.19167 C 4.54 g/m*3 6.38 C 10.475 km/h
230 14-04-2020 13:00:00 9.03333 C 4.62 g/m*3 7.69 C 8.88333 km/h
231 14-04-2020 14:00:00 9.88333 C 4.58 g/m*3 8.69 C 8.89167 km/h
232 14-04-2020 15:00:00 10.85 C 4.59 g/m*3 9.7 C 9.68333 km/h
233 14-04-2020 16:00:00 11.825 C 4.7 g/m*3 11.83 C 10.35 km/h
234 14-04-2020 17:00:00 12.29167 C 4.63 g/m*3 12.29 C 10.21667 km/h
235 14-04-2020 18:00:00 12.79167 C 4.65 g/m*3 12.79 C 9.825 km/h
236 14-04-2020 19:00:00 11.43333 C 4.59 g/m*3 11.43 C 7.78333 km/h
237 14-04-2020 20:00:00 8.83333 C 4.85 g/m*3 8.83 C 4.4 km/h
238 14-04-2020 21:00:00 6.10833 C 4.9 g/m*3 6.11 C 4.93333 km/h
239 14-04-2020 22:00:00 5.36667 C 4.9 g/m*3 5.37 C 2 km/h
240 14-04-2020 23:00:00 4.175 C 4.85 g/m*3 4.18 C 0.66667 km/h
241 15-04-2020 00:00:00 2.9 C 4.72 g/m*3 2.9 C 0 km/h
242 15-04-2020 01:00:00 2.075 C 4.64 g/m*3 2.08 C 0 km/h
243 15-04-2020 02:00:00 1.41667 C 4.56 g/m*3 1.42 C 0 km/h
244 15-04-2020 03:00:00 0.85 C 4.49 g/m*3 0.85 C 0 km/h
245 15-04-2020 04:00:00 0.53333 C 4.46 g/m*3 0.53 C 0 km/h
246 15-04-2020 05:00:00 0.325 C 4.46 g/m*3 0.33 C 0 km/h
247 15-04-2020 06:00:00 0.1 C 4.42 g/m*3 0.1 C 0 km/h
248 15-04-2020 07:00:00 0.21667 C 4.51 g/m*3 0.22 C 0.26667 km/h
249 15-04-2020 08:00:00 1.48333 C 4.87 g/m*3 1.48 C 0.53333 km/h
250 15-04-2020 09:00:00 3.29167 C 5.13 g/m*3 3.29 C 0 km/h
Sensor: Nr:Datum:Temp:Abs-Feuchte:Windchill:Wind:
Aussen-T/F 251 15-04-2020 10:00:00 5.81667 C 5.52 g/m*3 5.82 C 0.26667 km/h
252 15-04-2020 11:00:00 9.31667 C 5.73 g/m*3 9.32 C 4.15 km/h
253 15-04-2020 12:00:00 12.63333 C 5.19 g/m*3 12.63 C 5.775 km/h
254 15-04-2020 13:00:00 13.91667 C 5.21 g/m*3 13.92 C 8.875 km/h
255 15-04-2020 14:00:00 15.54167 C 5.18 g/m*3 15.54 C 7.8 km/h
256 15-04-2020 15:00:00 17.1 C 5.41 g/m*3 17.1 C 9.4 km/h
257 15-04-2020 16:00:00 18.90833 C 5.52 g/m*3 18.91 C 7.125 km/h
258 15-04-2020 17:00:00 20.475 C 5.58 g/m*3 20.48 C 8.2 km/h
259 15-04-2020 18:00:00 20.275 C 5.71 g/m*3 20.27 C 8.325 km/h
260 15-04-2020 19:00:00 19.18333 C 5.74 g/m*3 19.18 C 4.54167 km/h
261 15-04-2020 20:00:00 13.96667 C 5.95 g/m*3 13.97 C 5.6 km/h
262 15-04-2020 21:00:00 11.1 C 5.96 g/m*3 11.1 C 3.46667 km/h
263 15-04-2020 22:00:00 9.10833 C 5.96 g/m*3 9.11 C 0.66667 km/h
264 15-04-2020 23:00:00 7.63333 C 5.73 g/m*3 7.63 C 0 km/h
265 16-04-2020 00:00:00 6.51667 C 5.67 g/m*3 6.52 C 0.26667 km/h
266 16-04-2020 01:00:00 5.7 C 5.57 g/m*3 5.7 C 0 km/h
267 16-04-2020 02:00:00 4.9 C 5.49 g/m*3 4.9 C 0 km/h
268 16-04-2020 03:00:00 4.05833 C 5.38 g/m*3 4.06 C 0 km/h
269 16-04-2020 04:00:00 3.61667 C 5.34 g/m*3 3.62 C 0.26667 km/h
270 16-04-2020 05:00:00 3.14167 C 5.28 g/m*3 3.14 C 0.13333 km/h
271 16-04-2020 06:00:00 2.625 C 5.17 g/m*3 2.63 C 0.13333 km/h
272 16-04-2020 07:00:00 2.58333 C 5.25 g/m*3 2.58 C 0 km/h
273 16-04-2020 08:00:00 3.31667 C 5.56 g/m*3 3.32 C 0.26667 km/h
274 16-04-2020 09:00:00 4.80833 C 6.05 g/m*3 4.81 C 0.4 km/h
275 16-04-2020 10:00:00 8.1 C 6.84 g/m*3 8.1 C 0.26667 km/h
Sensor: Nr:Datum:Temp:Abs-Feuchte:Windchill:Wind:
Aussen-T/F 276 16-04-2020 11:00:00 14.74167 C 7.34 g/m*3 14.74 C 8.075 km/h
277 16-04-2020 12:00:00 18.85833 C 7.33 g/m*3 18.86 C 12.23333 km/h
278 16-04-2020 13:00:00 20.64167 C 7.19 g/m*3 20.64 C 11.16667 km/h
279 16-04-2020 14:00:00 21.975 C 6.99 g/m*3 21.98 C 9.80833 km/h
280 16-04-2020 15:00:00 23.25 C 7.35 g/m*3 23.25 C 12.76667 km/h
281 16-04-2020 16:00:00 24.3 C 7.39 g/m*3 24.3 C 13.3 km/h
282 16-04-2020 17:00:00 24.23333 C 7.92 g/m*3 24.23 C 12.1 km/h
283 16-04-2020 18:00:00 24.75 C 7.91 g/m*3 24.75 C 12.9 km/h
284 16-04-2020 19:00:00 22.9 C 8.06 g/m*3 22.9 C 7.66667 km/h
285 16-04-2020 20:00:00 19.45833 C 7.8 g/m*3 19.46 C 7.93333 km/h
286 16-04-2020 21:00:00 16.75833 C 7.86 g/m*3 16.76 C 3.34167 km/h
287 16-04-2020 22:00:00 14.275 C 7.96 g/m*3 14.28 C 2.93333 km/h
288 16-04-2020 23:00:00 12.48333 C 7.93 g/m*3 12.48 C 0.66667 km/h
289 17-04-2020 00:00:00 11.40833 C 7.8 g/m*3 11.41 C 0.26667 km/h
290 17-04-2020 01:00:00 10.48333 C 7.72 g/m*3 10.48 C 0.93333 km/h
291 17-04-2020 02:00:00 9.85833 C 7.63 g/m*3 9.86 C 0.66667 km/h
292 17-04-2020 03:00:00 8.51667 C 7.41 g/m*3 8.52 C 1.06667 km/h
293 17-04-2020 04:00:00 8.41667 C 7.48 g/m*3 8.42 C 0.66667 km/h
294 17-04-2020 05:00:00 7.63333 C 7.17 g/m*3 7.63 C 0.13333 km/h
295 17-04-2020 06:00:00 6.81667 C 6.99 g/m*3 6.82 C 0 km/h
296 17-04-2020 07:00:00 6.73333 C 7.06 g/m*3 6.73 C 0 km/h
297 17-04-2020 08:00:00 7.375 C 7.46 g/m*3 7.38 C 0 km/h
298 17-04-2020 09:00:00 8.95833 C 8.25 g/m*3 8.96 C 0 km/h
299 17-04-2020 10:00:00 11.325 C 9.06 g/m*3 11.33 C 0 km/h
300 17-04-2020 11:00:00 15.38333 C 9.52 g/m*3 15.38 C 1.06667 km/h
Sensor: Nr:Datum:Temp:Abs-Feuchte:Windchill:Wind:
Aussen-T/F 301 17-04-2020 12:00:00 18.95833 C 9.28 g/m*3 18.96 C 2.66667 km/h
302 17-04-2020 13:00:00 20.8 C 9.1 g/m*3 20.8 C 4.80833 km/h
303 17-04-2020 14:00:00 22.30833 C 9.38 g/m*3 22.31 C 5.75833 km/h
304 17-04-2020 15:00:00 23.375 C 9.26 g/m*3 23.38 C 8.59167 km/h
305 17-04-2020 16:00:00 24.18333 C 9.21 g/m*3 24.18 C 7.525 km/h
306 17-04-2020 17:00:00 25.4 C 8.97 g/m*3 25.4 C 6.99167 km/h
307 17-04-2020 18:00:00 25.85 C 9.48 g/m*3 25.85 C 3.6 km/h
308 17-04-2020 19:00:00 24.36667 C 10.48 g/m*3 24.37 C 3.86667 km/h
309 17-04-2020 20:00:00 19.575 C 9.95 g/m*3 19.58 C 4.93333 km/h
310 17-04-2020 21:00:00 17.50833 C 9.83 g/m*3 17.51 C 4.4 km/h
311 17-04-2020 22:00:00 15.94167 C 9.47 g/m*3 15.94 C 2.4 km/h
312 17-04-2020 23:00:00 14.55 C 9.33 g/m*3 14.55 C 0.93333 km/h
313 18-04-2020 00:00:00 13.10833 C 8.9 g/m*3 13.11 C 0.26667 km/h
314 18-04-2020 01:00:00 11.925 C 8.45 g/m*3 11.93 C 0 km/h
315 18-04-2020 02:00:00 11.00833 C 8.32 g/m*3 11.01 C 0 km/h
316 18-04-2020 03:00:00 9.95833 C 8.06 g/m*3 9.96 C 0 km/h
317 18-04-2020 04:00:00 9.38333 C 8 g/m*3 9.38 C 0 km/h
318 18-04-2020 05:00:00 9.05 C 7.9 g/m*3 9.05 C 0 km/h
319 18-04-2020 06:00:00 8.84167 C 7.87 g/m*3 8.84 C 0 km/h
320 18-04-2020 07:00:00 9.40833 C 8.32 g/m*3 9.41 C 0.66667 km/h
321 18-04-2020 08:00:00 10.325 C 8.8 g/m*3 10.33 C 0.13333 km/h
322 18-04-2020 09:00:00 12.14167 C 9.47 g/m*3 12.14 C 2.26667 km/h
323 18-04-2020 10:00:00 15.03333 C 9.99 g/m*3 15.03 C 3.875 km/h
324 18-04-2020 11:00:00 16.93333 C 10.39 g/m*3 16.93 C 2.13333 km/h
325 18-04-2020 12:00:00 18.275 C 10.63 g/m*3 18.27 C 0.8 km/h
Sensor: Nr:Datum:Temp:Abs-Feuchte:Windchill:Wind:
Aussen-T/F 326 18-04-2020 13:00:00 19.65833 C 10.49 g/m*3 19.66 C 3.475 km/h
327 18-04-2020 14:00:00 20.63333 C 10.76 g/m*3 20.63 C 4.41667 km/h
328 18-04-2020 15:00:00 21.25 C 10.83 g/m*3 21.25 C 10.34167 km/h
329 18-04-2020 16:00:00 19.825 C 11.38 g/m*3 19.83 C 12.88333 km/h
330 18-04-2020 17:00:00 18.4 C 12.18 g/m*3 18.4 C 2.275 km/h
331 18-04-2020 18:00:00 17.45 C 11.89 g/m*3 17.45 C 3.89167 km/h
332 18-04-2020 19:00:00 17.74167 C 11.09 g/m*3 17.74 C 7.79167 km/h
333 18-04-2020 20:00:00 16.5 C 10.58 g/m*3 16.5 C 2.275 km/h
334 18-04-2020 21:00:00 14.95833 C 10.55 g/m*3 14.96 C 0.8 km/h
335 18-04-2020 22:00:00 14.10833 C 10.23 g/m*3 14.11 C 2.8 km/h
336 18-04-2020 23:00:00 12.58333 C 9.73 g/m*3 12.58 C 2.26667 km/h
337 19-04-2020 00:00:00 11.13333 C 9.18 g/m*3 11.13 C 0.13333 km/h
338 19-04-2020 01:00:00 10.325 C 8.93 g/m*3 10.33 C 0.13333 km/h
339 19-04-2020 02:00:00 10.125 C 8.91 g/m*3 10.13 C 0.53333 km/h
340 19-04-2020 03:00:00 9.65833 C 8.65 g/m*3 9.66 C 0.8 km/h
341 19-04-2020 04:00:00 9.5 C 8.69 g/m*3 9.5 C 0.93333 km/h
342 19-04-2020 05:00:00 9.89167 C 8.96 g/m*3 9.89 C 1.06667 km/h
343 19-04-2020 06:00:00 10.15833 C 9.11 g/m*3 10.16 C 0.13333 km/h
344 19-04-2020 07:00:00 10.40833 C 9.26 g/m*3 10.41 C 0 km/h
345 19-04-2020 08:00:00 11.18333 C 9.72 g/m*3 11.18 C 1.06667 km/h
346 19-04-2020 09:00:00 12.53333 C 10.16 g/m*3 12.53 C 0.93333 km/h
347 19-04-2020 10:00:00 13.93333 C 10.24 g/m*3 13.93 C 1.2 km/h
348 19-04-2020 11:00:00 14.25833 C 10.1 g/m*3 14.26 C 6.425 km/h
349 19-04-2020 12:00:00 14.40833 C 9.96 g/m*3 14.41 C 5.88333 km/h
350 19-04-2020 13:00:00 16.3 C 10.04 g/m*3 16.3 C 6.16667 km/h
Sensor: Nr:Datum:Temp:Abs-Feuchte:Windchill:Wind:
Aussen-T/F 351 19-04-2020 14:00:00 17.04167 C 9.92 g/m*3 17.04 C 10.88333 km/h
352 19-04-2020 15:00:00 16.43333 C 9.22 g/m*3 16.43 C 9.81667 km/h
353 19-04-2020 16:00:00 17.53333 C 9.09 g/m*3 17.53 C 13.7 km/h
354 19-04-2020 17:00:00 17.4 C 8.6 g/m*3 17.4 C 20.5 km/h
355 19-04-2020 18:00:00 17.28333 C 7.91 g/m*3 17.28 C 15.975 km/h
356 19-04-2020 19:00:00 16.63333 C 7.31 g/m*3 16.63 C 7.90833 km/h
357 19-04-2020 20:00:00 13.9 C 7.41 g/m*3 13.9 C 0.8 km/h
358 19-04-2020 21:00:00 11.775 C 7.08 g/m*3 11.78 C 0 km/h
359 19-04-2020 22:00:00 11.125 C 6.52 g/m*3 11.13 C 1.06667 km/h
360 19-04-2020 23:00:00 10.64167 C 5.96 g/m*3 10.64 C 3.34167 km/h
361 20-04-2020 00:00:00 10.3 C 5.6 g/m*3 10.3 C 2.66667 km/h
362 20-04-2020 01:00:00 9.81667 C 5.38 g/m*3 9.82 C 4.41667 km/h
363 20-04-2020 02:00:00 8.10833 C 5.4 g/m*3 8.11 C 0.93333 km/h
364 20-04-2020 03:00:00 7.21667 C 5.35 g/m*3 7.22 C 1.33333 km/h
365 20-04-2020 04:00:00 6.60833 C 5.29 g/m*3 6.61 C 1.46667 km/h
366 20-04-2020 05:00:00 6.575 C 5.29 g/m*3 6.58 C 1.6 km/h
367 20-04-2020 06:00:00 6.36667 C 5.28 g/m*3 6.37 C 1.6 km/h
368 20-04-2020 07:00:00 6.90833 C 5.29 g/m*3 6.91 C 3.475 km/h
369 20-04-2020 08:00:00 8.33333 C 5.35 g/m*3 7.59 C 5.88333 km/h
370 20-04-2020 09:00:00 9.20833 C 5.58 g/m*3 8.51 C 6.18333 km/h
371 20-04-2020 10:00:00 11.50833 C 5.62 g/m*3 11.51 C 10.09167 km/h
372 20-04-2020 11:00:00 14.16667 C 5.43 g/m*3 14.17 C 15.96667 km/h
373 20-04-2020 12:00:00 15.05833 C 5.16 g/m*3 15.06 C 16.50833 km/h
374 20-04-2020 13:00:00 16.025 C 5.17 g/m*3 16.02 C 13.95833 km/h
375 20-04-2020 14:00:00 17.26667 C 5.11 g/m*3 17.27 C 17.83333 km/h
Sensor: Nr:Datum:Temp:Abs-Feuchte:Windchill:Wind:
Aussen-T/F 376 20-04-2020 15:00:00 18.40833 C 5.04 g/m*3 18.41 C 16.63333 km/h
377 20-04-2020 16:00:00 19.5 C 5.13 g/m*3 19.5 C 19.71667 km/h
378 20-04-2020 17:00:00 19.83333 C 5.49 g/m*3 19.83 C 20.50833 km/h
379 20-04-2020 18:00:00 18.66667 C 5.83 g/m*3 18.67 C 21.31667 km/h
380 20-04-2020 19:00:00 17.61667 C 5.44 g/m*3 17.62 C 16.375 km/h
381 20-04-2020 20:00:00 15.35 C 5.27 g/m*3 15.35 C 9.78333 km/h
382 20-04-2020 21:00:00 13.21667 C 5.11 g/m*3 13.22 C 5.225 km/h
383 20-04-2020 22:00:00 12.40833 C 5.04 g/m*3 12.41 C 5.76667 km/h
384 20-04-2020 23:00:00 11.69167 C 4.83 g/m*3 11.69 C 5.9 km/h
385 21-04-2020 00:00:00 10.975 C 4.83 g/m*3 10.58 C 6.03333 km/h
386 21-04-2020 01:00:00 9.35833 C 4.99 g/m*3 9.36 C 2.40833 km/h
387 21-04-2020 02:00:00 9.41667 C 4.96 g/m*3 8.94 C 5.49167 km/h
388 21-04-2020 03:00:00 9.54167 C 5 g/m*3 9.01 C 5.76667 km/h
389 21-04-2020 04:00:00 8.425 C 5.13 g/m*3 8.43 C 4.15 km/h
390 21-04-2020 05:00:00 7.825 C 5.2 g/m*3 7.83 C 2.80833 km/h
391 21-04-2020 06:00:00 7.01667 C 5.26 g/m*3 7.02 C 2.13333 km/h
392 21-04-2020 07:00:00 6.96667 C 5.34 g/m*3 6.97 C 2.14167 km/h
393 21-04-2020 08:00:00 8.04167 C 5.47 g/m*3 7.37 C 5.49167 km/h
394 21-04-2020 09:00:00 10.08333 C 5.45 g/m*3 8.99 C 8.59167 km/h
395 21-04-2020 10:00:00 12.33333 C 5.33 g/m*3 12.33 C 12.48333 km/h
396 21-04-2020 11:00:00 14.51667 C 5.28 g/m*3 14.52 C 14.76667 km/h
397 21-04-2020 12:00:00 16.14167 C 5.2 g/m*3 16.14 C 16.9 km/h
398 21-04-2020 13:00:00 17.4 C 5.21 g/m*3 17.4 C 16.9 km/h
399 21-04-2020 14:00:00 18.95833 C 5.27 g/m*3 18.96 C 19.56667 km/h
400 21-04-2020 15:00:00 20.21667 C 5.37 g/m*3 20.22 C 24.275 km/h
Sensor: Nr:Datum:Temp:Abs-Feuchte:Windchill:Wind:
Aussen-T/F 401 21-04-2020 16:00:00 20.80833 C 5.48 g/m*3 20.81 C 25.60833 km/h
402 21-04-2020 17:00:00 21.14167 C 5.66 g/m*3 21.14 C 20.65 km/h
403 21-04-2020 18:00:00 20.84167 C 5.82 g/m*3 20.84 C 16.64167 km/h
404 21-04-2020 19:00:00 19.58333 C 5.89 g/m*3 19.58 C 15.96667 km/h
405 21-04-2020 20:00:00 17.18333 C 5.96 g/m*3 17.18 C 5.9 km/h
406 21-04-2020 21:00:00 14.54167 C 5.97 g/m*3 14.54 C 2.4 km/h
407 21-04-2020 22:00:00 13.075 C 6.05 g/m*3 13.08 C 2.66667 km/h
408 21-04-2020 23:00:00 11.90833 C 6.04 g/m*3 11.91 C 1.86667 km/h
409 22-04-2020 00:00:00 11.28333 C 5.94 g/m*3 11.28 C 2.93333 km/h
410 22-04-2020 01:00:00 10.53333 C 5.95 g/m*3 10.53 C 2.14167 km/h
411 22-04-2020 02:00:00 9.98333 C 5.92 g/m*3 9.98 C 2.93333 km/h
412 22-04-2020 03:00:00 9.25833 C 5.89 g/m*3 9.26 C 0.93333 km/h
413 22-04-2020 04:00:00 8.41667 C 5.78 g/m*3 8.42 C 0.8 km/h
414 22-04-2020 05:00:00 7.49167 C 5.71 g/m*3 7.49 C 1.06667 km/h
415 22-04-2020 06:00:00 6.575 C 5.65 g/m*3 6.58 C 1.46667 km/h
416 22-04-2020 07:00:00 6.19167 C 5.83 g/m*3 6.19 C 2.53333 km/h
417 22-04-2020 08:00:00 7.35833 C 6.05 g/m*3 7.36 C 3.75 km/h
418 22-04-2020 09:00:00 10.36667 C 6.02 g/m*3 10.03 C 5.49167 km/h
419 22-04-2020 10:00:00 13.09167 C 5.88 g/m*3 13.09 C 8.06667 km/h
420 22-04-2020 11:00:00 15.875 C 5.68 g/m*3 15.88 C 11.15 km/h
421 22-04-2020 12:00:00 17.65 C 5.35 g/m*3 17.65 C 16.9 km/h
422 22-04-2020 13:00:00 18.93333 C 5.55 g/m*3 18.93 C 12.63333 km/h
423 22-04-2020 14:00:00 20.18333 C 5.74 g/m*3 20.18 C 14.23333 km/h
424 22-04-2020 15:00:00 21.40833 C 5.75 g/m*3 21.41 C 15.56667 km/h
425 22-04-2020 16:00:00 22.575 C 5.77 g/m*3 22.58 C 17.3 km/h
Sensor: Nr:Datum:Temp:Abs-Feuchte:Windchill:Wind:
Aussen-T/F 426 22-04-2020 17:00:00 22.65833 C 5.69 g/m*3 22.66 C 20.11667 km/h
427 22-04-2020 18:00:00 22.38333 C 5.59 g/m*3 22.38 C 18.50833 km/h
428 22-04-2020 19:00:00 21.275 C 5.58 g/m*3 21.28 C 12.09167 km/h
429 22-04-2020 20:00:00 18.38333 C 6.04 g/m*3 18.38 C 2.94167 km/h
430 22-04-2020 21:00:00 14.96667 C 6.03 g/m*3 14.97 C 1.46667 km/h
431 22-04-2020 22:00:00 13.81667 C 6.08 g/m*3 13.82 C 2.4 km/h
432 22-04-2020 23:00:00 13.74167 C 6.1 g/m*3 13.74 C 3.33333 km/h
433 23-04-2020 00:00:00 12.85 C 6.12 g/m*3 12.85 C 3.46667 km/h
434 23-04-2020 01:00:00 12.08333 C 6.14 g/m*3 12.08 C 3.34167 km/h
435 23-04-2020 02:00:00 10.35833 C 6.15 g/m*3 10.36 C 2 km/h
436 23-04-2020 03:00:00 9.51667 C 6.13 g/m*3 9.52 C 1.6 km/h
437 23-04-2020 04:00:00 8.39167 C 6.05 g/m*3 8.39 C 0.8 km/h
438 23-04-2020 05:00:00 6.975 C 5.97 g/m*3 6.98 C 0.26667 km/h
439 23-04-2020 06:00:00 6.3 C 5.9 g/m*3 6.3 C 0.13333 km/h
440 23-04-2020 07:00:00 5.95833 C 6.06 g/m*3 5.96 C 0.13333 km/h
441 23-04-2020 08:00:00 6.26667 C 6.41 g/m*3 6.27 C 0.8 km/h
442 23-04-2020 09:00:00 8.35 C 7.02 g/m*3 8.35 C 1.46667 km/h
443 23-04-2020 10:00:00 11.61667 C 7.35 g/m*3 11.62 C 2.00833 km/h
444 23-04-2020 11:00:00 16.36667 C 6.94 g/m*3 16.37 C 8.19167 km/h
445 23-04-2020 12:00:00 18.08333 C 6.71 g/m*3 18.08 C 10.48333 km/h
446 23-04-2020 13:00:00 19.425 C 5.88 g/m*3 19.43 C 9.675 km/h
447 23-04-2020 14:00:00 20.66667 C 5.93 g/m*3 20.67 C 9.55833 km/h
448 23-04-2020 15:00:00 22 C 5.97 g/m*3 22 C 8.475 km/h
449 23-04-2020 16:00:00 23.20833 C 6.07 g/m*3 23.21 C 10.225 km/h
450 23-04-2020 17:00:00 24.35833 C 6.12 g/m*3 24.36 C 7.24167 km/h
Sensor: Nr:Datum:Temp:Abs-Feuchte:Windchill:Wind:
Aussen-T/F 451 23-04-2020 18:00:00 25.35833 C 6.18 g/m*3 25.36 C 5.36667 km/h
452 23-04-2020 19:00:00 22.41667 C 8.81 g/m*3 22.42 C 3.875 km/h
453 23-04-2020 20:00:00 14.64167 C 8.41 g/m*3 14.64 C 6.85833 km/h
454 23-04-2020 21:00:00 12.975 C 7.37 g/m*3 12.98 C 1.6 km/h
455 23-04-2020 22:00:00 11.525 C 7.02 g/m*3 11.53 C 0 km/h
456 23-04-2020 23:00:00 10.15833 C 6.76 g/m*3 10.16 C 0 km/h
457 24-04-2020 00:00:00 9.33333 C 6.63 g/m*3 9.33 C 0.4 km/h
458 24-04-2020 01:00:00 8.5 C 6.57 g/m*3 8.5 C 0.8 km/h
459 24-04-2020 02:00:00 7.70833 C 6.46 g/m*3 7.71 C 0.4 km/h
460 24-04-2020 03:00:00 6.975 C 6.41 g/m*3 6.98 C 0.4 km/h
461 24-04-2020 04:00:00 6.50833 C 6.39 g/m*3 6.51 C 0.53333 km/h
462 24-04-2020 05:00:00 6.41667 C 6.43 g/m*3 6.42 C 0.4 km/h
463 24-04-2020 06:00:00 6.36667 C 6.47 g/m*3 6.37 C 0.66667 km/h
464 24-04-2020 07:00:00 6.59167 C 6.63 g/m*3 6.59 C 0.13333 km/h
465 24-04-2020 08:00:00 7.83333 C 7.04 g/m*3 7.83 C 0.4 km/h
466 24-04-2020 09:00:00 10.66667 C 7.6 g/m*3 10.67 C 0.26667 km/h
467 24-04-2020 10:00:00 12.975 C 8.09 g/m*3 12.98 C 2.13333 km/h
468 24-04-2020 11:00:00 15.21667 C 8.39 g/m*3 15.22 C 1.46667 km/h
469 24-04-2020 12:00:00 17.58333 C 8.57 g/m*3 17.58 C 5.1 km/h
470 24-04-2020 13:00:00 20.025 C 7.18 g/m*3 20.02 C 9.825 km/h
471 24-04-2020 14:00:00 21.325 C 7.67 g/m*3 21.33 C 10.23333 km/h
472 24-04-2020 15:00:00 22.06667 C 7.35 g/m*3 22.07 C 11.03333 km/h
473 24-04-2020 16:00:00 22.84167 C 6.48 g/m*3 22.84 C 11.69167 km/h
474 24-04-2020 17:00:00 22.55 C 5.98 g/m*3 22.55 C 14.36667 km/h
475 24-04-2020 18:00:00 21.59167 C 6.68 g/m*3 21.59 C 14.23333 km/h
Sensor: Nr:Datum:Temp:Abs-Feuchte:Windchill:Wind:
Aussen-T/F 476 24-04-2020 19:00:00 20.31667 C 7.25 g/m*3 20.32 C 12.9 km/h
477 24-04-2020 20:00:00 18.15833 C 7.43 g/m*3 18.16 C 5.50833 km/h
478 24-04-2020 21:00:00 15.80833 C 7.19 g/m*3 15.81 C 3.2 km/h
479 24-04-2020 22:00:00 14.64167 C 6.99 g/m*3 14.64 C 3.20833 km/h
480 24-04-2020 23:00:00 13.10833 C 6.03 g/m*3 13.11 C 2.675 km/h
481 25-04-2020 00:00:00 12.88333 C 6.03 g/m*3 12.88 C 5.89167 km/h
482 25-04-2020 01:00:00 11.725 C 6.53 g/m*3 11.73 C 5.61667 km/h
483 25-04-2020 02:00:00 10.53333 C 6.62 g/m*3 10.53 C 3.875 km/h
484 25-04-2020 03:00:00 10.20833 C 6.64 g/m*3 9.74 C 5.9 km/h
485 25-04-2020 04:00:00 9.44167 C 6.57 g/m*3 8.55 C 7.10833 km/h
486 25-04-2020 05:00:00 8.28333 C 6.77 g/m*3 8.28 C 4.68333 km/h
487 25-04-2020 06:00:00 8.35833 C 6.96 g/m*3 7.1 C 7.91667 km/h
488 25-04-2020 07:00:00 8.49167 C 6.76 g/m*3 7.31 C 7.65833 km/h
489 25-04-2020 08:00:00 8.59167 C 6.61 g/m*3 7.19 C 8.74167 km/h
490 25-04-2020 09:00:00 9.025 C 6.45 g/m*3 7.68 C 8.88333 km/h
491 25-04-2020 10:00:00 9.625 C 6.37 g/m*3 8.7 C 7.39167 km/h
492 25-04-2020 11:00:00 10.43333 C 6.37 g/m*3 9.5 C 8.075 km/h
493 25-04-2020 12:00:00 11.21667 C 6.37 g/m*3 11.22 C 8.725 km/h
494 25-04-2020 13:00:00 12.575 C 6.45 g/m*3 12.58 C 7.66667 km/h
495 25-04-2020 14:00:00 13.925 C 6.51 g/m*3 13.93 C 8.18333 km/h
496 25-04-2020 15:00:00 15.71667 C 6.65 g/m*3 15.72 C 7.79167 km/h
497 25-04-2020 16:00:00 17.66667 C 6.61 g/m*3 17.67 C 8.19167 km/h
498 25-04-2020 17:00:00 19.04167 C 6.55 g/m*3 19.04 C 7.8 km/h
499 25-04-2020 18:00:00 18.825 C 6.69 g/m*3 18.83 C 9.28333 km/h
500 25-04-2020 19:00:00 17.125 C 6.61 g/m*3 17.13 C 6.975 km/h
Sensor: Nr:Datum:Temp:Abs-Feuchte:Windchill:Wind:
Aussen-T/F 501 25-04-2020 20:00:00 14.51667 C 6.57 g/m*3 14.52 C 3.73333 km/h
502 25-04-2020 21:00:00 11.65 C 6.43 g/m*3 11.65 C 3.73333 km/h
503 25-04-2020 22:00:00 10.49167 C 6.37 g/m*3 10.21 C 5.35 km/h
504 25-04-2020 23:00:00 9.18333 C 6.37 g/m*3 9.18 C 2.53333 km/h
505 26-04-2020 00:00:00 7.45 C 6.24 g/m*3 7.45 C 0.13333 km/h
506 26-04-2020 01:00:00 6.125 C 6.1 g/m*3 6.13 C 0.13333 km/h
507 26-04-2020 02:00:00 5.325 C 6 g/m*3 5.33 C 0.53333 km/h
508 26-04-2020 03:00:00 4.76667 C 5.89 g/m*3 4.77 C 0.4 km/h
509 26-04-2020 04:00:00 4.03333 C 5.72 g/m*3 4.03 C 0 km/h
510 26-04-2020 05:00:00 3.475 C 5.61 g/m*3 3.48 C 0 km/h
511 26-04-2020 06:00:00 2.925 C 5.46 g/m*3 2.93 C 0 km/h
512 26-04-2020 07:00:00 3.09167 C 5.58 g/m*3 3.09 C 0 km/h
513 26-04-2020 08:00:00 3.94167 C 5.97 g/m*3 3.94 C 0.13333 km/h
514 26-04-2020 09:00:00 5.61667 C 6.72 g/m*3 5.62 C 0 km/h
515 26-04-2020 10:00:00 8.06667 C 7.53 g/m*3 8.07 C 0.4 km/h
516 26-04-2020 11:00:00 12.21667 C 7.72 g/m*3 12.22 C 1.73333 km/h
517 26-04-2020 12:00:00 15.26667 C 6.94 g/m*3 15.27 C 4.825 km/h
518 26-04-2020 13:00:00 16.9 C 6.56 g/m*3 16.9 C 7.79167 km/h
519 26-04-2020 14:00:00 17.8 C 6.73 g/m*3 17.8 C 9.00833 km/h
520 26-04-2020 15:00:00 19.10833 C 6.59 g/m*3 19.11 C 7.10833 km/h
521 26-04-2020 16:00:00 21.13333 C 6.43 g/m*3 21.13 C 7.24167 km/h
522 26-04-2020 17:00:00 22.33333 C 5.95 g/m*3 22.33 C 6.15 km/h
523 26-04-2020 18:00:00 22.68333 C 5.48 g/m*3 22.68 C 5.06667 km/h
524 26-04-2020 19:00:00 21.1 C 5.65 g/m*3 21.1 C 3.2 km/h
525 26-04-2020 20:00:00 17.01667 C 6.39 g/m*3 17.02 C 4.66667 km/h
Sensor: Nr:Datum:Temp:Abs-Feuchte:Windchill:Wind:
Aussen-T/F 526 26-04-2020 21:00:00 13.325 C 6.34 g/m*3 13.33 C 4.4 km/h
527 26-04-2020 22:00:00 11.36667 C 6.72 g/m*3 11.37 C 0.4 km/h
528 26-04-2020 23:00:00 9.58333 C 6.4 g/m*3 9.58 C 0.4 km/h
529 27-04-2020 00:00:00 8.48333 C 6.3 g/m*3 8.48 C 0.13333 km/h
530 27-04-2020 01:00:00 7.49167 C 6.25 g/m*3 7.49 C 0 km/h
531 27-04-2020 02:00:00 6.675 C 6.16 g/m*3 6.68 C 0.26667 km/h
532 27-04-2020 03:00:00 6.125 C 6.16 g/m*3 6.13 C 0.4 km/h
533 27-04-2020 04:00:00 5.38333 C 6 g/m*3 5.38 C 0 km/h
534 27-04-2020 05:00:00 4.51667 C 5.85 g/m*3 4.52 C 0 km/h
535 27-04-2020 06:00:00 4.23333 C 5.86 g/m*3 4.23 C 0.13333 km/h
536 27-04-2020 07:00:00 4.48333 C 6.02 g/m*3 4.48 C 0.26667 km/h
537 27-04-2020 08:00:00 5.44167 C 6.44 g/m*3 5.44 C 0.66667 km/h
538 27-04-2020 09:00:00 6.91667 C 7.03 g/m*3 6.92 C 0.13333 km/h
539 27-04-2020 10:00:00 9.85 C 8.03 g/m*3 9.85 C 0.26667 km/h
540 27-04-2020 11:00:00 15.41667 C 7.76 g/m*3 15.42 C 4 km/h
541 27-04-2020 12:00:00 18.025 C 7.43 g/m*3 18.02 C 4.94167 km/h
542 27-04-2020 13:00:00 19.6 C 6.92 g/m*3 19.6 C 9 km/h
543 27-04-2020 14:00:00 20.8 C 7.05 g/m*3 20.8 C 10.08333 km/h
544 27-04-2020 15:00:00 22.41667 C 6.91 g/m*3 22.42 C 11.03333 km/h
545 27-04-2020 16:00:00 22.7 C 6.94 g/m*3 22.7 C 12.63333 km/h
546 27-04-2020 17:00:00 21.45833 C 7.34 g/m*3 21.46 C 10.475 km/h
547 27-04-2020 18:00:00 22.59167 C 7.73 g/m*3 22.59 C 6.96667 km/h
548 27-04-2020 19:00:00 20.38333 C 8.48 g/m*3 20.38 C 5.475 km/h
549 27-04-2020 20:00:00 16.55 C 8.26 g/m*3 16.55 C 6 km/h
550 27-04-2020 21:00:00 14.55 C 8.22 g/m*3 14.55 C 4.26667 km/h
Sensor: Nr:Datum:Temp:Abs-Feuchte:Windchill:Wind:
Aussen-T/F 551 27-04-2020 22:00:00 13.2 C 8.18 g/m*3 13.2 C 1.46667 km/h
552 27-04-2020 23:00:00 12.11667 C 8.05 g/m*3 12.12 C 0 km/h
553 28-04-2020 00:00:00 10.725 C 7.89 g/m*3 10.73 C 0 km/h
554 28-04-2020 01:00:00 9.875 C 7.75 g/m*3 9.88 C 0 km/h
555 28-04-2020 02:00:00 9.11667 C 7.63 g/m*3 9.12 C 0.26667 km/h
556 28-04-2020 03:00:00 8.80833 C 7.62 g/m*3 8.81 C 0.4 km/h
557 28-04-2020 04:00:00 8.05 C 7.43 g/m*3 8.05 C 2.15 km/h
558 28-04-2020 05:00:00 8.14167 C 7.59 g/m*3 8.14 C 1.33333 km/h
559 28-04-2020 06:00:00 7.875 C 7.49 g/m*3 7.88 C 0 km/h
560 28-04-2020 07:00:00 8.86667 C 8.02 g/m*3 8.87 C 0.26667 km/h
561 28-04-2020 08:00:00 10.00833 C 8.62 g/m*3 10.01 C 0.13333 km/h
562 28-04-2020 09:00:00 11.13333 C 9.26 g/m*3 11.13 C 0.4 km/h
563 28-04-2020 10:00:00 12.60833 C 9.99 g/m*3 12.61 C 0 km/h
564 28-04-2020 11:00:00 14.01667 C 11.02 g/m*3 14.02 C 0.53333 km/h
565 28-04-2020 12:00:00 14.95833 C 11.85 g/m*3 14.96 C 0.26667 km/h
566 28-04-2020 13:00:00 15.05833 C 12 g/m*3 15.06 C 4.7 km/h
567 28-04-2020 14:00:00 16.275 C 12.58 g/m*3 16.27 C 13.69167 km/h
568 28-04-2020 15:00:00 16.24167 C 12.15 g/m*3 16.24 C 15.43333 km/h
569 28-04-2020 16:00:00 16.81667 C 11.91 g/m*3 16.82 C 17.3 km/h
570 28-04-2020 17:00:00 16.90833 C 11.26 g/m*3 16.91 C 13.56667 km/h
571 28-04-2020 18:00:00 17.675 C 10.97 g/m*3 17.68 C 12.09167 km/h
572 28-04-2020 19:00:00 16.925 C 10.77 g/m*3 16.93 C 6.43333 km/h
573 28-04-2020 20:00:00 14.95833 C 10.45 g/m*3 14.96 C 5.46667 km/h
574 28-04-2020 21:00:00 13.4 C 10.01 g/m*3 13.4 C 9.675 km/h
575 28-04-2020 22:00:00 13.30833 C 10 g/m*3 13.31 C 3.86667 km/h
Sensor: Nr:Datum:Temp:Abs-Feuchte:Windchill:Wind:
Aussen-T/F 576 28-04-2020 23:00:00 12.88333 C 10.03 g/m*3 12.88 C 1.33333 km/h
577 29-04-2020 00:00:00 12.35833 C 9.81 g/m*3 12.36 C 1.73333 km/h
578 29-04-2020 01:00:00 11.95833 C 9.73 g/m*3 11.96 C 1.6 km/h
579 29-04-2020 02:00:00 12.05833 C 9.66 g/m*3 12.06 C 7.11667 km/h
580 29-04-2020 03:00:00 12.025 C 9.4 g/m*3 12.03 C 3.86667 km/h
581 29-04-2020 04:00:00 12.00833 C 9.49 g/m*3 12.01 C 1.33333 km/h
582 29-04-2020 05:00:00 11.8 C 9.38 g/m*3 11.8 C 1.46667 km/h
583 29-04-2020 06:00:00 11.65833 C 9.35 g/m*3 11.66 C 1.60833 km/h
584 29-04-2020 07:00:00 12.03333 C 9.48 g/m*3 12.03 C 4.96667 km/h
585 29-04-2020 08:00:00 12.81667 C 9.47 g/m*3 12.82 C 9.68333 km/h
586 29-04-2020 09:00:00 13.40833 C 9.28 g/m*3 13.41 C 15.56667 km/h
587 29-04-2020 10:00:00 14.65 C 9.11 g/m*3 14.65 C 13.43333 km/h
588 29-04-2020 11:00:00 15.75833 C 9.06 g/m*3 15.76 C 16.10833 km/h
589 29-04-2020 12:00:00 16 C 8.8 g/m*3 16 C 14.9 km/h
590 29-04-2020 13:00:00 16.225 C 8.99 g/m*3 16.23 C 16.63333 km/h
591 29-04-2020 14:00:00 15.96667 C 9.23 g/m*3 15.97 C 13.83333 km/h
592 29-04-2020 15:00:00 17.4 C 9.41 g/m*3 17.4 C 13.96667 km/h
593 29-04-2020 16:00:00 17.14167 C 9.28 g/m*3 17.14 C 13.56667 km/h
594 29-04-2020 17:00:00 17.875 C 9.67 g/m*3 17.88 C 10.49167 km/h
595 29-04-2020 18:00:00 17.85833 C 9.23 g/m*3 17.86 C 10.21667 km/h
596 29-04-2020 19:00:00 17.35 C 9.38 g/m*3 17.35 C 7.65833 km/h
597 29-04-2020 20:00:00 15.3 C 9.11 g/m*3 15.3 C 2.66667 km/h
598 29-04-2020 21:00:00 13.6 C 9.05 g/m*3 13.6 C 2 km/h
599 29-04-2020 22:00:00 13.275 C 9.18 g/m*3 13.28 C 2 km/h
600 29-04-2020 23:00:00 13.15 C 9.36 g/m*3 13.15 C 0.93333 km/h
Sensor: Nr:Datum:Temp:Abs-Feuchte:Windchill:Wind:
Aussen-T/F 601 30-04-2020 00:00:00 13.225 C 9.32 g/m*3 13.23 C 3.625 km/h
602 30-04-2020 01:00:00 13.43333 C 9.22 g/m*3 13.43 C 5.35833 km/h
603 30-04-2020 02:00:00 12.70833 C 9.33 g/m*3 12.71 C 4.95 km/h
604 30-04-2020 03:00:00 12.00833 C 9.07 g/m*3 12.01 C 2.8 km/h
605 30-04-2020 04:00:00 11.49167 C 9.32 g/m*3 11.49 C 0.53333 km/h
606 30-04-2020 05:00:00 11.29167 C 9.52 g/m*3 11.29 C 1.2 km/h
607 30-04-2020 06:00:00 11.2 C 9.54 g/m*3 11.2 C 2.54167 km/h
608 30-04-2020 07:00:00 10.71667 C 9.25 g/m*3 10.06 C 6.98333 km/h
609 30-04-2020 08:00:00 10.475 C 9.09 g/m*3 9.5 C 8.33333 km/h
610 30-04-2020 09:00:00 11.65833 C 9.44 g/m*3 11.66 C 9.69167 km/h
611 30-04-2020 10:00:00 13.16667 C 9.41 g/m*3 13.17 C 13.43333 km/h
612 30-04-2020 11:00:00 13.85833 C 9.25 g/m*3 13.86 C 10.09167 km/h
613 30-04-2020 12:00:00 13.925 C 8.65 g/m*3 13.93 C 16.375 km/h
614 30-04-2020 13:00:00 14.075 C 8.1 g/m*3 14.08 C 16.775 km/h
615 30-04-2020 14:00:00 15.525 C 8.05 g/m*3 15.53 C 17.03333 km/h
616 30-04-2020 15:00:00 15.88333 C 7.98 g/m*3 15.88 C 11.01667 km/h
617 30-04-2020 16:00:00 15.61667 C 8.24 g/m*3 15.62 C 6.29167 km/h
618 30-04-2020 17:00:00 13.375 C 9.09 g/m*3 13.38 C 9.54167 km/h
619 30-04-2020 18:00:00 10.88333 C 8.99 g/m*3 9.63 C 10.34167 km/h
620 30-04-2020 19:00:00 10.65833 C 8.96 g/m*3 10.06 C 6.7 km/h
621 30-04-2020 20:00:00 10.375 C 8.76 g/m*3 10.38 C 1.73333 km/h
622 30-04-2020 21:00:00 9.425 C 8.45 g/m*3 9.43 C 1.06667 km/h
623 30-04-2020 22:00:00 9.23333 C 8.46 g/m*3 9.23 C 2.26667 km/h
624 30-04-2020 23:00:00 8.98333 C 8.39 g/m*3 8.57 C 5.1 km/h
625 01-05-2020 00:00:00 8.93333 C 8.34 g/m*3 8.13 C 6.425 km/h
Sensor: Nr:Datum:Temp:Abs-Feuchte:Windchill:Wind:
Aussen-T/F 626 01-05-2020 01:00:00 8.325 C 8.01 g/m*3 6.69 C 9.66667 km/h
627 01-05-2020 02:00:00 8.15833 C 7.85 g/m*3 6.8 C 8.18333 km/h
628 01-05-2020 03:00:00 8.075 C 7.84 g/m*3 7.45 C 5.35833 km/h
629 01-05-2020 04:00:00 7.825 C 7.72 g/m*3 7.83 C 1.6 km/h
630 01-05-2020 05:00:00 8.525 C 8.17 g/m*3 7.45 C 7.24167 km/h
631 01-05-2020 06:00:00 8.38333 C 7.93 g/m*3 7.72 C 5.625 km/h
632 01-05-2020 07:00:00 8.05833 C 7.85 g/m*3 8.06 C 1.88333 km/h
633 01-05-2020 08:00:00 8.84167 C 8.25 g/m*3 8.84 C 1.06667 km/h
634 01-05-2020 09:00:00 9.925 C 8.78 g/m*3 9.34 C 6.16667 km/h
635 01-05-2020 10:00:00 10.80833 C 8.73 g/m*3 9.61 C 9.94167 km/h
636 01-05-2020 11:00:00 12.25 C 8.63 g/m*3 12.25 C 12.76667 km/h
637 01-05-2020 12:00:00 11.96667 C 8.74 g/m*3 11.97 C 9.68333 km/h
638 01-05-2020 13:00:00 11.11667 C 8.59 g/m*3 11.12 C 11.28333 km/h
639 01-05-2020 14:00:00 12.925 C 8.57 g/m*3 12.93 C 14.5 km/h
640 01-05-2020 15:00:00 13.96667 C 8.46 g/m*3 13.97 C 13.825 km/h
641 01-05-2020 16:00:00 14.46667 C 9.13 g/m*3 14.47 C 13.43333 km/h
642 01-05-2020 17:00:00 14.76667 C 9.05 g/m*3 14.77 C 13.16667 km/h
643 01-05-2020 18:00:00 13.45 C 9.33 g/m*3 13.45 C 5.89167 km/h
644 01-05-2020 19:00:00 12.66667 C 8.77 g/m*3 12.67 C 6.83333 km/h
645 01-05-2020 20:00:00 11.25833 C 8.26 g/m*3 11.26 C 7.4 km/h
646 01-05-2020 21:00:00 10.26667 C 8.18 g/m*3 10.03 C 5.08333 km/h
647 01-05-2020 22:00:00 9.28333 C 7.96 g/m*3 8.91 C 5.09167 km/h
648 01-05-2020 23:00:00 9.6 C 8.12 g/m*3 8.31 C 9.14167 km/h
649 02-05-2020 00:00:00 9.41667 C 8.06 g/m*3 9.42 C 4.28333 km/h
650 02-05-2020 01:00:00 9.3 C 8.02 g/m*3 8.03 C 8.75833 km/h
Sensor: Nr:Datum:Temp:Abs-Feuchte:Windchill:Wind:
Aussen-T/F 651 02-05-2020 02:00:00 8.85833 C 7.91 g/m*3 8.07 C 6.30833 km/h
652 02-05-2020 03:00:00 9.33333 C 7.94 g/m*3 8.81 C 5.63333 km/h
653 02-05-2020 04:00:00 9.05833 C 7.86 g/m*3 9.06 C 3.88333 km/h
654 02-05-2020 05:00:00 8.96667 C 7.7 g/m*3 7.75 C 8.20833 km/h
655 02-05-2020 06:00:00 8.25833 C 7.38 g/m*3 6.66 C 9.41667 km/h
656 02-05-2020 07:00:00 8.49167 C 7.42 g/m*3 6.5 C 11.95 km/h
657 02-05-2020 08:00:00 9.28333 C 7.63 g/m*3 7.49 C 11.7 km/h
658 02-05-2020 09:00:00 10.19167 C 7.64 g/m*3 7.82 C 17.96667 km/h
659 02-05-2020 10:00:00 8.675 C 7.47 g/m*3 6.76 C 11.68333 km/h
660 02-05-2020 11:00:00 8.6 C 8.01 g/m*3 7.5 C 7.38333 km/h
661 02-05-2020 12:00:00 10.09167 C 8.16 g/m*3 8.49 C 11.55 km/h
662 02-05-2020 13:00:00 11.49167 C 7.99 g/m*3 11.49 C 16.23333 km/h
663 02-05-2020 14:00:00 11.825 C 7.82 g/m*3 11.83 C 18.90833 km/h
664 02-05-2020 15:00:00 9.575 C 8.24 g/m*3 8.44 C 8.325 km/h
665 02-05-2020 16:00:00 13.45 C 9.07 g/m*3 13.45 C 7.90833 km/h
666 02-05-2020 17:00:00 14.04167 C 8.79 g/m*3 14.04 C 7.93333 km/h
667 02-05-2020 18:00:00 13.38333 C 7.71 g/m*3 13.38 C 13.03333 km/h
668 02-05-2020 19:00:00 11.7 C 7.57 g/m*3 11.7 C 10.34167 km/h
669 02-05-2020 20:00:00 11.43333 C 7.69 g/m*3 11.43 C 6.03333 km/h
670 02-05-2020 21:00:00 8.71667 C 7.42 g/m*3 7.88 C 6.43333 km/h
671 02-05-2020 22:00:00 7.43333 C 7.15 g/m*3 7.43 C 1.86667 km/h
672 02-05-2020 23:00:00 6.875 C 7.06 g/m*3 6.88 C 3.33333 km/h
673 03-05-2020 00:00:00 6.375 C 6.89 g/m*3 6.38 C 2.66667 km/h
674 03-05-2020 01:00:00 5.60833 C 6.6 g/m*3 5.61 C 0.8 km/h
675 03-05-2020 02:00:00 5.26667 C 6.5 g/m*3 5.27 C 1.46667 km/h
Sensor: Nr:Datum:Temp:Abs-Feuchte:Windchill:Wind:
Aussen-T/F 676 03-05-2020 03:00:00 4.81667 C 6.35 g/m*3 4.82 C 2.13333 km/h
677 03-05-2020 04:00:00 4.23333 C 6.12 g/m*3 4.23 C 0.26667 km/h
678 03-05-2020 05:00:00 3.53333 C 5.86 g/m*3 3.53 C 0.4 km/h
679 03-05-2020 06:00:00 4.21667 C 6.19 g/m*3 4.22 C 0.93333 km/h
680 03-05-2020 07:00:00 4.5 C 6.31 g/m*3 4.5 C 4.40833 km/h
681 03-05-2020 08:00:00 4.94167 C 6.52 g/m*3 4.94 C 2.13333 km/h
682 03-05-2020 09:00:00 6.21667 C 7.14 g/m*3 6.22 C 2.53333 km/h
683 03-05-2020 10:00:00 8.56667 C 8.17 g/m*3 8.57 C 0.8 km/h
684 03-05-2020 11:00:00 12.21667 C 8.49 g/m*3 12.22 C 6.16667 km/h
685 03-05-2020 12:00:00 14.23333 C 7.22 g/m*3 14.23 C 8.88333 km/h
686 03-05-2020 13:00:00 15.40833 C 6.64 g/m*3 15.41 C 10.75833 km/h
687 03-05-2020 14:00:00 16.23333 C 6.6 g/m*3 16.23 C 9.41667 km/h
688 03-05-2020 15:00:00 17.39167 C 6.83 g/m*3 17.39 C 9.825 km/h
689 03-05-2020 16:00:00 17.38333 C 7.07 g/m*3 17.38 C 8.875 km/h
690 03-05-2020 17:00:00 16.975 C 7.13 g/m*3 16.98 C 8.2 km/h
691 03-05-2020 18:00:00 16.625 C 7.57 g/m*3 16.63 C 4.94167 km/h
692 03-05-2020 19:00:00 15.84167 C 8.7 g/m*3 15.84 C 3.86667 km/h
693 03-05-2020 20:00:00 13.48333 C 8.62 g/m*3 13.48 C 5.6 km/h
694 03-05-2020 21:00:00 12.08333 C 8.36 g/m*3 12.08 C 3.33333 km/h
695 03-05-2020 22:00:00 11.75 C 8.37 g/m*3 11.75 C 0.4 km/h
696 03-05-2020 23:00:00 11.46667 C 8.28 g/m*3 11.47 C 1.2 km/h
697 04-05-2020 00:00:00 11.31667 C 8.3 g/m*3 11.32 C 0 km/h
698 04-05-2020 01:00:00 11.075 C 8.2 g/m*3 11.08 C 0.53333 km/h
699 04-05-2020 02:00:00 11.025 C 8.33 g/m*3 11.03 C 0 km/h
700 04-05-2020 03:00:00 10 C 7.89 g/m*3 10 C 0.66667 km/h
Sensor: Nr:Datum:Temp:Abs-Feuchte:Windchill:Wind:
Aussen-T/F 701 04-05-2020 04:00:00 9.28333 C 7.82 g/m*3 9.28 C 0 km/h
702 04-05-2020 05:00:00 9.71667 C 8.13 g/m*3 9.72 C 0 km/h
703 04-05-2020 06:00:00 9.875 C 8.3 g/m*3 9.88 C 0 km/h
704 04-05-2020 07:00:00 10.49167 C 8.64 g/m*3 10.49 C 1.875 km/h
705 04-05-2020 08:00:00 11.59167 C 9.38 g/m*3 11.59 C 3.20833 km/h
706 04-05-2020 09:00:00 11.86667 C 9.8 g/m*3 11.87 C 1.46667 km/h
707 04-05-2020 10:00:00 13.20833 C 10.36 g/m*3 13.21 C 6.44167 km/h
708 04-05-2020 11:00:00 13.23333 C 10.31 g/m*3 13.23 C 6.44167 km/h
709 04-05-2020 12:00:00 12.65 C 10.19 g/m*3 12.65 C 9 km/h
710 04-05-2020 13:00:00 14.00833 C 10.36 g/m*3 14.01 C 7.79167 km/h
711 04-05-2020 14:00:00 14.725 C 10.21 g/m*3 14.73 C 12.1 km/h
712 04-05-2020 15:00:00 14.33333 C 9.85 g/m*3 14.33 C 8.88333 km/h
713 04-05-2020 16:00:00 14.59167 C 9.28 g/m*3 14.59 C 11.43333 km/h
714 04-05-2020 17:00:00 14.3 C 8.87 g/m*3 14.3 C 11.28333 km/h
715 04-05-2020 18:00:00 14.05833 C 8.52 g/m*3 14.06 C 5.475 km/h
716 04-05-2020 19:00:00 13.45 C 9.03 g/m*3 13.45 C 0.66667 km/h
717 04-05-2020 20:00:00 12.61667 C 9.07 g/m*3 12.62 C 1.73333 km/h
718 04-05-2020 21:00:00 10.54167 C 7.76 g/m*3 10.54 C 1.06667 km/h
719 04-05-2020 22:00:00 8.55 C 7.16 g/m*3 8.55 C 0.93333 km/h
720 04-05-2020 23:00:00 7.25833 C 6.87 g/m*3 7.26 C 2.4 km/h
721 05-05-2020 00:00:00 6.40833 C 6.65 g/m*3 6.41 C 1.33333 km/h
722 05-05-2020 01:00:00 5.625 C 6.46 g/m*3 5.63 C 0 km/h
723 05-05-2020 02:00:00 4.9 C 6.26 g/m*3 4.9 C 0 km/h
724 05-05-2020 03:00:00 4.81667 C 6.3 g/m*3 4.82 C 0.53333 km/h
725 05-05-2020 04:00:00 4.51667 C 6.2 g/m*3 4.52 C 0 km/h
Sensor: Nr:Datum:Temp:Abs-Feuchte:Windchill:Wind:
Aussen-T/F 726 05-05-2020 05:00:00 4.23333 C 6.13 g/m*3 4.23 C 0 km/h
727 05-05-2020 06:00:00 4.39167 C 6.22 g/m*3 4.39 C 0 km/h
728 05-05-2020 07:00:00 5.38333 C 6.69 g/m*3 5.38 C 0 km/h
729 05-05-2020 08:00:00 6.54167 C 7.19 g/m*3 6.54 C 0.8 km/h
730 05-05-2020 09:00:00 7.90833 C 7.27 g/m*3 7.18 C 5.61667 km/h
731 05-05-2020 10:00:00 9.675 C 7.07 g/m*3 9.12 C 5.90833 km/h
732 05-05-2020 11:00:00 11.85833 C 7.03 g/m*3 11.86 C 8.33333 km/h
733 05-05-2020 12:00:00 12.825 C 7.11 g/m*3 12.83 C 7.50833 km/h
734 05-05-2020 13:00:00 13.35833 C 6.97 g/m*3 13.36 C 7.10833 km/h
735 05-05-2020 14:00:00 14.09167 C 6.5 g/m*3 14.09 C 7.24167 km/h
736 05-05-2020 15:00:00 16.15 C 5.81 g/m*3 16.15 C 11.425 km/h
737 05-05-2020 16:00:00 17.71667 C 5.41 g/m*3 17.72 C 9.8 km/h
738 05-05-2020 17:00:00 18.20833 C 4.99 g/m*3 18.21 C 10.21667 km/h
739 05-05-2020 18:00:00 18.11667 C 4.67 g/m*3 18.12 C 10.21667 km/h
740 05-05-2020 19:00:00 17.075 C 4.51 g/m*3 17.08 C 10.09167 km/h
741 05-05-2020 20:00:00 15.075 C 4.86 g/m*3 15.08 C 6.98333 km/h
742 05-05-2020 21:00:00 11.24167 C 5.89 g/m*3 11.24 C 3.6 km/h
743 05-05-2020 22:00:00 9.13333 C 5.8 g/m*3 9.13 C 3.6 km/h
744 05-05-2020 23:00:00 8.15 C 5.65 g/m*3 8.15 C 2.53333 km/h
745 06-05-2020 00:00:00 7.225 C 5.63 g/m*3 7.23 C 2.13333 km/h
746 06-05-2020 01:00:00 5.90833 C 5.55 g/m*3 5.91 C 1.33333 km/h
747 06-05-2020 02:00:00 4.51667 C 5.43 g/m*3 4.52 C 0 km/h
748 06-05-2020 03:00:00 3.55 C 5.3 g/m*3 3.55 C 0 km/h
749 06-05-2020 04:00:00 3.01667 C 5.25 g/m*3 3.02 C 0 km/h
750 06-05-2020 05:00:00 2.55833 C 5.19 g/m*3 2.56 C 0.13333 km/h
Sensor: Nr:Datum:Temp:Abs-Feuchte:Windchill:Wind:
Aussen-T/F 751 06-05-2020 06:00:00 2.1 C 5.12 g/m*3 2.1 C 0 km/h
752 06-05-2020 07:00:00 2.43333 C 5.32 g/m*3 2.43 C 0.26667 km/h
753 06-05-2020 08:00:00 3.50833 C 5.78 g/m*3 3.51 C 0.13333 km/h
754 06-05-2020 09:00:00 5.75 C 6.6 g/m*3 5.75 C 0.53333 km/h
755 06-05-2020 10:00:00 9.43333 C 6.4 g/m*3 8.39 C 7.79167 km/h
756 06-05-2020 11:00:00 12.89167 C 4.86 g/m*3 12.89 C 9.80833 km/h
757 06-05-2020 12:00:00 13.75 C 4.66 g/m*3 13.75 C 9.125 km/h
758 06-05-2020 13:00:00 14.6 C 4.97 g/m*3 14.6 C 10.35 km/h
759 06-05-2020 14:00:00 15.80833 C 4.81 g/m*3 15.81 C 11.15833 km/h
760 06-05-2020 15:00:00 17.31667 C 4.82 g/m*3 17.32 C 11.15833 km/h
761 06-05-2020 16:00:00 18.90833 C 4.97 g/m*3 18.91 C 10.34167 km/h
762 06-05-2020 17:00:00 19.7 C 5.17 g/m*3 19.7 C 7.10833 km/h
763 06-05-2020 18:00:00 20.23333 C 5.27 g/m*3 20.23 C 6.28333 km/h
764 06-05-2020 19:00:00 19.125 C 5.42 g/m*3 19.13 C 4.95 km/h
765 06-05-2020 20:00:00 16.2 C 6.88 g/m*3 16.2 C 5.225 km/h
766 06-05-2020 21:00:00 12.05 C 6.59 g/m*3 12.05 C 5.51667 km/h
767 06-05-2020 22:00:00 9.7 C 6.55 g/m*3 9.7 C 1.86667 km/h
768 06-05-2020 23:00:00 8.04167 C 6.33 g/m*3 8.04 C 0 km/h
769 07-05-2020 00:00:00 6.85833 C 6.16 g/m*3 6.86 C 0.53333 km/h
770 07-05-2020 01:00:00 6.425 C 6.14 g/m*3 6.43 C 0.66667 km/h
771 07-05-2020 02:00:00 5.54167 C 5.99 g/m*3 5.54 C 0 km/h
772 07-05-2020 03:00:00 4.825 C 5.89 g/m*3 4.83 C 0 km/h
773 07-05-2020 04:00:00 4.26667 C 5.78 g/m*3 4.27 C 0 km/h
774 07-05-2020 05:00:00 3.675 C 5.65 g/m*3 3.68 C 0.4 km/h
775 07-05-2020 06:00:00 3.4 C 5.62 g/m*3 3.4 C 0.13333 km/h
Sensor: Nr:Datum:Temp:Abs-Feuchte:Windchill:Wind:
Aussen-T/F 776 07-05-2020 07:00:00 3.575 C 5.75 g/m*3 3.58 C 0.13333 km/h
777 07-05-2020 08:00:00 4.40833 C 6.12 g/m*3 4.41 C 0.13333 km/h
778 07-05-2020 09:00:00 6.24167 C 6.91 g/m*3 6.24 C 0 km/h
779 07-05-2020 10:00:00 9.14167 C 7.81 g/m*3 9.14 C 0.8 km/h
780 07-05-2020 11:00:00 13.8 C 7.87 g/m*3 13.8 C 2 km/h
781 07-05-2020 12:00:00 16.45 C 6.5 g/m*3 16.45 C 6.03333 km/h
782 07-05-2020 13:00:00 17.80833 C 6.93 g/m*3 17.81 C 8.46667 km/h
783 07-05-2020 14:00:00 19.06667 C 6.69 g/m*3 19.07 C 7.38333 km/h
784 07-05-2020 15:00:00 20.79167 C 6.7 g/m*3 20.79 C 7.38333 km/h
785 07-05-2020 16:00:00 22.85833 C 6.95 g/m*3 22.86 C 6.425 km/h
786 07-05-2020 17:00:00 23.225 C 6.84 g/m*3 23.23 C 6.70833 km/h
787 07-05-2020 18:00:00 23.425 C 6.86 g/m*3 23.43 C 6.7 km/h
788 07-05-2020 19:00:00 22.66667 C 7.9 g/m*3 22.67 C 4.54167 km/h
789 07-05-2020 20:00:00 18.3 C 8.22 g/m*3 18.3 C 6.29167 km/h
790 07-05-2020 21:00:00 15.26667 C 8.04 g/m*3 15.27 C 3.86667 km/h
791 07-05-2020 22:00:00 13.04167 C 8.02 g/m*3 13.04 C 0.13333 km/h
792 07-05-2020 23:00:00 11.76667 C 7.73 g/m*3 11.77 C 0.13333 km/h
793 08-05-2020 00:00:00 10.66667 C 7.47 g/m*3 10.67 C 0 km/h
794 08-05-2020 01:00:00 9.825 C 7.45 g/m*3 9.82 C 0.66667 km/h
795 08-05-2020 02:00:00 9.275 C 7.4 g/m*3 9.28 C 0 km/h
796 08-05-2020 03:00:00 8.275 C 7.21 g/m*3 8.28 C 0 km/h
797 08-05-2020 04:00:00 7.61667 C 7.08 g/m*3 7.62 C 0 km/h
798 08-05-2020 05:00:00 7.65 C 7.22 g/m*3 7.65 C 0.4 km/h
799 08-05-2020 06:00:00 7.20833 C 7.08 g/m*3 7.21 C 0.13333 km/h
800 08-05-2020 07:00:00 7.275 C 7.25 g/m*3 7.28 C 0.4 km/h
Sensor: Nr:Datum:Temp:Abs-Feuchte:Windchill:Wind:
Aussen-T/F 801 08-05-2020 08:00:00 8.43333 C 7.79 g/m*3 8.43 C 0.13333 km/h
802 08-05-2020 09:00:00 9.88333 C 8.39 g/m*3 9.88 C 0.53333 km/h
803 08-05-2020 10:00:00 12.45833 C 9.17 g/m*3 12.46 C 0.26667 km/h
804 08-05-2020 11:00:00 16.40833 C 9.44 g/m*3 16.41 C 1.6 km/h
805 08-05-2020 12:00:00 19.05833 C 8.07 g/m*3 19.06 C 2.66667 km/h
806 08-05-2020 13:00:00 20.78333 C 7.61 g/m*3 20.78 C 5.49167 km/h
807 08-05-2020 14:00:00 22.25833 C 7.06 g/m*3 22.26 C 6.15833 km/h
808 08-05-2020 15:00:00 23.13333 C 7.01 g/m*3 23.13 C 4.8 km/h
809 08-05-2020 16:00:00 24.94167 C 6.71 g/m*3 24.94 C 4.81667 km/h
810 08-05-2020 17:00:00 24.59167 C 7.29 g/m*3 24.59 C 4.66667 km/h
811 08-05-2020 18:00:00 24.575 C 7.25 g/m*3 24.58 C 6.01667 km/h
812 08-05-2020 19:00:00 23.51667 C 7.34 g/m*3 23.52 C 6.175 km/h
813 08-05-2020 20:00:00 19.40833 C 8.51 g/m*3 19.41 C 3.2 km/h
814 08-05-2020 21:00:00 16.575 C 8.4 g/m*3 16.58 C 3.86667 km/h
815 08-05-2020 22:00:00 14.98333 C 8.64 g/m*3 14.98 C 0.8 km/h
816 08-05-2020 23:00:00 13.875 C 8.37 g/m*3 13.88 C 0 km/h
817 09-05-2020 00:00:00 12.69167 C 8.09 g/m*3 12.69 C 0 km/h
818 09-05-2020 01:00:00 11.875 C 8.11 g/m*3 11.88 C 0 km/h
819 09-05-2020 02:00:00 11.85 C 8.38 g/m*3 11.85 C 0 km/h
820 09-05-2020 03:00:00 11.29167 C 8.33 g/m*3 11.29 C 0 km/h
821 09-05-2020 04:00:00 9.99167 C 7.82 g/m*3 9.99 C 0 km/h
822 09-05-2020 05:00:00 9.425 C 7.81 g/m*3 9.43 C 0 km/h
823 09-05-2020 06:00:00 9.925 C 8.2 g/m*3 9.93 C 0.26667 km/h
824 09-05-2020 07:00:00 11.175 C 8.65 g/m*3 11.18 C 0 km/h
825 09-05-2020 08:00:00 12.55 C 8.95 g/m*3 12.55 C 0.13333 km/h
Sensor: Nr:Datum:Temp:Abs-Feuchte:Windchill:Wind:
Aussen-T/F 826 09-05-2020 09:00:00 14.8 C 9.45 g/m*3 14.8 C 1.06667 km/h
827 09-05-2020 10:00:00 16.65833 C 8.9 g/m*3 16.66 C 3.075 km/h
828 09-05-2020 11:00:00 17.99167 C 8.85 g/m*3 17.99 C 5.48333 km/h
829 09-05-2020 12:00:00 19.55 C 9.1 g/m*3 19.55 C 4.94167 km/h
830 09-05-2020 13:00:00 20.79167 C 9.68 g/m*3 20.79 C 5.21667 km/h
831 09-05-2020 14:00:00 21.06667 C 10.21 g/m*3 21.07 C 5.61667 km/h
832 09-05-2020 15:00:00 20.23333 C 11.24 g/m*3 20.23 C 7.125 km/h
833 09-05-2020 16:00:00 21.25 C 11.65 g/m*3 21.25 C 4.675 km/h
834 09-05-2020 17:00:00 21.28333 C 11.47 g/m*3 21.28 C 4.95833 km/h
835 09-05-2020 18:00:00 22.2 C 11.8 g/m*3 22.2 C 7.11667 km/h
836 09-05-2020 19:00:00 21.95833 C 11.41 g/m*3 21.96 C 4.41667 km/h
837 09-05-2020 20:00:00 20.21667 C 11.99 g/m*3 20.22 C 2.66667 km/h
838 09-05-2020 21:00:00 16.65 C 11.3 g/m*3 16.65 C 3.73333 km/h
839 09-05-2020 22:00:00 14.53333 C 10.74 g/m*3 14.53 C 2.93333 km/h
840 09-05-2020 23:00:00 13.41667 C 10.34 g/m*3 13.42 C 1.73333 km/h
841 10-05-2020 00:00:00 12.45 C 9.94 g/m*3 12.45 C 0.26667 km/h
842 10-05-2020 01:00:00 11.74167 C 9.58 g/m*3 11.74 C 0 km/h
843 10-05-2020 02:00:00 11.34167 C 9.41 g/m*3 11.34 C 0 km/h
844 10-05-2020 03:00:00 10.90833 C 9.29 g/m*3 10.91 C 0 km/h
845 10-05-2020 04:00:00 10.8 C 9.29 g/m*3 10.8 C 0.13333 km/h
846 10-05-2020 05:00:00 10.9 C 9.44 g/m*3 10.9 C 0.53333 km/h
847 10-05-2020 06:00:00 11.10833 C 9.57 g/m*3 11.11 C 0 km/h
848 10-05-2020 07:00:00 11.6 C 9.9 g/m*3 11.6 C 0 km/h
849 10-05-2020 08:00:00 12.075 C 10.19 g/m*3 12.08 C 0.13333 km/h
850 10-05-2020 09:00:00 12.9 C 10.63 g/m*3 12.9 C 0.53333 km/h
Sensor: Nr:Datum:Temp:Abs-Feuchte:Windchill:Wind:
Aussen-T/F 851 10-05-2020 10:00:00 14.68333 C 11.47 g/m*3 14.68 C 0.53333 km/h
852 10-05-2020 11:00:00 17.80833 C 12.45 g/m*3 17.81 C 2 km/h
853 10-05-2020 12:00:00 19.84167 C 12.88 g/m*3 19.84 C 5.49167 km/h
854 10-05-2020 13:00:00 21.11667 C 13.49 g/m*3 21.12 C 5.21667 km/h
855 10-05-2020 14:00:00 22.225 C 13.68 g/m*3 22.23 C 6.55833 km/h
856 10-05-2020 15:00:00 20.58333 C 12.93 g/m*3 20.58 C 7.10833 km/h
857 10-05-2020 16:00:00 19.69167 C 13.15 g/m*3 19.69 C 8.85 km/h
858 10-05-2020 17:00:00 18.26667 C 12.95 g/m*3 18.27 C 3.33333 km/h
859 10-05-2020 18:00:00 18.63333 C 13.17 g/m*3 18.63 C 2.53333 km/h
860 10-05-2020 19:00:00 18.44167 C 13.43 g/m*3 18.44 C 2.26667 km/h
861 10-05-2020 20:00:00 17.7 C 13.2 g/m*3 17.7 C 0.66667 km/h
862 10-05-2020 21:00:00 16.78333 C 12.83 g/m*3 16.78 C 1.06667 km/h
863 10-05-2020 22:00:00 15.84167 C 12.37 g/m*3 15.84 C 2.13333 km/h
864 10-05-2020 23:00:00 15.61667 C 12.38 g/m*3 15.62 C 0.53333 km/h
865 11-05-2020 00:00:00 15.9 C 12.14 g/m*3 15.9 C 10.075 km/h
866 11-05-2020 01:00:00 14.44167 C 10.55 g/m*3 14.44 C 13.7 km/h
867 11-05-2020 02:00:00 12.51667 C 9.39 g/m*3 12.52 C 14.76667 km/h
868 11-05-2020 03:00:00 10.8 C 8.34 g/m*3 8.9 C 15.03333 km/h
869 11-05-2020 04:00:00 8.78333 C 7.8 g/m*3 6.67 C 13.16667 km/h
870 11-05-2020 05:00:00 7.41667 C 7.36 g/m*3 4.63 C 15.7 km/h
871 11-05-2020 06:00:00 6.79167 C 7.11 g/m*3 4.95 C 9.29167 km/h
872 11-05-2020 07:00:00 6.19167 C 6.77 g/m*3 3.96 C 10.625 km/h
873 11-05-2020 08:00:00 5.8 C 6.67 g/m*3 2.98 C 13.425 km/h
874 11-05-2020 09:00:00 5.38333 C 6.15 g/m*3 1.8 C 17.975 km/h
875 11-05-2020 10:00:00 5.68333 C 6.14 g/m*3 2.77 C 13.83333 km/h
Sensor: Nr:Datum:Temp:Abs-Feuchte:Windchill:Wind:
Aussen-T/F 876 11-05-2020 11:00:00 6.16667 C 5.98 g/m*3 2.99 C 16.36667 km/h
877 11-05-2020 12:00:00 6.775 C 6.01 g/m*3 3.68 C 16.90833 km/h
878 11-05-2020 13:00:00 7.65 C 5.85 g/m*3 4.69 C 17.56667 km/h
879 11-05-2020 14:00:00 8.975 C 5.57 g/m*3 6.22 C 18.63333 km/h
880 11-05-2020 15:00:00 11.125 C 5.67 g/m*3 11.13 C 21.18333 km/h
881 11-05-2020 16:00:00 12.23333 C 5.51 g/m*3 12.23 C 24.14167 km/h
882 11-05-2020 17:00:00 12.16667 C 5.22 g/m*3 12.17 C 21.84167 km/h
883 11-05-2020 18:00:00 11.63333 C 4.98 g/m*3 11.63 C 20.78333 km/h
884 11-05-2020 19:00:00 11.625 C 4.88 g/m*3 11.63 C 19.04167 km/h
885 11-05-2020 20:00:00 10.9 C 4.67 g/m*3 8.96 C 15.56667 km/h
886 11-05-2020 21:00:00 9.975 C 4.54 g/m*3 8.54 C 10.35 km/h
887 11-05-2020 22:00:00 9.34167 C 5 g/m*3 9.34 C 3.06667 km/h
888 11-05-2020 23:00:00 7.56667 C 5.45 g/m*3 7.57 C 0.8 km/h
889 12-05-2020 00:00:00 5.375 C 5.19 g/m*3 5.38 C 2.4 km/h
890 12-05-2020 01:00:00 4.10833 C 4.99 g/m*3 4.11 C 2 km/h
891 12-05-2020 02:00:00 4.15 C 4.86 g/m*3 4.15 C 3.73333 km/h
892 12-05-2020 03:00:00 2.98333 C 4.75 g/m*3 1.65 C 5.34167 km/h
893 12-05-2020 04:00:00 2.43333 C 4.68 g/m*3 0.76 C 6.025 km/h
894 12-05-2020 05:00:00 2.01667 C 4.63 g/m*3 2.02 C 4.29167 km/h
895 12-05-2020 06:00:00 1.14167 C 4.56 g/m*3 1.14 C 0.26667 km/h
896 12-05-2020 07:00:00 1.29167 C 4.78 g/m*3 1.29 C 0.4 km/h
897 12-05-2020 08:00:00 2.49167 C 5.2 g/m*3 2.49 C 0.4 km/h
898 12-05-2020 09:00:00 4.41667 C 5.59 g/m*3 4.42 C 0.66667 km/h
899 12-05-2020 10:00:00 7.05 C 5.51 g/m*3 7.05 C 3.75 km/h
900 12-05-2020 11:00:00 9.075 C 5.03 g/m*3 8.36 C 6.175 km/h
Sensor: Nr:Datum:Temp:Abs-Feuchte:Windchill:Wind:
Aussen-T/F 901 12-05-2020 12:00:00 9.925 C 4.14 g/m*3 8.72 C 9.025 km/h
902 12-05-2020 13:00:00 10.93333 C 4.11 g/m*3 9.92 C 9 km/h
903 12-05-2020 14:00:00 12.06667 C 4.67 g/m*3 12.07 C 10.21667 km/h
904 12-05-2020 15:00:00 13.10833 C 4.97 g/m*3 13.11 C 11.29167 km/h
905 12-05-2020 16:00:00 14.075 C 5.11 g/m*3 14.08 C 9.14167 km/h
906 12-05-2020 17:00:00 14.19167 C 5.25 g/m*3 14.19 C 9.15 km/h
907 12-05-2020 18:00:00 14.98333 C 5.36 g/m*3 14.98 C 7.38333 km/h
908 12-05-2020 19:00:00 13.53333 C 5.25 g/m*3 13.53 C 6.56667 km/h
909 12-05-2020 20:00:00 11.91667 C 5.68 g/m*3 11.92 C 2.53333 km/h
910 12-05-2020 21:00:00 8.88333 C 5.86 g/m*3 8.88 C 1.6 km/h
911 12-05-2020 22:00:00 7.41667 C 5.55 g/m*3 7.42 C 4 km/h
912 12-05-2020 23:00:00 6.675 C 5.53 g/m*3 6.68 C 4.675 km/h
913 13-05-2020 00:00:00 5.56667 C 5.53 g/m*3 5.57 C 0.26667 km/h
914 13-05-2020 01:00:00 4.23333 C 5.34 g/m*3 4.23 C 0 km/h
915 13-05-2020 02:00:00 3.325 C 5.18 g/m*3 3.33 C 0.13333 km/h
916 13-05-2020 03:00:00 2.66667 C 5.11 g/m*3 2.67 C 0.13333 km/h
917 13-05-2020 04:00:00 2.14167 C 5.04 g/m*3 2.14 C 0.26667 km/h
918 13-05-2020 05:00:00 2.05833 C 5.12 g/m*3 2.06 C 0.13333 km/h
919 13-05-2020 06:00:00 2.91667 C 5.44 g/m*3 2.92 C 0.8 km/h
920 13-05-2020 07:00:00 3.74167 C 5.62 g/m*3 3.74 C 2.93333 km/h
921 13-05-2020 08:00:00 5.33333 C 5.88 g/m*3 5.33 C 1.33333 km/h
922 13-05-2020 09:00:00 6.41667 C 6.27 g/m*3 6.42 C 0.66667 km/h
923 13-05-2020 10:00:00 8.96667 C 6.02 g/m*3 8.97 C 2.53333 km/h
924 13-05-2020 11:00:00 11.75 C 5.9 g/m*3 11.75 C 7.1 km/h
925 13-05-2020 12:00:00 13.05 C 5.69 g/m*3 13.05 C 8.475 km/h
Sensor: Nr:Datum:Temp:Abs-Feuchte:Windchill:Wind:
Aussen-T/F 926 13-05-2020 13:00:00 13.64167 C 5.89 g/m*3 13.64 C 10.60833 km/h
927 13-05-2020 14:00:00 14.16667 C 5.83 g/m*3 14.17 C 10.08333 km/h
928 13-05-2020 15:00:00 14.65 C 5.77 g/m*3 14.65 C 13.43333 km/h
929 13-05-2020 16:00:00 14.875 C 5.68 g/m*3 14.88 C 11.55833 km/h
930 13-05-2020 17:00:00 14.58333 C 5.64 g/m*3 14.58 C 10.625 km/h
931 13-05-2020 18:00:00 13.725 C 5.46 g/m*3 13.73 C 11.025 km/h
932 13-05-2020 19:00:00 12.9 C 5.41 g/m*3 12.9 C 8.875 km/h
933 13-05-2020 20:00:00 12.8 C 5.54 g/m*3 12.8 C 4.93333 km/h
934 13-05-2020 21:00:00 11.775 C 6.06 g/m*3 11.78 C 8.06667 km/h
935 13-05-2020 22:00:00 10.10833 C 6.65 g/m*3 9.27 C 7.375 km/h
936 13-05-2020 23:00:00 8.83333 C 6.47 g/m*3 7.91 C 6.84167 km/h
937 14-05-2020 00:00:00 8.14167 C 6.35 g/m*3 6.66 C 8.74167 km/h
938 14-05-2020 01:00:00 7.41667 C 6.14 g/m*3 7.42 C 4.825 km/h
939 14-05-2020 02:00:00 6.325 C 6.01 g/m*3 6.33 C 3.475 km/h
940 14-05-2020 03:00:00 6.225 C 6.06 g/m*3 6.23 C 2 km/h
941 14-05-2020 04:00:00 6.075 C 6.02 g/m*3 6.08 C 2.4 km/h
942 14-05-2020 05:00:00 5.85833 C 5.97 g/m*3 4.93 C 5.35 km/h
943 14-05-2020 06:00:00 5.05833 C 5.81 g/m*3 5.06 C 2 km/h
944 14-05-2020 07:00:00 4.64167 C 5.89 g/m*3 4.64 C 3.21667 km/h
945 14-05-2020 08:00:00 6.58333 C 6.1 g/m*3 5.08 C 7.64167 km/h
946 14-05-2020 09:00:00 7.775 C 6.1 g/m*3 6.55 C 7.36667 km/h
947 14-05-2020 10:00:00 9.075 C 6.17 g/m*3 8.03 C 7.50833 km/h
948 14-05-2020 11:00:00 10.89167 C 6.24 g/m*3 9.8 C 9.4 km/h
949 14-05-2020 12:00:00 12.19167 C 6.17 g/m*3 12.19 C 11.425 km/h
950 14-05-2020 13:00:00 13.35 C 6.12 g/m*3 13.35 C 11.29167 km/h
Sensor: Nr:Datum:Temp:Abs-Feuchte:Windchill:Wind:
Aussen-T/F 951 14-05-2020 14:00:00 14.15 C 5.88 g/m*3 14.15 C 8.58333 km/h
952 14-05-2020 15:00:00 14.40833 C 5.82 g/m*3 14.41 C 8.19167 km/h
953 14-05-2020 16:00:00 14.88333 C 5.68 g/m*3 14.88 C 11.3 km/h
954 14-05-2020 17:00:00 14.39167 C 5.71 g/m*3 14.39 C 13.96667 km/h
955 14-05-2020 18:00:00 14.85833 C 5.71 g/m*3 14.86 C 13.3 km/h
956 14-05-2020 19:00:00 14.79167 C 5.69 g/m*3 14.79 C 5.23333 km/h
957 14-05-2020 20:00:00 11.91667 C 6.06 g/m*3 11.92 C 2.13333 km/h
958 14-05-2020 21:00:00 9.2 C 5.71 g/m*3 9.2 C 2.66667 km/h
959 14-05-2020 22:00:00 7.80833 C 5.56 g/m*3 7.81 C 3.46667 km/h
960 14-05-2020 23:00:00 7.11667 C 5.49 g/m*3 6.41 C 5.20833 km/h
961 15-05-2020 00:00:00 6.325 C 5.5 g/m*3 6.33 C 2.8 km/h
962 15-05-2020 01:00:00 5.45 C 5.43 g/m*3 5.45 C 3.73333 km/h
963 15-05-2020 02:00:00 5.125 C 5.29 g/m*3 4.2 C 5.06667 km/h
964 15-05-2020 03:00:00 4.26667 C 5.19 g/m*3 4.27 C 0.66667 km/h
965 15-05-2020 04:00:00 3.48333 C 5.1 g/m*3 3.48 C 0.26667 km/h
966 15-05-2020 05:00:00 2.50833 C 4.98 g/m*3 2.51 C 0 km/h
967 15-05-2020 06:00:00 2.15 C 5.02 g/m*3 2.15 C 0 km/h
968 15-05-2020 07:00:00 3.15833 C 5.4 g/m*3 3.16 C 1.2 km/h
969 15-05-2020 08:00:00 4.925 C 5.79 g/m*3 4.93 C 2.53333 km/h
970 15-05-2020 09:00:00 7.46667 C 6.02 g/m*3 6.85 C 5.08333 km/h
971 15-05-2020 10:00:00 10.51667 C 6.06 g/m*3 10.06 C 6.03333 km/h
972 15-05-2020 11:00:00 12.88333 C 5.97 g/m*3 12.88 C 9.11667 km/h
973 15-05-2020 12:00:00 14.1 C 5.46 g/m*3 14.1 C 13.825 km/h
974 15-05-2020 13:00:00 14.91667 C 5.69 g/m*3 14.92 C 10.88333 km/h
975 15-05-2020 14:00:00 16.00833 C 5.85 g/m*3 16.01 C 10.75833 km/h
Sensor: Nr:Datum:Temp:Abs-Feuchte:Windchill:Wind:
Aussen-T/F 976 15-05-2020 15:00:00 17.775 C 5.78 g/m*3 17.77 C 13.025 km/h
977 15-05-2020 16:00:00 18.525 C 5.64 g/m*3 18.52 C 14.23333 km/h
978 15-05-2020 17:00:00 18.55 C 5.34 g/m*3 18.55 C 11.83333 km/h
979 15-05-2020 18:00:00 18.05833 C 5.25 g/m*3 18.06 C 11.56667 km/h
980 15-05-2020 19:00:00 17.35833 C 5.03 g/m*3 17.36 C 9.825 km/h
981 15-05-2020 20:00:00 15.7 C 5.16 g/m*3 15.7 C 4.675 km/h
982 15-05-2020 21:00:00 12.11667 C 5.62 g/m*3 12.12 C 4.14167 km/h
983 15-05-2020 22:00:00 10.10833 C 5.85 g/m*3 10.11 C 3.2 km/h
984 15-05-2020 23:00:00 8.90833 C 5.88 g/m*3 8.91 C 2 km/h
985 16-05-2020 00:00:00 7.76667 C 5.7 g/m*3 7.77 C 3.06667 km/h
986 16-05-2020 01:00:00 6.21667 C 5.65 g/m*3 6.22 C 0.13333 km/h
987 16-05-2020 02:00:00 4.8 C 5.5 g/m*3 4.8 C 0 km/h
988 16-05-2020 03:00:00 4 C 5.43 g/m*3 4 C 0 km/h
989 16-05-2020 04:00:00 3.375 C 5.35 g/m*3 3.38 C 0 km/h
990 16-05-2020 05:00:00 2.86667 C 5.28 g/m*3 2.87 C 0.13333 km/h
991 16-05-2020 06:00:00 2.6 C 5.27 g/m*3 2.6 C 0 km/h
992 16-05-2020 07:00:00 2.98333 C 5.49 g/m*3 2.98 C 0 km/h
993 16-05-2020 08:00:00 4.275 C 6 g/m*3 4.28 C 0.4 km/h
994 16-05-2020 09:00:00 6.35 C 6.72 g/m*3 6.35 C 0 km/h
995 16-05-2020 10:00:00 9.875 C 6.95 g/m*3 9.88 C 1.2 km/h
996 16-05-2020 11:00:00 13.58333 C 6.17 g/m*3 13.58 C 6.71667 km/h
997 16-05-2020 12:00:00 14.65 C 6 g/m*3 14.65 C 7.375 km/h
998 16-05-2020 13:00:00 15.65833 C 6.04 g/m*3 15.66 C 7.11667 km/h
999 16-05-2020 14:00:00 17.03333 C 5.99 g/m*3 17.03 C 9 km/h
1000 16-05-2020 15:00:00 18.6 C 5.7 g/m*3 18.6 C 9.95 km/h
Sensor: Nr:Datum:Temp:Abs-Feuchte:Windchill:Wind:
Aussen-T/F 1001 16-05-2020 16:00:00 19.85833 C 6.14 g/m*3 19.86 C 7.51667 km/h
1002 16-05-2020 17:00:00 18.875 C 6.28 g/m*3 18.88 C 4.41667 km/h
1003 16-05-2020 18:00:00 19.41667 C 6.32 g/m*3 19.42 C 7.38333 km/h
1004 16-05-2020 19:00:00 18.58333 C 6.47 g/m*3 18.58 C 6.56667 km/h
1005 16-05-2020 20:00:00 17.54167 C 6.7 g/m*3 17.54 C 4.66667 km/h
1006 16-05-2020 21:00:00 14.28333 C 7.11 g/m*3 14.28 C 2.26667 km/h
1007 16-05-2020 22:00:00 12.81667 C 6.99 g/m*3 12.82 C 6.41667 km/h
1008 16-05-2020 23:00:00 12.16667 C 7.05 g/m*3 12.17 C 4.54167 km/h
1009 17-05-2020 00:00:00 11.31667 C 7.09 g/m*3 11.32 C 3.46667 km/h
1010 17-05-2020 01:00:00 9.85833 C 6.99 g/m*3 9.86 C 3.73333 km/h
1011 17-05-2020 02:00:00 9.14167 C 6.89 g/m*3 8.67 C 5.35833 km/h
1012 17-05-2020 03:00:00 8.625 C 6.98 g/m*3 8.63 C 3.74167 km/h
1013 17-05-2020 04:00:00 8.25833 C 6.97 g/m*3 8.26 C 3.6 km/h
1014 17-05-2020 05:00:00 7.18333 C 6.78 g/m*3 7.18 C 3.6 km/h
1015 17-05-2020 06:00:00 6.70833 C 6.68 g/m*3 6.71 C 3.6 km/h
1016 17-05-2020 07:00:00 6.93333 C 6.84 g/m*3 6.93 C 1.73333 km/h
1017 17-05-2020 08:00:00 7.49167 C 7.11 g/m*3 7.49 C 0.8 km/h
1018 17-05-2020 09:00:00 9.96667 C 7.33 g/m*3 9.97 C 4.40833 km/h
1019 17-05-2020 10:00:00 12.21667 C 7.06 g/m*3 12.22 C 7.50833 km/h
1020 17-05-2020 11:00:00 13.23333 C 7.02 g/m*3 13.23 C 6.15833 km/h
1021 17-05-2020 12:00:00 14.25833 C 6.92 g/m*3 14.26 C 7.79167 km/h
1022 17-05-2020 13:00:00 15.35833 C 6.86 g/m*3 15.36 C 8.73333 km/h
1023 17-05-2020 14:00:00 16.85 C 6.76 g/m*3 16.85 C 8.725 km/h
1024 17-05-2020 15:00:00 18.625 C 6.59 g/m*3 18.63 C 8.74167 km/h
1025 17-05-2020 16:00:00 20.13333 C 6.52 g/m*3 20.13 C 10.35833 km/h
Sensor: Nr:Datum:Temp:Abs-Feuchte:Windchill:Wind:
Aussen-T/F 1026 17-05-2020 17:00:00 20.69167 C 6.24 g/m*3 20.69 C 9.80833 km/h
1027 17-05-2020 18:00:00 20.95833 C 6.5 g/m*3 20.96 C 7.94167 km/h
1028 17-05-2020 19:00:00 20.00833 C 6.5 g/m*3 20.01 C 5.89167 km/h
1029 17-05-2020 20:00:00 18.46667 C 6.92 g/m*3 18.47 C 3.34167 km/h
1030 17-05-2020 21:00:00 14.75833 C 7.22 g/m*3 14.76 C 6.99167 km/h
1031 17-05-2020 22:00:00 12.99167 C 7.1 g/m*3 12.99 C 4.81667 km/h
1032 17-05-2020 23:00:00 10.73333 C 7.14 g/m*3 10.73 C 0 km/h
1033 18-05-2020 00:00:00 9.35 C 7.01 g/m*3 9.35 C 0.4 km/h
1034 18-05-2020 01:00:00 8.54167 C 6.93 g/m*3 8.54 C 0.26667 km/h
1035 18-05-2020 02:00:00 7.95 C 6.86 g/m*3 7.95 C 0.66667 km/h
1036 18-05-2020 03:00:00 7.16667 C 6.74 g/m*3 7.17 C 0.13333 km/h
1037 18-05-2020 04:00:00 6.60833 C 6.62 g/m*3 6.61 C 0.26667 km/h
1038 18-05-2020 05:00:00 6.04167 C 6.5 g/m*3 6.04 C 0.66667 km/h
1039 18-05-2020 06:00:00 5.925 C 6.56 g/m*3 5.93 C 0 km/h
1040 18-05-2020 07:00:00 6.7 C 6.99 g/m*3 6.7 C 0.13333 km/h
1041 18-05-2020 08:00:00 8.125 C 7.67 g/m*3 8.13 C 0 km/h
1042 18-05-2020 09:00:00 10.525 C 8.51 g/m*3 10.53 C 0 km/h
1043 18-05-2020 10:00:00 13.975 C 8.99 g/m*3 13.98 C 2.40833 km/h
1044 18-05-2020 11:00:00 18.925 C 8.22 g/m*3 18.93 C 7.24167 km/h
1045 18-05-2020 12:00:00 20.225 C 8.23 g/m*3 20.23 C 9.26667 km/h
1046 18-05-2020 13:00:00 21.45 C 8.1 g/m*3 21.45 C 10.74167 km/h
1047 18-05-2020 14:00:00 22.80833 C 8.11 g/m*3 22.81 C 9.94167 km/h
1048 18-05-2020 15:00:00 24.43333 C 8.29 g/m*3 24.43 C 9.28333 km/h
1049 18-05-2020 16:00:00 25.59167 C 8.39 g/m*3 25.59 C 10.225 km/h
1050 18-05-2020 17:00:00 25.86667 C 8.64 g/m*3 25.87 C 9.80833 km/h
Sensor: Nr:Datum:Temp:Abs-Feuchte:Windchill:Wind:
Aussen-T/F 1051 18-05-2020 18:00:00 26.05 C 9.24 g/m*3 26.05 C 8.875 km/h
1052 18-05-2020 19:00:00 24.85 C 9.61 g/m*3 24.85 C 8.075 km/h
1053 18-05-2020 20:00:00 22.89167 C 9.91 g/m*3 22.89 C 5.21667 km/h
1054 18-05-2020 21:00:00 19.43333 C 9.89 g/m*3 19.43 C 4.95833 km/h
1055 18-05-2020 22:00:00 17.025 C 9.73 g/m*3 17.02 C 5.625 km/h
1056 18-05-2020 23:00:00 15.69167 C 9.68 g/m*3 15.69 C 4.80833 km/h
1057 19-05-2020 00:00:00 13.85833 C 9.28 g/m*3 13.86 C 0.26667 km/h
1058 19-05-2020 01:00:00 12.08333 C 8.96 g/m*3 12.08 C 2 km/h
1059 19-05-2020 02:00:00 11.03333 C 8.53 g/m*3 11.03 C 1.06667 km/h
1060 19-05-2020 03:00:00 9.825 C 8.16 g/m*3 9.82 C 0 km/h
1061 19-05-2020 04:00:00 8.89167 C 7.92 g/m*3 8.89 C 1.46667 km/h
1062 19-05-2020 05:00:00 8.31667 C 7.64 g/m*3 8.32 C 0.66667 km/h
1063 19-05-2020 06:00:00 8.125 C 7.62 g/m*3 8.13 C 0.53333 km/h
1064 19-05-2020 07:00:00 8.35 C 7.78 g/m*3 8.35 C 0.13333 km/h
1065 19-05-2020 08:00:00 9.29167 C 8.29 g/m*3 9.29 C 0.53333 km/h
1066 19-05-2020 09:00:00 11.55833 C 9.12 g/m*3 11.56 C 0.4 km/h
1067 19-05-2020 10:00:00 15.025 C 8.71 g/m*3 15.03 C 1.46667 km/h
1068 19-05-2020 11:00:00 19.51667 C 7.64 g/m*3 19.52 C 4.00833 km/h
1069 19-05-2020 12:00:00 20.34167 C 7.13 g/m*3 20.34 C 3.33333 km/h
1070 19-05-2020 13:00:00 21.75 C 7.16 g/m*3 21.75 C 9.54167 km/h
1071 19-05-2020 14:00:00 23.225 C 7.69 g/m*3 23.23 C 11.425 km/h
1072 19-05-2020 15:00:00 24.11667 C 8.58 g/m*3 24.12 C 11.7 km/h
1073 19-05-2020 16:00:00 24.61667 C 9.07 g/m*3 24.62 C 14.76667 km/h
1074 19-05-2020 17:00:00 25.26667 C 9.62 g/m*3 25.27 C 13.7 km/h
1075 19-05-2020 18:00:00 25.43333 C 9.81 g/m*3 25.43 C 13.03333 km/h
Sensor: Nr:Datum:Temp:Abs-Feuchte:Windchill:Wind:
Aussen-T/F 1076 19-05-2020 19:00:00 24.35 C 10.12 g/m*3 24.35 C 9.83333 km/h
1077 19-05-2020 20:00:00 21.79167 C 10.45 g/m*3 21.79 C 5.75833 km/h
1078 19-05-2020 21:00:00 19.225 C 10.53 g/m*3 19.23 C 2.4 km/h
1079 19-05-2020 22:00:00 17 C 10.24 g/m*3 17 C 4.13333 km/h
1080 19-05-2020 23:00:00 15.58333 C 10.21 g/m*3 15.58 C 0.8 km/h
1081 20-05-2020 00:00:00 14.90833 C 10.32 g/m*3 14.91 C 0 km/h
1082 20-05-2020 01:00:00 13.65833 C 9.9 g/m*3 13.66 C 0 km/h
1083 20-05-2020 02:00:00 12.825 C 9.73 g/m*3 12.83 C 0.4 km/h
1084 20-05-2020 03:00:00 12.25833 C 9.61 g/m*3 12.26 C 1.60833 km/h
1085 20-05-2020 04:00:00 11.91667 C 9.58 g/m*3 11.92 C 2.28333 km/h
1086 20-05-2020 05:00:00 11.3 C 9.31 g/m*3 11.3 C 0.26667 km/h
1087 20-05-2020 06:00:00 11.45 C 9.49 g/m*3 11.45 C 0.13333 km/h
1088 20-05-2020 07:00:00 11.975 C 9.89 g/m*3 11.98 C 2.26667 km/h
1089 20-05-2020 08:00:00 14.78333 C 10.99 g/m*3 14.78 C 7.25 km/h
1090 20-05-2020 09:00:00 16.96667 C 11.25 g/m*3 16.97 C 8.33333 km/h
1091 20-05-2020 10:00:00 18.60833 C 11.47 g/m*3 18.61 C 8.88333 km/h
1092 20-05-2020 11:00:00 19.60833 C 11.5 g/m*3 19.61 C 10.225 km/h
1093 20-05-2020 12:00:00 20.25 C 11.53 g/m*3 20.25 C 9.80833 km/h
1094 20-05-2020 13:00:00 21.15 C 11.43 g/m*3 21.15 C 11.29167 km/h
1095 20-05-2020 14:00:00 21.89167 C 11.44 g/m*3 21.89 C 12.23333 km/h
1096 20-05-2020 15:00:00 23.225 C 11.5 g/m*3 23.23 C 9.81667 km/h
1097 20-05-2020 16:00:00 24.25 C 11.13 g/m*3 24.25 C 11.95833 km/h
1098 20-05-2020 17:00:00 24.525 C 11.04 g/m*3 24.53 C 11.68333 km/h
1099 20-05-2020 18:00:00 24.51667 C 10.85 g/m*3 24.52 C 8.75 km/h
1100 20-05-2020 19:00:00 23.55 C 10.82 g/m*3 23.55 C 8.88333 km/h
Sensor: Nr:Datum:Temp:Abs-Feuchte:Windchill:Wind:
Aussen-T/F 1101 20-05-2020 20:00:00 21.93333 C 10.78 g/m*3 21.93 C 4.8 km/h
1102 20-05-2020 21:00:00 19.30833 C 10.73 g/m*3 19.31 C 4.40833 km/h
1103 20-05-2020 22:00:00 16.49167 C 10.5 g/m*3 16.49 C 2.93333 km/h
1104 20-05-2020 23:00:00 15.35 C 10.25 g/m*3 15.35 C 0.93333 km/h
1105 21-05-2020 00:00:00 14.55 C 9.98 g/m*3 14.55 C 1.86667 km/h
1106 21-05-2020 01:00:00 14.6 C 9.89 g/m*3 14.6 C 2.66667 km/h
1107 21-05-2020 02:00:00 13.16667 C 9.63 g/m*3 13.17 C 4 km/h
1108 21-05-2020 03:00:00 12.43333 C 9.51 g/m*3 12.43 C 2.93333 km/h
1109 21-05-2020 04:00:00 11.41667 C 9.15 g/m*3 11.42 C 0.26667 km/h
1110 21-05-2020 05:00:00 10.575 C 8.91 g/m*3 10.58 C 0 km/h
1111 21-05-2020 06:00:00 10.25833 C 8.88 g/m*3 10.26 C 0 km/h
1112 21-05-2020 07:00:00 10.675 C 9.23 g/m*3 10.68 C 0 km/h
1113 21-05-2020 08:00:00 11.78333 C 9.99 g/m*3 11.78 C 0.4 km/h
1114 21-05-2020 09:00:00 13.89167 C 11.05 g/m*3 13.89 C 0.66667 km/h
1115 21-05-2020 10:00:00 17.70833 C 11.75 g/m*3 17.71 C 4.83333 km/h
1116 21-05-2020 11:00:00 21.23333 C 11.7 g/m*3 21.23 C 10.75833 km/h
1117 21-05-2020 12:00:00 22.15833 C 11.47 g/m*3 22.16 C 8.06667 km/h
1118 21-05-2020 13:00:00 23.24167 C 11.48 g/m*3 23.24 C 7.90833 km/h
1119 21-05-2020 14:00:00 24.625 C 11.76 g/m*3 24.63 C 7.525 km/h
1120 21-05-2020 15:00:00 26.85833 C 11.66 g/m*3 26.86 C 7.25833 km/h
1121 21-05-2020 16:00:00 28.06667 C 11.3 g/m*3 28.07 C 7.93333 km/h
1122 21-05-2020 17:00:00 28.7 C 10.83 g/m*3 28.7 C 7.93333 km/h
1123 21-05-2020 18:00:00 28.06667 C 10.62 g/m*3 28.07 C 7.65 km/h
1124 21-05-2020 19:00:00 28.08333 C 11.45 g/m*3 28.08 C 4.26667 km/h
1125 21-05-2020 20:00:00 25.30833 C 12.57 g/m*3 25.31 C 2.4 km/h
Sensor: Nr:Datum:Temp:Abs-Feuchte:Windchill:Wind:
Aussen-T/F 1126 21-05-2020 21:00:00 21.2 C 12.06 g/m*3 21.2 C 5.08333 km/h
1127 21-05-2020 22:00:00 19.1 C 11.87 g/m*3 19.1 C 5.075 km/h
1128 21-05-2020 23:00:00 18.675 C 11.71 g/m*3 18.68 C 2.8 km/h
1129 22-05-2020 00:00:00 17.55833 C 11.37 g/m*3 17.56 C 1.2 km/h
1130 22-05-2020 01:00:00 16.225 C 11.03 g/m*3 16.23 C 0 km/h
1131 22-05-2020 02:00:00 15.3 C 10.99 g/m*3 15.3 C 0 km/h
1132 22-05-2020 03:00:00 14.60833 C 10.76 g/m*3 14.61 C 0 km/h
1133 22-05-2020 04:00:00 13.58333 C 10.41 g/m*3 13.58 C 0 km/h
1134 22-05-2020 05:00:00 12.95 C 10.3 g/m*3 12.95 C 0 km/h
1135 22-05-2020 06:00:00 13.25 C 10.73 g/m*3 13.25 C 0 km/h
1136 22-05-2020 07:00:00 14.95 C 11.81 g/m*3 14.95 C 0 km/h
1137 22-05-2020 08:00:00 17.55833 C 12.5 g/m*3 17.56 C 3.86667 km/h
1138 22-05-2020 09:00:00 19.91667 C 12.96 g/m*3 19.92 C 6.175 km/h
1139 22-05-2020 10:00:00 21.65 C 13.66 g/m*3 21.65 C 1.06667 km/h
1140 22-05-2020 11:00:00 23.675 C 13.88 g/m*3 23.68 C 6.85 km/h
1141 22-05-2020 12:00:00 24.51667 C 13.65 g/m*3 24.52 C 7.64167 km/h
1142 22-05-2020 13:00:00 25.15833 C 14.19 g/m*3 25.16 C 6.05 km/h
1143 22-05-2020 14:00:00 26.25833 C 14.22 g/m*3 26.26 C 8.05 km/h
1144 22-05-2020 15:00:00 26.36667 C 13.5 g/m*3 26.37 C 11.96667 km/h
1145 22-05-2020 16:00:00 26.08333 C 13.55 g/m*3 26.08 C 12.23333 km/h
1146 22-05-2020 17:00:00 26.23333 C 13.89 g/m*3 26.23 C 7.375 km/h
1147 22-05-2020 18:00:00 25.11667 C 14.48 g/m*3 25.12 C 7.79167 km/h
1148 22-05-2020 19:00:00 24.275 C 14.16 g/m*3 24.28 C 7.65833 km/h
1149 22-05-2020 20:00:00 21.25833 C 13.84 g/m*3 21.26 C 13.15833 km/h
1150 22-05-2020 21:00:00 18.35 C 13.6 g/m*3 18.35 C 3.08333 km/h
Sensor: Nr:Datum:Temp:Abs-Feuchte:Windchill:Wind:
Aussen-T/F 1151 22-05-2020 22:00:00 17.5 C 13.73 g/m*3 17.5 C 1.86667 km/h
1152 22-05-2020 23:00:00 17.09167 C 13.63 g/m*3 17.09 C 2.4 km/h
1153 23-05-2020 00:00:00 16.7 C 13.45 g/m*3 16.7 C 1.86667 km/h
1154 23-05-2020 01:00:00 16.125 C 12.95 g/m*3 16.13 C 1.86667 km/h
1155 23-05-2020 02:00:00 14.2 C 11.47 g/m*3 14.2 C 4.80833 km/h
1156 23-05-2020 03:00:00 13.65833 C 11.22 g/m*3 13.66 C 4.68333 km/h
1157 23-05-2020 04:00:00 13.66667 C 11.32 g/m*3 13.67 C 4.95 km/h
1158 23-05-2020 05:00:00 12.01667 C 10.11 g/m*3 12.02 C 8.75833 km/h
1159 23-05-2020 06:00:00 11.6 C 9.94 g/m*3 11.6 C 5.23333 km/h
1160 23-05-2020 07:00:00 12.35 C 10.48 g/m*3 12.35 C 2.53333 km/h
1161 23-05-2020 08:00:00 13.06667 C 10.94 g/m*3 13.07 C 1.6 km/h
1162 23-05-2020 09:00:00 12.975 C 10.76 g/m*3 12.98 C 3.875 km/h
1163 23-05-2020 10:00:00 12.5 C 10.04 g/m*3 12.5 C 8.16667 km/h
1164 23-05-2020 11:00:00 11.89167 C 9.74 g/m*3 11.89 C 7.51667 km/h
1165 23-05-2020 12:00:00 12.325 C 9.72 g/m*3 12.33 C 7.51667 km/h
1166 23-05-2020 13:00:00 12.91667 C 9.88 g/m*3 12.92 C 8.6 km/h
1167 23-05-2020 14:00:00 13.71667 C 9.9 g/m*3 13.72 C 11.825 km/h
1168 23-05-2020 15:00:00 14.925 C 10.02 g/m*3 14.93 C 14.23333 km/h
1169 23-05-2020 16:00:00 15.95833 C 9.83 g/m*3 15.96 C 11.425 km/h
1170 23-05-2020 17:00:00 15.81667 C 10.05 g/m*3 15.82 C 12.63333 km/h
1171 23-05-2020 18:00:00 15.925 C 10.18 g/m*3 15.93 C 11.69167 km/h
1172 23-05-2020 19:00:00 15.40833 C 9.96 g/m*3 15.41 C 11.03333 km/h
1173 23-05-2020 20:00:00 14.66667 C 9.81 g/m*3 14.67 C 10.35 km/h
1174 23-05-2020 21:00:00 13.24167 C 9.35 g/m*3 13.24 C 8.45833 km/h
1175 23-05-2020 22:00:00 11.91667 C 8.97 g/m*3 11.92 C 6.84167 km/h
Sensor: Nr:Datum:Temp:Abs-Feuchte:Windchill:Wind:
Aussen-T/F 1176 23-05-2020 23:00:00 11.05 C 8.78 g/m*3 11.05 C 5.23333 km/h
1177 24-05-2020 00:00:00 10.48333 C 8.62 g/m*3 10.48 C 4.00833 km/h
1178 24-05-2020 01:00:00 10.13333 C 8.32 g/m*3 10.13 C 4.14167 km/h
1179 24-05-2020 02:00:00 10.18333 C 7.87 g/m*3 9.26 C 7.8 km/h
1180 24-05-2020 03:00:00 10.46667 C 7.77 g/m*3 9.32 C 9.26667 km/h
1181 24-05-2020 04:00:00 10.30833 C 7.6 g/m*3 9.2 C 8.875 km/h
1182 24-05-2020 05:00:00 10.21667 C 7.6 g/m*3 8.51 C 12.5 km/h
1183 24-05-2020 06:00:00 10.25833 C 7.76 g/m*3 9.35 C 7.8 km/h
1184 24-05-2020 07:00:00 10.3 C 7.86 g/m*3 8.98 C 10.075 km/h
1185 24-05-2020 08:00:00 11.14167 C 8.16 g/m*3 11.14 C 9.55 km/h
1186 24-05-2020 09:00:00 12.74167 C 8.58 g/m*3 12.74 C 13.15833 km/h
1187 24-05-2020 10:00:00 14.41667 C 8.86 g/m*3 14.42 C 13.3 km/h
1188 24-05-2020 11:00:00 15.55 C 8.19 g/m*3 15.55 C 11.69167 km/h
1189 24-05-2020 12:00:00 16.83333 C 8.02 g/m*3 16.83 C 13.7 km/h
1190 24-05-2020 13:00:00 17.54167 C 8.06 g/m*3 17.54 C 12.23333 km/h
1191 24-05-2020 14:00:00 17.00833 C 8.16 g/m*3 17.01 C 11.83333 km/h
1192 24-05-2020 15:00:00 16.89167 C 8.46 g/m*3 16.89 C 12.1 km/h
1193 24-05-2020 16:00:00 16.65833 C 8.85 g/m*3 16.66 C 13.43333 km/h
1194 24-05-2020 17:00:00 16.64167 C 9.15 g/m*3 16.64 C 9.68333 km/h
1195 24-05-2020 18:00:00 16.14167 C 9.7 g/m*3 16.14 C 8.06667 km/h
1196 24-05-2020 19:00:00 14.50833 C 10.45 g/m*3 14.51 C 2.26667 km/h
1197 24-05-2020 20:00:00 14.75 C 10.33 g/m*3 14.75 C 6.175 km/h
1198 24-05-2020 21:00:00 14.65833 C 10.17 g/m*3 14.66 C 3.88333 km/h
1199 24-05-2020 22:00:00 14.13333 C 10.15 g/m*3 14.13 C 3.46667 km/h
1200 24-05-2020 23:00:00 14.08333 C 10.15 g/m*3 14.08 C 3.74167 km/h
Sensor: Nr:Datum:Temp:Abs-Feuchte:Windchill:Wind:
Aussen-T/F 1201 25-05-2020 00:00:00 13.525 C 10.14 g/m*3 13.53 C 1.46667 km/h
1202 25-05-2020 01:00:00 13 C 10.05 g/m*3 13 C 0.8 km/h
1203 25-05-2020 02:00:00 12.93333 C 10.05 g/m*3 12.93 C 1.86667 km/h
1204 25-05-2020 03:00:00 13.275 C 10.11 g/m*3 13.28 C 2.26667 km/h
1205 25-05-2020 04:00:00 13.30833 C 10.07 g/m*3 13.31 C 2.4 km/h
1206 25-05-2020 05:00:00 13.24167 C 10.06 g/m*3 13.24 C 1.86667 km/h
1207 25-05-2020 06:00:00 13.3 C 10.16 g/m*3 13.3 C 1.06667 km/h
1208 25-05-2020 07:00:00 13.8 C 10.32 g/m*3 13.8 C 3.61667 km/h
1209 25-05-2020 08:00:00 14.68333 C 10.43 g/m*3 14.68 C 6.45 km/h
1210 25-05-2020 09:00:00 15.45 C 10.53 g/m*3 15.45 C 8.45833 km/h
1211 25-05-2020 10:00:00 15.89167 C 10.5 g/m*3 15.89 C 11.56667 km/h
1212 25-05-2020 11:00:00 16.48333 C 10.54 g/m*3 16.48 C 9.69167 km/h
1213 25-05-2020 12:00:00 17.05833 C 10.49 g/m*3 17.06 C 11.43333 km/h
1214 25-05-2020 13:00:00 17.56667 C 10.38 g/m*3 17.57 C 9.7 km/h
1215 25-05-2020 14:00:00 18.04167 C 10.18 g/m*3 18.04 C 11.025 km/h
1216 25-05-2020 15:00:00 18.49167 C 10.19 g/m*3 18.49 C 11.68333 km/h
1217 25-05-2020 16:00:00 19.775 C 10.15 g/m*3 19.77 C 15.03333 km/h
1218 25-05-2020 17:00:00 20.46667 C 10.29 g/m*3 20.47 C 12.35833 km/h
1219 25-05-2020 18:00:00 20.41667 C 10.14 g/m*3 20.42 C 11.3 km/h
1220 25-05-2020 19:00:00 20.03333 C 9.62 g/m*3 20.03 C 11.825 km/h
1221 25-05-2020 20:00:00 18.81667 C 9.38 g/m*3 18.82 C 6.3 km/h
1222 25-05-2020 21:00:00 16.50833 C 9.25 g/m*3 16.51 C 1.06667 km/h
1223 25-05-2020 22:00:00 13.975 C 9.1 g/m*3 13.98 C 1.06667 km/h
1224 25-05-2020 23:00:00 12.48333 C 8.84 g/m*3 12.48 C 0.13333 km/h
1225 26-05-2020 00:00:00 11.04167 C 8.56 g/m*3 11.04 C 0 km/h
Sensor: Nr:Datum:Temp:Abs-Feuchte:Windchill:Wind:
Aussen-T/F 1226 26-05-2020 01:00:00 9.83333 C 8.24 g/m*3 9.83 C 0 km/h
1227 26-05-2020 02:00:00 8.75833 C 7.9 g/m*3 8.76 C 0 km/h
1228 26-05-2020 03:00:00 8.13333 C 7.73 g/m*3 8.13 C 0 km/h
1229 26-05-2020 04:00:00 7.71667 C 7.62 g/m*3 7.72 C 0 km/h
1230 26-05-2020 05:00:00 7.34167 C 7.47 g/m*3 7.34 C 0 km/h
1231 26-05-2020 06:00:00 7.3 C 7.51 g/m*3 7.3 C 0 km/h
1232 26-05-2020 07:00:00 7.74167 C 7.76 g/m*3 7.74 C 0 km/h
1233 26-05-2020 08:00:00 8.825 C 8.37 g/m*3 8.82 C 0 km/h
1234 26-05-2020 09:00:00 10.41667 C 9.23 g/m*3 10.42 C 0.13333 km/h
1235 26-05-2020 10:00:00 13.96667 C 9.69 g/m*3 13.97 C 4.55833 km/h
1236 26-05-2020 11:00:00 16.83333 C 9.13 g/m*3 16.83 C 7.51667 km/h
1237 26-05-2020 12:00:00 18.05 C 8.61 g/m*3 18.05 C 8.6 km/h
1238 26-05-2020 13:00:00 18.89167 C 8.45 g/m*3 18.89 C 10.49167 km/h
1239 26-05-2020 14:00:00 19.84167 C 8.56 g/m*3 19.84 C 11.28333 km/h
1240 26-05-2020 15:00:00 21.475 C 8.77 g/m*3 21.48 C 10.63333 km/h
1241 26-05-2020 16:00:00 22.18333 C 8.99 g/m*3 22.18 C 9.93333 km/h
1242 26-05-2020 17:00:00 22.55 C 9.21 g/m*3 22.55 C 8.71667 km/h
1243 26-05-2020 18:00:00 22.99167 C 9.28 g/m*3 22.99 C 9.81667 km/h
1244 26-05-2020 19:00:00 21.80833 C 8.91 g/m*3 21.81 C 8.875 km/h
1245 26-05-2020 20:00:00 20.13333 C 9.22 g/m*3 20.13 C 4.825 km/h
1246 26-05-2020 21:00:00 16.51667 C 8.97 g/m*3 16.52 C 3.73333 km/h
1247 26-05-2020 22:00:00 14.61667 C 8.79 g/m*3 14.62 C 3.6 km/h
1248 26-05-2020 23:00:00 13.05833 C 8.66 g/m*3 13.06 C 0 km/h
1249 27-05-2020 00:00:00 11.75833 C 8.49 g/m*3 11.76 C 0 km/h
1250 27-05-2020 01:00:00 10.675 C 8.2 g/m*3 10.68 C 0 km/h
Sensor: Nr:Datum:Temp:Abs-Feuchte:Windchill:Wind:
Aussen-T/F 1251 27-05-2020 02:00:00 9.75 C 8.01 g/m*3 9.75 C 0 km/h
1252 27-05-2020 03:00:00 9.25833 C 7.92 g/m*3 9.26 C 0 km/h
1253 27-05-2020 04:00:00 8.6 C 7.77 g/m*3 8.6 C 0 km/h
1254 27-05-2020 05:00:00 7.93333 C 7.55 g/m*3 7.93 C 0 km/h
1255 27-05-2020 06:00:00 7.98333 C 7.69 g/m*3 7.98 C 0 km/h
1256 27-05-2020 07:00:00 8.35833 C 7.95 g/m*3 8.36 C 0 km/h
1257 27-05-2020 08:00:00 9.49167 C 8.57 g/m*3 9.49 C 0 km/h
1258 27-05-2020 09:00:00 11.275 C 9.48 g/m*3 11.28 C 0 km/h
1259 27-05-2020 10:00:00 15.03333 C 10.25 g/m*3 15.03 C 0.93333 km/h
1260 27-05-2020 11:00:00 19.08333 C 8.71 g/m*3 19.08 C 6.56667 km/h
1261 27-05-2020 12:00:00 20.35833 C 7.88 g/m*3 20.36 C 9.28333 km/h
1262 27-05-2020 13:00:00 21.125 C 7.84 g/m*3 21.13 C 8.33333 km/h
1263 27-05-2020 14:00:00 22.14167 C 7.55 g/m*3 22.14 C 8.48333 km/h
1264 27-05-2020 15:00:00 24 C 6.91 g/m*3 24 C 8.06667 km/h
1265 27-05-2020 16:00:00 25.45 C 7.52 g/m*3 25.45 C 7.925 km/h
1266 27-05-2020 17:00:00 26.05833 C 8.16 g/m*3 26.06 C 8.06667 km/h
1267 27-05-2020 18:00:00 25.3 C 8.6 g/m*3 25.3 C 5.23333 km/h
1268 27-05-2020 19:00:00 23.89167 C 8.69 g/m*3 23.89 C 6.71667 km/h
1269 27-05-2020 20:00:00 22.9 C 8.99 g/m*3 22.9 C 6.85 km/h
1270 27-05-2020 21:00:00 20.225 C 9.51 g/m*3 20.23 C 4.40833 km/h
1271 27-05-2020 22:00:00 18.30833 C 9.62 g/m*3 18.31 C 2.66667 km/h
1272 27-05-2020 23:00:00 16.70833 C 9.82 g/m*3 16.71 C 3.6 km/h
1273 28-05-2020 00:00:00 15.59167 C 9.86 g/m*3 15.59 C 2.13333 km/h
1274 28-05-2020 01:00:00 15.71667 C 9.91 g/m*3 15.72 C 2.8 km/h
1275 28-05-2020 02:00:00 15.44167 C 10 g/m*3 15.44 C 0.8 km/h
Sensor: Nr:Datum:Temp:Abs-Feuchte:Windchill:Wind:
Aussen-T/F 1276 28-05-2020 03:00:00 15.21667 C 10.11 g/m*3 15.22 C 1.33333 km/h
1277 28-05-2020 04:00:00 15.13333 C 9.86 g/m*3 15.13 C 2.40833 km/h
1278 28-05-2020 05:00:00 13.75 C 8.77 g/m*3 13.75 C 2.93333 km/h
1279 28-05-2020 06:00:00 12.64167 C 8.44 g/m*3 12.64 C 2.8 km/h
1280 28-05-2020 07:00:00 12.56667 C 8.36 g/m*3 12.57 C 3.61667 km/h
1281 28-05-2020 08:00:00 13.58333 C 8.38 g/m*3 13.58 C 8.60833 km/h
1282 28-05-2020 09:00:00 14.50833 C 8.68 g/m*3 14.51 C 4.80833 km/h
1283 28-05-2020 10:00:00 16.475 C 8.62 g/m*3 16.48 C 5.21667 km/h
1284 28-05-2020 11:00:00 18.35 C 7.02 g/m*3 18.35 C 10.49167 km/h
1285 28-05-2020 12:00:00 18.95 C 7.22 g/m*3 18.95 C 11.81667 km/h
1286 28-05-2020 13:00:00 19.69167 C 7.19 g/m*3 19.69 C 10.06667 km/h
1287 28-05-2020 14:00:00 20.875 C 6.7 g/m*3 20.88 C 12.48333 km/h
1288 28-05-2020 15:00:00 22.25833 C 6.25 g/m*3 22.26 C 14.36667 km/h
1289 28-05-2020 16:00:00 23.41667 C 5.86 g/m*3 23.42 C 15.56667 km/h
1290 28-05-2020 17:00:00 23.61667 C 5.64 g/m*3 23.62 C 15.56667 km/h
1291 28-05-2020 18:00:00 23.45833 C 5.49 g/m*3 23.46 C 15.7 km/h
1292 28-05-2020 19:00:00 22.11667 C 5.58 g/m*3 22.12 C 16.63333 km/h
1293 28-05-2020 20:00:00 20.70833 C 5.73 g/m*3 20.71 C 12.5 km/h
1294 28-05-2020 21:00:00 18.46667 C 6.29 g/m*3 18.47 C 5.24167 km/h
1295 28-05-2020 22:00:00 14.53333 C 6.66 g/m*3 14.53 C 0.93333 km/h
1296 28-05-2020 23:00:00 12.725 C 6.75 g/m*3 12.73 C 3.06667 km/h
1297 29-05-2020 00:00:00 11.64167 C 6.84 g/m*3 11.64 C 2.13333 km/h
1298 29-05-2020 01:00:00 10.325 C 6.81 g/m*3 10.33 C 0.13333 km/h
1299 29-05-2020 02:00:00 9.21667 C 6.76 g/m*3 9.22 C 0 km/h
1300 29-05-2020 03:00:00 8.15833 C 6.67 g/m*3 8.16 C 0 km/h
Sensor: Nr:Datum:Temp:Abs-Feuchte:Windchill:Wind:
Aussen-T/F 1301 29-05-2020 04:00:00 7.36667 C 6.63 g/m*3 7.37 C 0 km/h
1302 29-05-2020 05:00:00 6.81667 C 6.61 g/m*3 6.82 C 0.13333 km/h
1303 29-05-2020 06:00:00 6.75 C 6.74 g/m*3 6.75 C 0 km/h
1304 29-05-2020 07:00:00 7.325 C 7.12 g/m*3 7.33 C 0 km/h
1305 29-05-2020 08:00:00 8.75833 C 7.78 g/m*3 8.76 C 0 km/h
1306 29-05-2020 09:00:00 11.33333 C 8.45 g/m*3 11.33 C 0.66667 km/h
1307 29-05-2020 10:00:00 16.325 C 8.46 g/m*3 16.33 C 6.95833 km/h
1308 29-05-2020 11:00:00 18.86667 C 7.68 g/m*3 18.87 C 13.025 km/h
1309 29-05-2020 12:00:00 19.23333 C 7.01 g/m*3 19.23 C 12.89167 km/h
1310 29-05-2020 13:00:00 20.00833 C 6.79 g/m*3 20.01 C 14.36667 km/h
1311 29-05-2020 14:00:00 20.7 C 6.96 g/m*3 20.7 C 13.96667 km/h
1312 29-05-2020 15:00:00 22.11667 C 7.08 g/m*3 22.12 C 12.225 km/h
1313 29-05-2020 16:00:00 23.10833 C 7 g/m*3 23.11 C 12.23333 km/h
1314 29-05-2020 17:00:00 23.25833 C 7.02 g/m*3 23.26 C 9.66667 km/h
1315 29-05-2020 18:00:00 23.49167 C 6.5 g/m*3 23.49 C 13.83333 km/h
1316 29-05-2020 19:00:00 22.7 C 5.96 g/m*3 22.7 C 10.225 km/h
1317 29-05-2020 20:00:00 21.45833 C 6.02 g/m*3 21.46 C 5.225 km/h
1318 29-05-2020 21:00:00 17.75 C 6.81 g/m*3 17.75 C 3.06667 km/h
1319 29-05-2020 22:00:00 14.65833 C 6.38 g/m*3 14.66 C 4.95 km/h
1320 29-05-2020 23:00:00 13.61667 C 6.67 g/m*3 13.62 C 4.275 km/h
1321 30-05-2020 00:00:00 13.125 C 6.94 g/m*3 13.13 C 2.26667 km/h
1322 30-05-2020 01:00:00 12.29167 C 6.86 g/m*3 12.29 C 2.4 km/h
1323 30-05-2020 02:00:00 11.275 C 6.8 g/m*3 11.28 C 1.86667 km/h
1324 30-05-2020 03:00:00 10.55833 C 6.71 g/m*3 10.56 C 2.66667 km/h
1325 30-05-2020 04:00:00 9.63333 C 6.69 g/m*3 9.63 C 2.4 km/h
Sensor: Nr:Datum:Temp:Abs-Feuchte:Windchill:Wind:
Aussen-T/F 1326 30-05-2020 05:00:00 8.675 C 6.69 g/m*3 8.68 C 0 km/h
1327 30-05-2020 06:00:00 8.11667 C 6.89 g/m*3 8.12 C 0 km/h
1328 30-05-2020 07:00:00 8.61667 C 7.34 g/m*3 8.62 C 0 km/h
1329 30-05-2020 08:00:00 10.175 C 7.97 g/m*3 10.18 C 0.13333 km/h
1330 30-05-2020 09:00:00 13.26667 C 8.38 g/m*3 13.27 C 3.36667 km/h
1331 30-05-2020 10:00:00 18.24167 C 7.8 g/m*3 18.24 C 9.825 km/h
1332 30-05-2020 11:00:00 19.325 C 6.78 g/m*3 19.33 C 20.24167 km/h
1333 30-05-2020 12:00:00 19.71667 C 6.81 g/m*3 19.72 C 15.7 km/h
1334 30-05-2020 13:00:00 20.275 C 6.89 g/m*3 20.27 C 18.36667 km/h
1335 30-05-2020 14:00:00 21.1 C 6.76 g/m*3 21.1 C 16.23333 km/h
1336 30-05-2020 15:00:00 22.05 C 6.97 g/m*3 22.05 C 15.15833 km/h
1337 30-05-2020 16:00:00 22.44167 C 7.05 g/m*3 22.44 C 19.7 km/h
1338 30-05-2020 17:00:00 22.36667 C 6.81 g/m*3 22.37 C 18.23333 km/h
1339 30-05-2020 18:00:00 21.54167 C 7.07 g/m*3 21.54 C 11.14167 km/h
1340 30-05-2020 19:00:00 20.35 C 7.35 g/m*3 20.35 C 8.2 km/h
1341 30-05-2020 20:00:00 19.51667 C 7.14 g/m*3 19.52 C 3.89167 km/h
1342 30-05-2020 21:00:00 16.59167 C 6.99 g/m*3 16.59 C 1.6 km/h
1343 30-05-2020 22:00:00 14.08333 C 6.83 g/m*3 14.08 C 3.2 km/h
1344 30-05-2020 23:00:00 13.325 C 6.74 g/m*3 13.33 C 4.53333 km/h
1345 31-05-2020 00:00:00 12.18333 C 6.84 g/m*3 12.18 C 3.2 km/h
1346 31-05-2020 01:00:00 10.56667 C 6.89 g/m*3 10.57 C 0.8 km/h
1347 31-05-2020 02:00:00 9.41667 C 6.84 g/m*3 9.42 C 0 km/h
1348 31-05-2020 03:00:00 8.5 C 6.83 g/m*3 8.5 C 0 km/h
1349 31-05-2020 04:00:00 8.9 C 7.15 g/m*3 8.9 C 0 km/h
1350 31-05-2020 05:00:00 9.11667 C 7.31 g/m*3 9.12 C 0.13333 km/h
Sensor: Nr:Datum:Temp:Abs-Feuchte:Windchill:Wind:
Aussen-T/F 1351 31-05-2020 06:00:00 8.63333 C 7.19 g/m*3 8.63 C 0.26667 km/h
1352 31-05-2020 07:00:00 8.4 C 7.44 g/m*3 8.4 C 0 km/h
1353 31-05-2020 08:00:00 10.375 C 8.24 g/m*3 10.38 C 0.13333 km/h
1354 31-05-2020 09:00:00 12.8 C 8.55 g/m*3 12.8 C 2.41667 km/h
1355 31-05-2020 10:00:00 16.09167 C 7.68 g/m*3 16.09 C 10.875 km/h
1356 31-05-2020 11:00:00 17.45 C 7.47 g/m*3 17.45 C 13.16667 km/h
1357 31-05-2020 12:00:00 17.825 C 7.16 g/m*3 17.83 C 12.76667 km/h
1358 31-05-2020 13:00:00 18.775 C 6.9 g/m*3 18.77 C 12.75833 km/h
1359 31-05-2020 14:00:00 19.7 C 7.16 g/m*3 19.7 C 17.03333 km/h
1360 31-05-2020 15:00:00 20.88333 C 7.73 g/m*3 20.88 C 15.43333 km/h
1361 31-05-2020 16:00:00 21.35 C 7.93 g/m*3 21.35 C 14.49167 km/h
1362 31-05-2020 17:00:00 21.60833 C 7.72 g/m*3 21.61 C 15.425 km/h
1363 31-05-2020 18:00:00 21.86667 C 7.66 g/m*3 21.87 C 14.36667 km/h
1364 31-05-2020 19:00:00 21.2 C 7.63 g/m*3 21.2 C 11.43333 km/h
1365 31-05-2020 20:00:00 20.3 C 7.89 g/m*3 20.3 C 7.24167 km/h
1366 31-05-2020 21:00:00 17.84167 C 8.18 g/m*3 17.84 C 2.4 km/h
1367 31-05-2020 22:00:00 15.11667 C 8.01 g/m*3 15.12 C 2 km/h
1368 31-05-2020 23:00:00 13.88333 C 7.94 g/m*3 13.88 C 1.33333 km/h
1369 01-06-2020 00:00:00 12.99167 C 7.88 g/m*3 12.99 C 3.2 km/h
1370 01-06-2020 01:00:00 11.89167 C 7.84 g/m*3 11.89 C 1.33333 km/h
1371 01-06-2020 02:00:00 10.68333 C 7.72 g/m*3 10.68 C 0 km/h
1372 01-06-2020 03:00:00 9.95 C 7.64 g/m*3 9.95 C 0 km/h
1373 01-06-2020 04:00:00 9.19167 C 7.52 g/m*3 9.19 C 0 km/h
1374 01-06-2020 05:00:00 8.53333 C 7.44 g/m*3 8.53 C 0 km/h
1375 01-06-2020 06:00:00 8.45 C 7.6 g/m*3 8.45 C 0 km/h
Sensor: Nr:Datum:Temp:Abs-Feuchte:Windchill:Wind:
Aussen-T/F 1376 01-06-2020 07:00:00 9.125 C 8.1 g/m*3 9.13 C 0 km/h
1377 01-06-2020 08:00:00 10.675 C 8.9 g/m*3 10.68 C 0.4 km/h
1378 01-06-2020 09:00:00 14.175 C 9.59 g/m*3 14.18 C 3.20833 km/h
1379 01-06-2020 10:00:00 18.43333 C 9.77 g/m*3 18.43 C 6.975 km/h
1380 01-06-2020 11:00:00 21.175 C 9.31 g/m*3 21.18 C 7.65 km/h
1381 01-06-2020 12:00:00 22.375 C 9.22 g/m*3 22.38 C 10.225 km/h
1382 01-06-2020 13:00:00 23.23333 C 9.34 g/m*3 23.23 C 10.88333 km/h
1383 01-06-2020 14:00:00 24.26667 C 9.15 g/m*3 24.27 C 11.29167 km/h
1384 01-06-2020 15:00:00 25.64167 C 8.91 g/m*3 25.64 C 12.5 km/h
1385 01-06-2020 16:00:00 26.86667 C 8.83 g/m*3 26.87 C 12.35833 km/h
1386 01-06-2020 17:00:00 26.975 C 8.91 g/m*3 26.98 C 13.3 km/h
1387 01-06-2020 18:00:00 27.04167 C 8.79 g/m*3 27.04 C 12.9 km/h
1388 01-06-2020 19:00:00 26.13333 C 8.77 g/m*3 26.13 C 12.63333 km/h
1389 01-06-2020 20:00:00 25.04167 C 9.56 g/m*3 25.04 C 6.7 km/h
1390 01-06-2020 21:00:00 21.15833 C 8.92 g/m*3 21.16 C 4.28333 km/h
1391 01-06-2020 22:00:00 18.5 C 8.31 g/m*3 18.5 C 4.4 km/h
1392 01-06-2020 23:00:00 16.43333 C 8.45 g/m*3 16.43 C 2 km/h
1393 02-06-2020 00:00:00 16.1 C 8.53 g/m*3 16.1 C 1.6 km/h
1394 02-06-2020 01:00:00 15.44167 C 8.48 g/m*3 15.44 C 2.8 km/h
1395 02-06-2020 02:00:00 14.21667 C 8.52 g/m*3 14.22 C 1.33333 km/h
1396 02-06-2020 03:00:00 12.66667 C 8.44 g/m*3 12.67 C 0 km/h
1397 02-06-2020 04:00:00 11.31667 C 8.34 g/m*3 11.32 C 0 km/h
1398 02-06-2020 05:00:00 10.60833 C 8.3 g/m*3 10.61 C 0.26667 km/h
1399 02-06-2020 06:00:00 10.6 C 8.56 g/m*3 10.6 C 0.13333 km/h
1400 02-06-2020 07:00:00 11.075 C 8.92 g/m*3 11.08 C 0.26667 km/h
Sensor: Nr:Datum:Temp:Abs-Feuchte:Windchill:Wind:
Aussen-T/F 1401 02-06-2020 08:00:00 12.39167 C 9.57 g/m*3 12.39 C 0 km/h
1402 02-06-2020 09:00:00 14.75833 C 10.37 g/m*3 14.76 C 0 km/h
1403 02-06-2020 10:00:00 19.225 C 10.53 g/m*3 19.23 C 4.025 km/h
1404 02-06-2020 11:00:00 23 C 9.51 g/m*3 23 C 8.60833 km/h
1405 02-06-2020 12:00:00 23.95833 C 9.35 g/m*3 23.96 C 11.025 km/h
1406 02-06-2020 13:00:00 25.10833 C 9.53 g/m*3 25.11 C 9.26667 km/h
1407 02-06-2020 14:00:00 26.29167 C 9.28 g/m*3 26.29 C 12.35833 km/h
1408 02-06-2020 15:00:00 27.96667 C 9.07 g/m*3 27.97 C 9.8 km/h
1409 02-06-2020 16:00:00 29.26667 C 8.84 g/m*3 29.27 C 9.28333 km/h
1410 02-06-2020 17:00:00 30.33333 C 8.57 g/m*3 30.33 C 6.69167 km/h
1411 02-06-2020 18:00:00 28.85 C 8.55 g/m*3 28.85 C 7.11667 km/h
1412 02-06-2020 19:00:00 28.41667 C 9.6 g/m*3 28.42 C 4.01667 km/h
1413 02-06-2020 20:00:00 24.4 C 10.07 g/m*3 24.4 C 5.6 km/h
1414 02-06-2020 21:00:00 21.53333 C 9.27 g/m*3 21.53 C 5.74167 km/h
1415 02-06-2020 22:00:00 19.28333 C 9.45 g/m*3 19.28 C 1.2 km/h
1416 02-06-2020 23:00:00 17.6 C 9.55 g/m*3 17.6 C 0 km/h
1417 03-06-2020 00:00:00 16.41667 C 9.35 g/m*3 16.42 C 0 km/h
1418 03-06-2020 01:00:00 15.61667 C 9.54 g/m*3 15.62 C 2.675 km/h
1419 03-06-2020 02:00:00 15.58333 C 9.82 g/m*3 15.58 C 0.93333 km/h
1420 03-06-2020 03:00:00 14.60833 C 9.81 g/m*3 14.61 C 0.26667 km/h
1421 03-06-2020 04:00:00 14.075 C 9.82 g/m*3 14.08 C 0 km/h
1422 03-06-2020 05:00:00 14 C 9.85 g/m*3 14 C 0.13333 km/h
1423 03-06-2020 06:00:00 13.65 C 9.89 g/m*3 13.65 C 0 km/h
1424 03-06-2020 07:00:00 14.20833 C 10.52 g/m*3 14.21 C 0 km/h
1425 03-06-2020 08:00:00 15.79167 C 11.26 g/m*3 15.79 C 0.26667 km/h
Sensor: Nr:Datum:Temp:Abs-Feuchte:Windchill:Wind:
Aussen-T/F 1426 03-06-2020 09:00:00 18.18333 C 11.15 g/m*3 18.18 C 0.93333 km/h
1427 03-06-2020 10:00:00 20.725 C 10.74 g/m*3 20.73 C 2.66667 km/h
1428 03-06-2020 11:00:00 23.15833 C 9.71 g/m*3 23.16 C 5.49167 km/h
1429 03-06-2020 12:00:00 24.21667 C 9.51 g/m*3 24.22 C 7.10833 km/h
1430 03-06-2020 13:00:00 25.38333 C 9.41 g/m*3 25.38 C 9.16667 km/h
1431 03-06-2020 14:00:00 23.54167 C 9.43 g/m*3 23.54 C 12.35 km/h
1432 03-06-2020 15:00:00 24.125 C 9.7 g/m*3 24.13 C 7.25 km/h
1433 03-06-2020 16:00:00 26.66667 C 9.22 g/m*3 26.67 C 7.1 km/h
1434 03-06-2020 17:00:00 26.85 C 9.53 g/m*3 26.85 C 6.58333 km/h
1435 03-06-2020 18:00:00 25.325 C 9.57 g/m*3 25.33 C 4.80833 km/h
1436 03-06-2020 19:00:00 25.55 C 10.07 g/m*3 25.55 C 3.74167 km/h
1437 03-06-2020 20:00:00 24.35 C 9.88 g/m*3 24.35 C 3.46667 km/h
1438 03-06-2020 21:00:00 21.14167 C 10.33 g/m*3 21.14 C 4.4 km/h
1439 03-06-2020 22:00:00 18.875 C 10.19 g/m*3 18.88 C 4.275 km/h
1440 03-06-2020 23:00:00 17.15833 C 10.27 g/m*3 17.16 C 2.4 km/h
1441 04-06-2020 00:00:00 18.2 C 11.22 g/m*3 18.2 C 8.6 km/h
1442 04-06-2020 01:00:00 17.51667 C 11.99 g/m*3 17.52 C 9.95833 km/h
1443 04-06-2020 02:00:00 15.65 C 11.93 g/m*3 15.65 C 6.84167 km/h
1444 04-06-2020 03:00:00 14.91667 C 11.82 g/m*3 14.92 C 0.66667 km/h
1445 04-06-2020 04:00:00 14.79167 C 11.9 g/m*3 14.79 C 1.46667 km/h
1446 04-06-2020 05:00:00 14.54167 C 11.73 g/m*3 14.54 C 0.93333 km/h
1447 04-06-2020 06:00:00 14.3 C 11.67 g/m*3 14.3 C 0 km/h
1448 04-06-2020 07:00:00 14.46667 C 11.82 g/m*3 14.47 C 0 km/h
1449 04-06-2020 08:00:00 14.625 C 12.03 g/m*3 14.63 C 0 km/h
1450 04-06-2020 09:00:00 14.93333 C 12.26 g/m*3 14.93 C 0 km/h
Sensor: Nr:Datum:Temp:Abs-Feuchte:Windchill:Wind:
Aussen-T/F 1451 04-06-2020 10:00:00 15.125 C 12.4 g/m*3 15.13 C 0.26667 km/h
1452 04-06-2020 11:00:00 15.8 C 12.92 g/m*3 15.8 C 1.06667 km/h
1453 04-06-2020 12:00:00 15.80833 C 12.68 g/m*3 15.81 C 2.26667 km/h
1454 04-06-2020 13:00:00 16.41667 C 12.45 g/m*3 16.42 C 5.49167 km/h
1455 04-06-2020 14:00:00 15.34167 C 11.95 g/m*3 15.34 C 4.41667 km/h
1456 04-06-2020 15:00:00 15.19167 C 11.92 g/m*3 15.19 C 7.11667 km/h
1457 04-06-2020 16:00:00 15.1 C 11.69 g/m*3 15.1 C 7.65833 km/h
1458 04-06-2020 17:00:00 14.625 C 11.19 g/m*3 14.63 C 11.675 km/h
1459 04-06-2020 18:00:00 13.65 C 10.59 g/m*3 13.65 C 6.03333 km/h
1460 04-06-2020 19:00:00 13.14167 C 10.57 g/m*3 13.14 C 1.73333 km/h
1461 04-06-2020 20:00:00 12.75 C 10.33 g/m*3 12.75 C 3.475 km/h
1462 04-06-2020 21:00:00 12.39167 C 9.96 g/m*3 12.39 C 5.08333 km/h
1463 04-06-2020 22:00:00 11.69167 C 9.68 g/m*3 11.69 C 5.075 km/h
1464 04-06-2020 23:00:00 11.16667 C 9.51 g/m*3 11.17 C 4.66667 km/h
1465 05-06-2020 00:00:00 11.18333 C 9.38 g/m*3 11.18 C 4.95 km/h
1466 05-06-2020 01:00:00 11.05 C 9.05 g/m*3 11.05 C 4.95 km/h
1467 05-06-2020 02:00:00 11 C 8.62 g/m*3 10.75 C 5.5 km/h
1468 05-06-2020 03:00:00 10.53333 C 8.54 g/m*3 10.53 C 2 km/h
1469 05-06-2020 04:00:00 9.48333 C 8.16 g/m*3 9.48 C 3.46667 km/h
1470 05-06-2020 05:00:00 8.925 C 8.17 g/m*3 8.93 C 1.33333 km/h
1471 05-06-2020 06:00:00 9.375 C 8.37 g/m*3 9.38 C 2.66667 km/h
1472 05-06-2020 07:00:00 10.14167 C 8.5 g/m*3 9.89 C 5.1 km/h
1473 05-06-2020 08:00:00 10.775 C 8.61 g/m*3 10.25 C 6.45 km/h
1474 05-06-2020 09:00:00 11.74167 C 8.83 g/m*3 11.74 C 9.275 km/h
1475 05-06-2020 10:00:00 12.7 C 8.97 g/m*3 12.7 C 8.19167 km/h
Sensor: Nr:Datum:Temp:Abs-Feuchte:Windchill:Wind:
Aussen-T/F 1476 05-06-2020 11:00:00 13.93333 C 8.79 g/m*3 13.93 C 13.83333 km/h
1477 05-06-2020 12:00:00 14.4 C 8.8 g/m*3 14.4 C 11.55 km/h
1478 05-06-2020 13:00:00 14.175 C 8.66 g/m*3 14.18 C 13.96667 km/h
1479 05-06-2020 14:00:00 13.70833 C 9.3 g/m*3 13.71 C 13.41667 km/h
1480 05-06-2020 15:00:00 13.725 C 10.11 g/m*3 13.73 C 11.14167 km/h
1481 05-06-2020 16:00:00 12.61667 C 9.79 g/m*3 12.62 C 16.90833 km/h
1482 05-06-2020 17:00:00 12.20833 C 9.91 g/m*3 12.21 C 9.81667 km/h
1483 05-06-2020 18:00:00 11.525 C 9.24 g/m*3 11.53 C 11.675 km/h
1484 05-06-2020 19:00:00 11.49167 C 9.33 g/m*3 11.49 C 8.325 km/h
1485 05-06-2020 20:00:00 11.225 C 8.89 g/m*3 11.23 C 7.25 km/h
1486 05-06-2020 21:00:00 10.4 C 8.51 g/m*3 9.28 C 9.00833 km/h
1487 05-06-2020 22:00:00 10.15 C 8.27 g/m*3 8.89 C 9.53333 km/h
1488 05-06-2020 23:00:00 9.8 C 8.1 g/m*3 8.68 C 8.45833 km/h
1489 06-06-2020 00:00:00 9.66667 C 7.87 g/m*3 8.55 C 8.325 km/h
1490 06-06-2020 01:00:00 9.15833 C 7.72 g/m*3 8.57 C 5.75 km/h
1491 06-06-2020 02:00:00 8.34167 C 7.56 g/m*3 7.48 C 6.29167 km/h
1492 06-06-2020 03:00:00 8.04167 C 7.62 g/m*3 8.04 C 3.33333 km/h
1493 06-06-2020 04:00:00 8.53333 C 7.91 g/m*3 8.53 C 3.35 km/h
1494 06-06-2020 05:00:00 8.6 C 7.89 g/m*3 8.6 C 1.46667 km/h
1495 06-06-2020 06:00:00 8.96667 C 8.18 g/m*3 8.97 C 3.46667 km/h
1496 06-06-2020 07:00:00 10.39167 C 8.67 g/m*3 8.85 C 11.55833 km/h
1497 06-06-2020 08:00:00 11.35833 C 8.74 g/m*3 11.36 C 10.20833 km/h
1498 06-06-2020 09:00:00 12.55 C 8.96 g/m*3 12.55 C 14.23333 km/h
1499 06-06-2020 10:00:00 13.29167 C 9.33 g/m*3 13.29 C 11.40833 km/h
1500 06-06-2020 11:00:00 12.6 C 9.97 g/m*3 12.6 C 2.68333 km/h
Sensor: Nr:Datum:Temp:Abs-Feuchte:Windchill:Wind:
Aussen-T/F 1501 06-06-2020 12:00:00 12.73333 C 10.04 g/m*3 12.73 C 9.525 km/h
1502 06-06-2020 13:00:00 12.55833 C 9.72 g/m*3 12.56 C 6.7 km/h
1503 06-06-2020 14:00:00 14.05 C 10.01 g/m*3 14.05 C 9.675 km/h
1504 06-06-2020 15:00:00 15.2 C 10.42 g/m*3 15.2 C 8.89167 km/h
1505 06-06-2020 16:00:00 17.225 C 10.34 g/m*3 17.23 C 14.76667 km/h
1506 06-06-2020 17:00:00 16.93333 C 9.2 g/m*3 16.93 C 11.14167 km/h
1507 06-06-2020 18:00:00 17.64167 C 8.49 g/m*3 17.64 C 15.96667 km/h
1508 06-06-2020 19:00:00 18.29167 C 8.2 g/m*3 18.29 C 11.425 km/h
1509 06-06-2020 20:00:00 17.20833 C 8.89 g/m*3 17.21 C 5.35 km/h
1510 06-06-2020 21:00:00 13.58333 C 8.84 g/m*3 13.58 C 4.8 km/h
1511 06-06-2020 22:00:00 11.725 C 8.71 g/m*3 11.73 C 1.73333 km/h
1512 06-06-2020 23:00:00 10.59167 C 8.43 g/m*3 10.59 C 1.33333 km/h
1513 07-06-2020 00:00:00 10.18333 C 8.2 g/m*3 10.18 C 0.93333 km/h
1514 07-06-2020 01:00:00 9.99167 C 8.19 g/m*3 9.99 C 1.2 km/h
1515 07-06-2020 02:00:00 10.05833 C 8.14 g/m*3 10.06 C 1.86667 km/h
1516 07-06-2020 03:00:00 9.74167 C 7.93 g/m*3 9.74 C 1.86667 km/h
1517 07-06-2020 04:00:00 8.425 C 7.54 g/m*3 8.43 C 1.33333 km/h
1518 07-06-2020 05:00:00 8.08333 C 7.62 g/m*3 8.08 C 3.2 km/h
1519 07-06-2020 06:00:00 7.70833 C 7.48 g/m*3 7.71 C 1.46667 km/h
1520 07-06-2020 07:00:00 7.85 C 7.67 g/m*3 7.85 C 0 km/h
1521 07-06-2020 08:00:00 9.98333 C 8.17 g/m*3 9.24 C 6.85833 km/h
1522 07-06-2020 09:00:00 13.76667 C 8.38 g/m*3 13.77 C 13.96667 km/h
1523 07-06-2020 10:00:00 14.80833 C 8.63 g/m*3 14.81 C 14.23333 km/h
1524 07-06-2020 11:00:00 15.09167 C 8.88 g/m*3 15.09 C 9.94167 km/h
1525 07-06-2020 12:00:00 15.89167 C 9 g/m*3 15.89 C 12.9 km/h
Sensor: Nr:Datum:Temp:Abs-Feuchte:Windchill:Wind:
Aussen-T/F 1526 07-06-2020 13:00:00 16.40833 C 8.9 g/m*3 16.41 C 12.49167 km/h
1527 07-06-2020 14:00:00 17.06667 C 9.13 g/m*3 17.07 C 10.88333 km/h
1528 07-06-2020 15:00:00 18.48333 C 9.34 g/m*3 18.48 C 11.96667 km/h
1529 07-06-2020 16:00:00 17.89167 C 9.04 g/m*3 17.89 C 9.28333 km/h
1530 07-06-2020 17:00:00 19.675 C 8.12 g/m*3 19.68 C 8.2 km/h
1531 07-06-2020 18:00:00 18.925 C 8.06 g/m*3 18.93 C 6.15833 km/h
1532 07-06-2020 19:00:00 18.65 C 9.21 g/m*3 18.65 C 1.60833 km/h
1533 07-06-2020 20:00:00 16.225 C 9.29 g/m*3 16.23 C 6.70833 km/h
1534 07-06-2020 21:00:00 13.73333 C 8.95 g/m*3 13.73 C 4.68333 km/h
1535 07-06-2020 22:00:00 11.675 C 8.66 g/m*3 11.68 C 0.66667 km/h
1536 07-06-2020 23:00:00 11.25 C 8.64 g/m*3 11.25 C 2.14167 km/h
1537 08-06-2020 00:00:00 11.44167 C 8.77 g/m*3 11.44 C 1.2 km/h
1538 08-06-2020 01:00:00 11.475 C 9.06 g/m*3 11.48 C 1.06667 km/h
1539 08-06-2020 02:00:00 9.91667 C 8.4 g/m*3 9.92 C 2.53333 km/h
1540 08-06-2020 03:00:00 8.93333 C 8.07 g/m*3 8.93 C 0.53333 km/h
1541 08-06-2020 04:00:00 8.85 C 8.16 g/m*3 8.85 C 0.26667 km/h
1542 08-06-2020 05:00:00 8.21667 C 7.83 g/m*3 8.22 C 0.26667 km/h
1543 08-06-2020 06:00:00 8.375 C 8.02 g/m*3 8.38 C 0.66667 km/h
1544 08-06-2020 07:00:00 9.75 C 8.66 g/m*3 9.75 C 4.41667 km/h
1545 08-06-2020 08:00:00 11.425 C 9.12 g/m*3 11.43 C 4.26667 km/h
1546 08-06-2020 09:00:00 13.40833 C 9.63 g/m*3 13.41 C 2.4 km/h
1547 08-06-2020 10:00:00 15.5 C 9.95 g/m*3 15.5 C 4.81667 km/h
1548 08-06-2020 11:00:00 17.18333 C 9.79 g/m*3 17.18 C 4.53333 km/h
1549 08-06-2020 12:00:00 18.41667 C 9.33 g/m*3 18.42 C 8.04167 km/h
1550 08-06-2020 13:00:00 19.30833 C 8.88 g/m*3 19.31 C 10.21667 km/h
Sensor: Nr:Datum:Temp:Abs-Feuchte:Windchill:Wind:
Aussen-T/F 1551 08-06-2020 14:00:00 20.44167 C 8.14 g/m*3 20.44 C 9.15 km/h
1552 08-06-2020 15:00:00 20.24167 C 8.44 g/m*3 20.24 C 8.2 km/h
1553 08-06-2020 16:00:00 19.475 C 8.92 g/m*3 19.48 C 6.425 km/h
1554 08-06-2020 17:00:00 20.60833 C 9.07 g/m*3 20.61 C 2.4 km/h
1555 08-06-2020 18:00:00 20.725 C 9.34 g/m*3 20.73 C 6.725 km/h
1556 08-06-2020 19:00:00 19.80833 C 9.27 g/m*3 19.81 C 4.55 km/h
1557 08-06-2020 20:00:00 18.53333 C 9.49 g/m*3 18.53 C 6.975 km/h
1558 08-06-2020 21:00:00 16.11667 C 9.67 g/m*3 16.12 C 8.59167 km/h
1559 08-06-2020 22:00:00 13.8 C 9.17 g/m*3 13.8 C 2.66667 km/h
1560 08-06-2020 23:00:00 12.05833 C 8.82 g/m*3 12.06 C 4.26667 km/h
1561 09-06-2020 00:00:00 11.575 C 8.86 g/m*3 11.58 C 5.475 km/h
1562 09-06-2020 01:00:00 10.75833 C 8.71 g/m*3 10.76 C 0.8 km/h
1563 09-06-2020 02:00:00 9.975 C 8.55 g/m*3 9.98 C 0.13333 km/h
1564 09-06-2020 03:00:00 9.8 C 8.61 g/m*3 9.8 C 0.53333 km/h
1565 09-06-2020 04:00:00 9.89167 C 8.78 g/m*3 9.89 C 2.26667 km/h
1566 09-06-2020 05:00:00 10.7 C 9.33 g/m*3 10.7 C 3.2 km/h
1567 09-06-2020 06:00:00 11.39167 C 9.72 g/m*3 11.39 C 1.06667 km/h
1568 09-06-2020 07:00:00 11.85833 C 9.86 g/m*3 11.86 C 1.46667 km/h
1569 09-06-2020 08:00:00 12.5 C 10.05 g/m*3 12.5 C 3.60833 km/h
1570 09-06-2020 09:00:00 13.3 C 10.21 g/m*3 13.3 C 4.66667 km/h
1571 09-06-2020 10:00:00 15.29167 C 10.65 g/m*3 15.29 C 5.08333 km/h
1572 09-06-2020 11:00:00 16.95 C 10.93 g/m*3 16.95 C 8.88333 km/h
1573 09-06-2020 12:00:00 18.35 C 11.16 g/m*3 18.35 C 9.68333 km/h
1574 09-06-2020 13:00:00 18.45 C 12.76 g/m*3 18.45 C 5.9 km/h
1575 09-06-2020 14:00:00 18.38333 C 12.18 g/m*3 18.38 C 10.75 km/h
Sensor: Nr:Datum:Temp:Abs-Feuchte:Windchill:Wind:
Aussen-T/F 1576 09-06-2020 15:00:00 17.875 C 11.43 g/m*3 17.88 C 8.58333 km/h
1577 09-06-2020 16:00:00 15.875 C 12.08 g/m*3 15.88 C 3.20833 km/h
1578 09-06-2020 17:00:00 16.05833 C 12.64 g/m*3 16.06 C 1.06667 km/h
1579 09-06-2020 18:00:00 16.35 C 12.77 g/m*3 16.35 C 0.53333 km/h
1580 09-06-2020 19:00:00 15.59167 C 12.23 g/m*3 15.59 C 2.26667 km/h
1581 09-06-2020 20:00:00 14.39167 C 11.54 g/m*3 14.39 C 5.75 km/h
1582 09-06-2020 21:00:00 14.13333 C 11.55 g/m*3 14.13 C 5.33333 km/h
1583 09-06-2020 22:00:00 13.4 C 11.02 g/m*3 13.4 C 4.26667 km/h
1584 09-06-2020 23:00:00 12.96667 C 10.81 g/m*3 12.97 C 4.13333 km/h
1585 10-06-2020 00:00:00 12.9 C 10.79 g/m*3 12.9 C 0.8 km/h
1586 10-06-2020 01:00:00 12.56667 C 10.58 g/m*3 12.57 C 0.66667 km/h
1587 10-06-2020 02:00:00 12.30833 C 10.43 g/m*3 12.31 C 0.66667 km/h
1588 10-06-2020 03:00:00 12.56667 C 10.6 g/m*3 12.57 C 0 km/h
1589 10-06-2020 04:00:00 12.6 C 10.62 g/m*3 12.6 C 0.13333 km/h
1590 10-06-2020 05:00:00 12.68333 C 10.68 g/m*3 12.68 C 0 km/h
1591 10-06-2020 06:00:00 12.95 C 10.97 g/m*3 12.95 C 0.13333 km/h
1592 10-06-2020 07:00:00 13.375 C 11.21 g/m*3 13.38 C 0.4 km/h
1593 10-06-2020 08:00:00 13.85833 C 11.46 g/m*3 13.86 C 0.26667 km/h
1594 10-06-2020 09:00:00 14.83333 C 11.68 g/m*3 14.83 C 2.53333 km/h
1595 10-06-2020 10:00:00 15.54167 C 11.58 g/m*3 15.54 C 3.06667 km/h
1596 10-06-2020 11:00:00 15.75 C 11.63 g/m*3 15.75 C 1.73333 km/h
1597 10-06-2020 12:00:00 15.475 C 11.31 g/m*3 15.48 C 8.06667 km/h
1598 10-06-2020 13:00:00 15.55 C 11.25 g/m*3 15.55 C 8.475 km/h
1599 10-06-2020 14:00:00 16.36667 C 11.02 g/m*3 16.37 C 4.13333 km/h
1600 10-06-2020 15:00:00 17.1 C 11.1 g/m*3 17.1 C 1.20833 km/h
Sensor: Nr:Datum:Temp:Abs-Feuchte:Windchill:Wind:
Aussen-T/F 1601 10-06-2020 16:00:00 18.65 C 11.47 g/m*3 18.65 C 3.6 km/h
1602 10-06-2020 17:00:00 19.625 C 11.44 g/m*3 19.63 C 4.40833 km/h
1603 10-06-2020 18:00:00 19.81667 C 10.94 g/m*3 19.82 C 7.65 km/h
1604 10-06-2020 19:00:00 19.275 C 11.97 g/m*3 19.27 C 1.34167 km/h
1605 10-06-2020 20:00:00 18.49167 C 12.47 g/m*3 18.49 C 0.8 km/h
1606 10-06-2020 21:00:00 16.675 C 11.26 g/m*3 16.68 C 4.40833 km/h
1607 10-06-2020 22:00:00 15.41667 C 10.78 g/m*3 15.42 C 2.66667 km/h
1608 10-06-2020 23:00:00 15.225 C 11.02 g/m*3 15.23 C 1.875 km/h
1609 11-06-2020 00:00:00 15.3 C 11.25 g/m*3 15.3 C 1.73333 km/h
1610 11-06-2020 01:00:00 14.2 C 11.02 g/m*3 14.2 C 0.53333 km/h
1611 11-06-2020 02:00:00 13.84167 C 11.03 g/m*3 13.84 C 0 km/h
1612 11-06-2020 03:00:00 13.38333 C 10.8 g/m*3 13.38 C 0.4 km/h
1613 11-06-2020 04:00:00 12.775 C 10.49 g/m*3 12.78 C 0.4 km/h
1614 11-06-2020 05:00:00 12.35833 C 10.27 g/m*3 12.36 C 0.26667 km/h
1615 11-06-2020 06:00:00 12.74167 C 10.6 g/m*3 12.74 C 0 km/h
1616 11-06-2020 07:00:00 13.425 C 11.09 g/m*3 13.43 C 0.26667 km/h
1617 11-06-2020 08:00:00 14.05 C 11.46 g/m*3 14.05 C 0 km/h
1618 11-06-2020 09:00:00 14.73333 C 11.75 g/m*3 14.73 C 1.6 km/h
1619 11-06-2020 10:00:00 15.5 C 12.03 g/m*3 15.5 C 1.86667 km/h
1620 11-06-2020 11:00:00 16.90833 C 12.27 g/m*3 16.91 C 4.13333 km/h
1621 11-06-2020 12:00:00 17.45 C 11.87 g/m*3 17.45 C 4.54167 km/h
1622 11-06-2020 13:00:00 18.38333 C 11.94 g/m*3 18.38 C 5.76667 km/h
1623 11-06-2020 14:00:00 19.3 C 11.79 g/m*3 19.3 C 6.98333 km/h
1624 11-06-2020 15:00:00 18.73333 C 12.03 g/m*3 18.73 C 3.21667 km/h
1625 11-06-2020 16:00:00 18.99167 C 11.05 g/m*3 18.99 C 6.28333 km/h
Sensor: Nr:Datum:Temp:Abs-Feuchte:Windchill:Wind:
Aussen-T/F 1626 11-06-2020 17:00:00 19.18333 C 11.33 g/m*3 19.18 C 4.68333 km/h
1627 11-06-2020 18:00:00 18.20833 C 12.45 g/m*3 18.21 C 0.8 km/h
1628 11-06-2020 19:00:00 17.66667 C 12.01 g/m*3 17.67 C 2.13333 km/h
1629 11-06-2020 20:00:00 17.14167 C 12.37 g/m*3 17.14 C 0 km/h
1630 11-06-2020 21:00:00 15.93333 C 11.65 g/m*3 15.93 C 0 km/h
1631 11-06-2020 22:00:00 14.25833 C 10.93 g/m*3 14.26 C 1.73333 km/h
1632 11-06-2020 23:00:00 13.35833 C 10.62 g/m*3 13.36 C 0.66667 km/h
1633 12-06-2020 00:00:00 12.45 C 10.19 g/m*3 12.45 C 0 km/h
1634 12-06-2020 01:00:00 11.73333 C 9.85 g/m*3 11.73 C 0 km/h
1635 12-06-2020 02:00:00 11.2 C 9.62 g/m*3 11.2 C 0 km/h
1636 12-06-2020 03:00:00 10.61667 C 9.28 g/m*3 10.62 C 0 km/h
1637 12-06-2020 04:00:00 10.34167 C 9.19 g/m*3 10.34 C 0 km/h
1638 12-06-2020 05:00:00 10.80833 C 9.51 g/m*3 10.81 C 0 km/h
1639 12-06-2020 06:00:00 11.74167 C 10.17 g/m*3 11.74 C 1.2 km/h
1640 12-06-2020 07:00:00 12.51667 C 10.68 g/m*3 12.52 C 0.13333 km/h
1641 12-06-2020 08:00:00 13.81667 C 11.56 g/m*3 13.82 C 1.86667 km/h
1642 12-06-2020 09:00:00 16.06667 C 12.49 g/m*3 16.07 C 7.525 km/h
1643 12-06-2020 10:00:00 18.14167 C 12.88 g/m*3 18.14 C 11.29167 km/h
1644 12-06-2020 11:00:00 20.41667 C 13.52 g/m*3 20.42 C 8.33333 km/h
1645 12-06-2020 12:00:00 22.34167 C 13.92 g/m*3 22.34 C 10.08333 km/h
1646 12-06-2020 13:00:00 24.48333 C 13.15 g/m*3 24.48 C 11.95833 km/h
1647 12-06-2020 14:00:00 26.18333 C 12.22 g/m*3 26.18 C 10.89167 km/h
1648 12-06-2020 15:00:00 27.825 C 11.85 g/m*3 27.83 C 13.03333 km/h
1649 12-06-2020 16:00:00 29.69167 C 11.63 g/m*3 29.69 C 11.55833 km/h
1650 12-06-2020 17:00:00 29.5 C 11.36 g/m*3 29.5 C 12.49167 km/h
Sensor: Nr:Datum:Temp:Abs-Feuchte:Windchill:Wind:
Aussen-T/F 1651 12-06-2020 18:00:00 29.59167 C 11.4 g/m*3 29.59 C 10.75833 km/h
1652 12-06-2020 19:00:00 28.31667 C 12.04 g/m*3 28.32 C 6.84167 km/h
1653 12-06-2020 20:00:00 26.89167 C 13.73 g/m*3 26.89 C 4.53333 km/h
1654 12-06-2020 21:00:00 22.31667 C 13.19 g/m*3 22.32 C 5.35833 km/h
1655 12-06-2020 22:00:00 20.35833 C 12.94 g/m*3 20.36 C 4.14167 km/h
1656 12-06-2020 23:00:00 18.75 C 12.79 g/m*3 18.75 C 1.2 km/h
1657 13-06-2020 00:00:00 17.93333 C 12.61 g/m*3 17.93 C 4.70833 km/h
1658 13-06-2020 01:00:00 19.29167 C 12.85 g/m*3 19.29 C 13.29167 km/h
1659 13-06-2020 02:00:00 19.25 C 11.91 g/m*3 19.25 C 6.83333 km/h
1660 13-06-2020 03:00:00 18.31667 C 11.69 g/m*3 18.32 C 3.2 km/h
1661 13-06-2020 04:00:00 17.41667 C 11.88 g/m*3 17.42 C 2.53333 km/h
1662 13-06-2020 05:00:00 16.55833 C 11.87 g/m*3 16.56 C 0.8 km/h
1663 13-06-2020 06:00:00 16.10833 C 12 g/m*3 16.11 C 0.26667 km/h
1664 13-06-2020 07:00:00 16.85833 C 12.41 g/m*3 16.86 C 2.41667 km/h
1665 13-06-2020 08:00:00 17.51667 C 12.82 g/m*3 17.52 C 0.4 km/h
1666 13-06-2020 09:00:00 20.375 C 13.54 g/m*3 20.38 C 5.35 km/h
1667 13-06-2020 10:00:00 20.375 C 13.73 g/m*3 20.38 C 4.675 km/h
1668 13-06-2020 11:00:00 20.69167 C 13.09 g/m*3 20.69 C 6.29167 km/h
1669 13-06-2020 12:00:00 20.90833 C 13.61 g/m*3 20.91 C 1.86667 km/h
1670 13-06-2020 13:00:00 20.34167 C 14.31 g/m*3 20.34 C 0 km/h
1671 13-06-2020 14:00:00 21.53333 C 13.71 g/m*3 21.53 C 2.26667 km/h
1672 13-06-2020 15:00:00 23.25 C 13.52 g/m*3 23.25 C 6.55833 km/h
1673 13-06-2020 16:00:00 25.75 C 13.94 g/m*3 25.75 C 7.925 km/h
1674 13-06-2020 17:00:00 27.09167 C 12.22 g/m*3 27.09 C 6.175 km/h
1675 13-06-2020 18:00:00 28.60833 C 11.15 g/m*3 28.61 C 7.925 km/h
Sensor: Nr:Datum:Temp:Abs-Feuchte:Windchill:Wind:
Aussen-T/F 1676 13-06-2020 19:00:00 26.675 C 11.67 g/m*3 26.68 C 6.85 km/h
1677 13-06-2020 20:00:00 24.60833 C 12.37 g/m*3 24.61 C 2.80833 km/h
1678 13-06-2020 21:00:00 22.54167 C 12.53 g/m*3 22.54 C 5.35833 km/h
1679 13-06-2020 22:00:00 20.99167 C 12.73 g/m*3 20.99 C 6.84167 km/h
1680 13-06-2020 23:00:00 20 C 12.46 g/m*3 20 C 3.06667 km/h
1681 14-06-2020 00:00:00 18.375 C 12.38 g/m*3 18.38 C 1.33333 km/h
1682 14-06-2020 01:00:00 17.81667 C 12.53 g/m*3 17.82 C 0 km/h
1683 14-06-2020 02:00:00 17.675 C 12.71 g/m*3 17.68 C 0 km/h
1684 14-06-2020 03:00:00 17.25833 C 12.47 g/m*3 17.26 C 0 km/h
1685 14-06-2020 04:00:00 17.39167 C 12.38 g/m*3 17.39 C 4.825 km/h
1686 14-06-2020 05:00:00 17.71667 C 12.45 g/m*3 17.72 C 5.33333 km/h
1687 14-06-2020 06:00:00 17.80833 C 12.53 g/m*3 17.81 C 7.525 km/h
1688 14-06-2020 07:00:00 18.56667 C 12.79 g/m*3 18.57 C 3.86667 km/h
1689 14-06-2020 08:00:00 19.075 C 12.89 g/m*3 19.08 C 2.93333 km/h
1690 14-06-2020 09:00:00 19.05833 C 13.48 g/m*3 19.06 C 1.73333 km/h
1691 14-06-2020 10:00:00 18.86667 C 13.1 g/m*3 18.87 C 3.875 km/h
1692 14-06-2020 11:00:00 18.95833 C 13.06 g/m*3 18.96 C 7.125 km/h
1693 14-06-2020 12:00:00 19.53333 C 12.61 g/m*3 19.53 C 8.18333 km/h
1694 14-06-2020 13:00:00 19.725 C 12.92 g/m*3 19.73 C 8.75833 km/h
1695 14-06-2020 14:00:00 20.2 C 13.07 g/m*3 20.2 C 5.21667 km/h
1696 14-06-2020 15:00:00 20.61667 C 13.15 g/m*3 20.62 C 1.6 km/h
1697 14-06-2020 16:00:00 21.19167 C 14.08 g/m*3 21.19 C 0.13333 km/h
1698 14-06-2020 17:00:00 21.33333 C 12.82 g/m*3 21.33 C 3.875 km/h
1699 14-06-2020 18:00:00 20.58333 C 13.48 g/m*3 20.58 C 4.95 km/h
1700 14-06-2020 19:00:00 19.84167 C 13.64 g/m*3 19.84 C 4.025 km/h
Sensor: Nr:Datum:Temp:Abs-Feuchte:Windchill:Wind:
Aussen-T/F 1701 14-06-2020 20:00:00 18.65833 C 13.4 g/m*3 18.66 C 5.9 km/h
1702 14-06-2020 21:00:00 17.8 C 13.38 g/m*3 17.8 C 3.60833 km/h
1703 14-06-2020 22:00:00 17.825 C 13.3 g/m*3 17.83 C 2.94167 km/h
1704 14-06-2020 23:00:00 17.225 C 13.19 g/m*3 17.23 C 1.33333 km/h
1705 15-06-2020 00:00:00 17.28333 C 12.87 g/m*3 17.28 C 5.48333 km/h
1706 15-06-2020 01:00:00 16.86667 C 12.49 g/m*3 16.87 C 2.66667 km/h
1707 15-06-2020 02:00:00 16.625 C 12.56 g/m*3 16.63 C 2.13333 km/h
1708 15-06-2020 03:00:00 16.575 C 12.55 g/m*3 16.58 C 1.6 km/h
1709 15-06-2020 04:00:00 16.64167 C 12.66 g/m*3 16.64 C 4.40833 km/h
1710 15-06-2020 05:00:00 16.54167 C 12.66 g/m*3 16.54 C 2.80833 km/h
1711 15-06-2020 06:00:00 16.6 C 12.71 g/m*3 16.6 C 1.6 km/h
1712 15-06-2020 07:00:00 16.80833 C 12.87 g/m*3 16.81 C 1.2 km/h
1713 15-06-2020 08:00:00 17.54167 C 13.15 g/m*3 17.54 C 3.6 km/h
1714 15-06-2020 09:00:00 18.325 C 13.34 g/m*3 18.33 C 5.35 km/h
1715 15-06-2020 10:00:00 19.40833 C 13.7 g/m*3 19.41 C 6.56667 km/h
1716 15-06-2020 11:00:00 20.11667 C 13.62 g/m*3 20.12 C 5.48333 km/h
1717 15-06-2020 12:00:00 20.575 C 12.52 g/m*3 20.58 C 6.575 km/h
1718 15-06-2020 13:00:00 20.44167 C 12.03 g/m*3 20.44 C 6.30833 km/h
1719 15-06-2020 14:00:00 20.51667 C 12.26 g/m*3 20.52 C 3.075 km/h
1720 15-06-2020 15:00:00 20.55833 C 13.08 g/m*3 20.56 C 0 km/h
1721 15-06-2020 16:00:00 20.98333 C 12.93 g/m*3 20.98 C 0 km/h
1722 15-06-2020 17:00:00 21.1 C 12.23 g/m*3 21.1 C 2.88 km/h
1723 15-06-2020 18:00:00 21.29167 C 12.31 g/m*3 21.29 C 0.8 km/h
1724 15-06-2020 19:00:00 21.325 C 13.27 g/m*3 21.33 C 0.53333 km/h
1725 15-06-2020 20:00:00 19.58333 C 12.75 g/m*3 19.58 C 2.93333 km/h
Sensor: Nr:Datum:Temp:Abs-Feuchte:Windchill:Wind:
Aussen-T/F 1726 15-06-2020 21:00:00 18.6 C 12.47 g/m*3 18.6 C 4.13333 km/h
1727 15-06-2020 22:00:00 17.64167 C 12.34 g/m*3 17.64 C 0.26667 km/h
1728 15-06-2020 23:00:00 17.16667 C 12.34 g/m*3 17.17 C 0 km/h
1729 16-06-2020 00:00:00 17.11667 C 12.6 g/m*3 17.12 C 0 km/h
1730 16-06-2020 01:00:00 16.875 C 13.05 g/m*3 16.88 C 0 km/h
1731 16-06-2020 02:00:00 16.45833 C 13.01 g/m*3 16.46 C 0 km/h
1732 16-06-2020 03:00:00 16.2 C 12.97 g/m*3 16.2 C 0 km/h
1733 16-06-2020 04:00:00 16.11667 C 13.03 g/m*3 16.12 C 0 km/h
1734 16-06-2020 05:00:00 16.05833 C 12.99 g/m*3 16.06 C 0.26667 km/h
1735 16-06-2020 06:00:00 15.94167 C 12.98 g/m*3 15.94 C 0.4 km/h
1736 16-06-2020 07:00:00 16.18333 C 13.23 g/m*3 16.18 C 0.13333 km/h
1737 16-06-2020 08:00:00 16.68333 C 13.63 g/m*3 16.68 C 2.13333 km/h
1738 16-06-2020 09:00:00 17.125 C 14 g/m*3 17.13 C 2.66667 km/h
1739 16-06-2020 10:00:00 17.93333 C 14.51 g/m*3 17.93 C 0.26667 km/h
1740 16-06-2020 11:00:00 19.01667 C 14.61 g/m*3 19.02 C 1.86667 km/h
1741 16-06-2020 12:00:00 19.91667 C 14.26 g/m*3 19.92 C 3.73333 km/h
1742 16-06-2020 13:00:00 20.48333 C 13.87 g/m*3 20.48 C 6.55833 km/h
1743 16-06-2020 14:00:00 21.13333 C 14.25 g/m*3 21.13 C 2.14167 km/h
1744 16-06-2020 15:00:00 21.375 C 14.38 g/m*3 21.38 C 3.34167 km/h
1745 16-06-2020 16:00:00 19.025 C 13.79 g/m*3 19.02 C 2.8 km/h
1746 16-06-2020 17:00:00 18.39167 C 13.98 g/m*3 18.39 C 0.53333 km/h
1747 16-06-2020 18:00:00 18.83333 C 14.33 g/m*3 18.83 C 2.4 km/h
1748 16-06-2020 19:00:00 20.31667 C 14.92 g/m*3 20.32 C 6.13333 km/h
1749 16-06-2020 20:00:00 20.65 C 14.66 g/m*3 20.65 C 2.01667 km/h
1750 16-06-2020 21:00:00 19.10833 C 14 g/m*3 19.11 C 2.53333 km/h
Sensor: Nr:Datum:Temp:Abs-Feuchte:Windchill:Wind:
Aussen-T/F 1751 16-06-2020 22:00:00 16.69167 C 12.83 g/m*3 16.69 C 1.46667 km/h
1752 16-06-2020 23:00:00 15.40833 C 12.17 g/m*3 15.41 C 0.13333 km/h
1753 17-06-2020 00:00:00 14.6 C 11.77 g/m*3 14.6 C 0 km/h
1754 17-06-2020 01:00:00 14 C 11.46 g/m*3 14 C 0 km/h
1755 17-06-2020 02:00:00 14.46667 C 11.91 g/m*3 14.47 C 0.26667 km/h
1756 17-06-2020 03:00:00 14.55 C 11.99 g/m*3 14.55 C 0.8 km/h
1757 17-06-2020 04:00:00 14.21667 C 11.85 g/m*3 14.22 C 0 km/h
1758 17-06-2020 05:00:00 14.16667 C 11.82 g/m*3 14.17 C 0 km/h
1759 17-06-2020 06:00:00 14.34167 C 11.95 g/m*3 14.34 C 0 km/h
1760 17-06-2020 07:00:00 14.61667 C 12.15 g/m*3 14.62 C 0 km/h
1761 17-06-2020 08:00:00 14.91667 C 12.38 g/m*3 14.92 C 0 km/h
1762 17-06-2020 09:00:00 15.43333 C 12.77 g/m*3 15.43 C 0 km/h
1763 17-06-2020 10:00:00 16.63333 C 13.44 g/m*3 16.63 C 2 km/h
1764 17-06-2020 11:00:00 18.50833 C 13.86 g/m*3 18.51 C 5.34167 km/h
1765 17-06-2020 12:00:00 20.51667 C 14.1 g/m*3 20.52 C 5.35 km/h
1766 17-06-2020 13:00:00 21.81667 C 14.26 g/m*3 21.82 C 5.08333 km/h
1767 17-06-2020 14:00:00 22.75 C 14.25 g/m*3 22.75 C 3.6 km/h
1768 17-06-2020 15:00:00 23.05833 C 15.09 g/m*3 23.06 C 5.35 km/h
1769 17-06-2020 16:00:00 20.49167 C 15.93 g/m*3 20.49 C 2.4 km/h
1770 17-06-2020 17:00:00 21.50833 C 16.6 g/m*3 21.51 C 1.06667 km/h
1771 17-06-2020 18:00:00 23.34167 C 15.4 g/m*3 23.34 C 3.6 km/h
1772 17-06-2020 19:00:00 19.65 C 13.91 g/m*3 19.65 C 4.84167 km/h
1773 17-06-2020 20:00:00 17.175 C 13.49 g/m*3 17.18 C 1.06667 km/h
1774 17-06-2020 21:00:00 16.54167 C 13.28 g/m*3 16.54 C 4.13333 km/h
1775 17-06-2020 22:00:00 16.18333 C 13.09 g/m*3 16.18 C 1.73333 km/h
Sensor: Nr:Datum:Temp:Abs-Feuchte:Windchill:Wind:
Aussen-T/F 1776 17-06-2020 23:00:00 15.53333 C 12.58 g/m*3 15.53 C 4.41667 km/h
1777 18-06-2020 00:00:00 15.11667 C 12.35 g/m*3 15.12 C 1.06667 km/h
1778 18-06-2020 01:00:00 14.76667 C 12.08 g/m*3 14.77 C 2.93333 km/h
1779 18-06-2020 02:00:00 14.41667 C 11.87 g/m*3 14.42 C 3.20833 km/h
1780 18-06-2020 03:00:00 14.4 C 11.87 g/m*3 14.4 C 6.56667 km/h
1781 18-06-2020 04:00:00 14.3 C 11.79 g/m*3 14.3 C 4.14167 km/h
1782 18-06-2020 05:00:00 14.1 C 11.65 g/m*3 14.1 C 2.53333 km/h
1783 18-06-2020 06:00:00 13.96667 C 11.56 g/m*3 13.97 C 4.13333 km/h
1784 18-06-2020 07:00:00 14.34167 C 11.82 g/m*3 14.34 C 2.13333 km/h
1785 18-06-2020 08:00:00 15.325 C 12.22 g/m*3 15.33 C 4.95833 km/h
1786 18-06-2020 09:00:00 16.45833 C 12.3 g/m*3 16.46 C 6.84167 km/h
1787 18-06-2020 10:00:00 17.675 C 12.44 g/m*3 17.68 C 6.85 km/h
1788 18-06-2020 11:00:00 18.75 C 12.5 g/m*3 18.75 C 6.175 km/h
1789 18-06-2020 12:00:00 19.71667 C 12.32 g/m*3 19.72 C 10.21667 km/h
1790 18-06-2020 13:00:00 20.79167 C 11.99 g/m*3 20.79 C 12.9 km/h
1791 18-06-2020 14:00:00 22.2 C 12.04 g/m*3 22.2 C 11.03333 km/h
1792 18-06-2020 15:00:00 23.54167 C 11.68 g/m*3 23.54 C 10.35 km/h
1793 18-06-2020 16:00:00 25.09167 C 11.49 g/m*3 25.09 C 11.56667 km/h
1794 18-06-2020 17:00:00 24.875 C 11.28 g/m*3 24.88 C 15.83333 km/h
1795 18-06-2020 18:00:00 23.86667 C 10.89 g/m*3 23.87 C 15.03333 km/h
1796 18-06-2020 19:00:00 23.89167 C 11.55 g/m*3 23.89 C 10.76667 km/h
1797 18-06-2020 20:00:00 23.2 C 11.36 g/m*3 23.2 C 9.95 km/h
1798 18-06-2020 21:00:00 20.63333 C 12.46 g/m*3 20.63 C 3.875 km/h
1799 18-06-2020 22:00:00 17.20833 C 11.79 g/m*3 17.21 C 5.06667 km/h
1800 18-06-2020 23:00:00 15.73333 C 11.55 g/m*3 15.73 C 0.93333 km/h
Sensor: Nr:Datum:Temp:Abs-Feuchte:Windchill:Wind:
Aussen-T/F 1801 19-06-2020 00:00:00 15.21667 C 11.5 g/m*3 15.22 C 1.875 km/h
1802 19-06-2020 01:00:00 14.68333 C 11.17 g/m*3 14.68 C 0.26667 km/h
1803 19-06-2020 02:00:00 13.525 C 10.73 g/m*3 13.53 C 0.53333 km/h
1804 19-06-2020 03:00:00 12.875 C 10.47 g/m*3 12.88 C 0.4 km/h
1805 19-06-2020 04:00:00 12.33333 C 10.22 g/m*3 12.33 C 1.33333 km/h
1806 19-06-2020 05:00:00 12.225 C 10.23 g/m*3 12.23 C 1.06667 km/h
1807 19-06-2020 06:00:00 12.575 C 10.49 g/m*3 12.58 C 0.66667 km/h
1808 19-06-2020 07:00:00 13.64167 C 11.21 g/m*3 13.64 C 0.53333 km/h
1809 19-06-2020 08:00:00 15.75 C 11.83 g/m*3 15.75 C 8.475 km/h
1810 19-06-2020 09:00:00 17.55 C 11.91 g/m*3 17.55 C 9.81667 km/h
1811 19-06-2020 10:00:00 19.15833 C 12.35 g/m*3 19.16 C 5.75 km/h
1812 19-06-2020 11:00:00 20.85 C 12.12 g/m*3 20.85 C 9.94167 km/h
1813 19-06-2020 12:00:00 21.90833 C 11.94 g/m*3 21.91 C 11.96667 km/h
1814 19-06-2020 13:00:00 21.50833 C 12.14 g/m*3 21.51 C 6.30833 km/h
1815 19-06-2020 14:00:00 22.34167 C 11.58 g/m*3 22.34 C 8.71667 km/h
1816 19-06-2020 15:00:00 22.26667 C 11.45 g/m*3 22.27 C 13.96667 km/h
1817 19-06-2020 16:00:00 16.48333 C 12.44 g/m*3 16.48 C 9.4 km/h
1818 19-06-2020 17:00:00 16.29167 C 13.14 g/m*3 16.29 C 10.60833 km/h
1819 19-06-2020 18:00:00 18.11667 C 14.22 g/m*3 18.12 C 4.40833 km/h
1820 19-06-2020 19:00:00 18.90833 C 14.32 g/m*3 18.91 C 3.06667 km/h
1821 19-06-2020 20:00:00 18.16667 C 14.01 g/m*3 18.17 C 6.05833 km/h
1822 19-06-2020 21:00:00 16.075 C 12.53 g/m*3 16.08 C 7.40833 km/h
1823 19-06-2020 22:00:00 14.81667 C 11.89 g/m*3 14.82 C 3.73333 km/h
1824 19-06-2020 23:00:00 14.175 C 11.54 g/m*3 14.18 C 0.53333 km/h
1825 20-06-2020 00:00:00 13.58333 C 11.18 g/m*3 13.58 C 0.13333 km/h
Sensor: Nr:Datum:Temp:Abs-Feuchte:Windchill:Wind:
Aussen-T/F 1826 20-06-2020 01:00:00 13.475 C 11.21 g/m*3 13.48 C 0.13333 km/h
1827 20-06-2020 02:00:00 13.35833 C 11.13 g/m*3 13.36 C 0.66667 km/h
1828 20-06-2020 03:00:00 12.95833 C 10.86 g/m*3 12.96 C 0 km/h
1829 20-06-2020 04:00:00 12.59167 C 10.65 g/m*3 12.59 C 0.4 km/h
1830 20-06-2020 05:00:00 12.475 C 10.63 g/m*3 12.48 C 0.66667 km/h
1831 20-06-2020 06:00:00 12.64167 C 10.76 g/m*3 12.64 C 3.74167 km/h
1832 20-06-2020 07:00:00 13.05 C 11.03 g/m*3 13.05 C 4.00833 km/h
1833 20-06-2020 08:00:00 14.125 C 11.87 g/m*3 14.13 C 0.4 km/h
1834 20-06-2020 09:00:00 15.35833 C 12.66 g/m*3 15.36 C 0.8 km/h
1835 20-06-2020 10:00:00 17.56667 C 13.3 g/m*3 17.57 C 2.275 km/h
1836 20-06-2020 11:00:00 20.11667 C 12.86 g/m*3 20.12 C 6.3 km/h
1837 20-06-2020 12:00:00 19.76667 C 12.8 g/m*3 19.77 C 4.66667 km/h
1838 20-06-2020 13:00:00 19.59167 C 13.27 g/m*3 19.59 C 4 km/h
1839 20-06-2020 14:00:00 19.74167 C 12.84 g/m*3 19.74 C 3.075 km/h
1840 20-06-2020 15:00:00 20.20833 C 12.81 g/m*3 20.21 C 2.8 km/h
1841 20-06-2020 16:00:00 22.89167 C 12.07 g/m*3 22.89 C 6.96667 km/h
1842 20-06-2020 17:00:00 22.33333 C 11.36 g/m*3 22.33 C 5.90833 km/h
1843 20-06-2020 18:00:00 21.06667 C 12.86 g/m*3 21.07 C 7.65 km/h
1844 20-06-2020 19:00:00 19.625 C 12.88 g/m*3 19.63 C 5.9 km/h
1845 20-06-2020 20:00:00 19.04167 C 13.38 g/m*3 19.04 C 1.86667 km/h
1846 20-06-2020 21:00:00 18.36667 C 13.15 g/m*3 18.37 C 2.93333 km/h
1847 20-06-2020 22:00:00 17 C 12.64 g/m*3 17 C 2.53333 km/h
1848 20-06-2020 23:00:00 15.69167 C 11.88 g/m*3 15.69 C 2.26667 km/h
1849 21-06-2020 00:00:00 14.48333 C 11.37 g/m*3 14.48 C 0.66667 km/h
1850 21-06-2020 01:00:00 13.80833 C 11.14 g/m*3 13.81 C 0.53333 km/h
Sensor: Nr:Datum:Temp:Abs-Feuchte:Windchill:Wind:
Aussen-T/F 1851 21-06-2020 02:00:00 13.24167 C 10.84 g/m*3 13.24 C 0.8 km/h
1852 21-06-2020 03:00:00 12.53333 C 10.46 g/m*3 12.53 C 0.13333 km/h
1853 21-06-2020 04:00:00 11.80833 C 10.03 g/m*3 11.81 C 0 km/h
1854 21-06-2020 05:00:00 12.2 C 10.36 g/m*3 12.2 C 0.93333 km/h
1855 21-06-2020 06:00:00 12.36667 C 10.48 g/m*3 12.37 C 0.26667 km/h
1856 21-06-2020 07:00:00 12.7 C 10.74 g/m*3 12.7 C 4.26667 km/h
1857 21-06-2020 08:00:00 13.33333 C 11.21 g/m*3 13.33 C 2.13333 km/h
1858 21-06-2020 09:00:00 14.425 C 11.89 g/m*3 14.43 C 0 km/h
1859 21-06-2020 10:00:00 17.05 C 13.35 g/m*3 17.05 C 0 km/h
1860 21-06-2020 11:00:00 21.25 C 12.84 g/m*3 21.25 C 1.06667 km/h
1861 21-06-2020 12:00:00 22.64167 C 11.85 g/m*3 22.64 C 8.61667 km/h
1862 21-06-2020 13:00:00 23.65833 C 11.45 g/m*3 23.66 C 8.60833 km/h
1863 21-06-2020 14:00:00 24.55 C 11.65 g/m*3 24.55 C 10.34167 km/h
1864 21-06-2020 15:00:00 26.325 C 11.59 g/m*3 26.33 C 11.16667 km/h
1865 21-06-2020 16:00:00 27.7 C 11.37 g/m*3 27.7 C 13.28333 km/h
1866 21-06-2020 17:00:00 27.85 C 11.01 g/m*3 27.85 C 13.16667 km/h
1867 21-06-2020 18:00:00 26.84167 C 11.57 g/m*3 26.84 C 10.75833 km/h
1868 21-06-2020 19:00:00 25.79167 C 12.73 g/m*3 25.79 C 7 km/h
1869 21-06-2020 20:00:00 23.65 C 13.86 g/m*3 23.65 C 3.6 km/h
1870 21-06-2020 21:00:00 22.14167 C 13 g/m*3 22.14 C 4.40833 km/h
1871 21-06-2020 22:00:00 19.11667 C 12.44 g/m*3 19.12 C 5.2 km/h
1872 21-06-2020 23:00:00 17.8 C 12.45 g/m*3 17.8 C 2.93333 km/h
1873 22-06-2020 00:00:00 17.38333 C 12.46 g/m*3 17.38 C 0 km/h
1874 22-06-2020 01:00:00 16.58333 C 12.09 g/m*3 16.58 C 3.6 km/h
1875 22-06-2020 02:00:00 16.1 C 11.94 g/m*3 16.1 C 2.4 km/h
Sensor: Nr:Datum:Temp:Abs-Feuchte:Windchill:Wind:
Aussen-T/F 1876 22-06-2020 03:00:00 15.45833 C 11.73 g/m*3 15.46 C 1.33333 km/h
1877 22-06-2020 04:00:00 16.00833 C 12.05 g/m*3 16.01 C 0.8 km/h
1878 22-06-2020 05:00:00 16.46667 C 11.89 g/m*3 16.47 C 9.8 km/h
1879 22-06-2020 06:00:00 15.53333 C 11.28 g/m*3 15.53 C 5.075 km/h
1880 22-06-2020 07:00:00 15.29167 C 11.06 g/m*3 15.29 C 5.375 km/h
1881 22-06-2020 08:00:00 15.24167 C 11.12 g/m*3 15.24 C 4.41667 km/h
1882 22-06-2020 09:00:00 16.175 C 11.46 g/m*3 16.18 C 4.54167 km/h
1883 22-06-2020 10:00:00 16.90833 C 11.64 g/m*3 16.91 C 7.11667 km/h
1884 22-06-2020 11:00:00 17.59167 C 12 g/m*3 17.59 C 6.56667 km/h
1885 22-06-2020 12:00:00 18.625 C 12.31 g/m*3 18.63 C 5.88333 km/h
1886 22-06-2020 13:00:00 19.825 C 12.67 g/m*3 19.83 C 8.05833 km/h
1887 22-06-2020 14:00:00 21.15 C 12.58 g/m*3 21.15 C 9.95833 km/h
1888 22-06-2020 15:00:00 22.96667 C 12.33 g/m*3 22.97 C 9.825 km/h
1889 22-06-2020 16:00:00 23.14167 C 11.85 g/m*3 23.14 C 8.74167 km/h
1890 22-06-2020 17:00:00 24.55833 C 10.14 g/m*3 24.56 C 9.80833 km/h
1891 22-06-2020 18:00:00 25.1 C 9.16 g/m*3 25.1 C 9.81667 km/h
1892 22-06-2020 19:00:00 24.74167 C 9.57 g/m*3 24.74 C 6.95833 km/h
1893 22-06-2020 20:00:00 23.83333 C 9.68 g/m*3 23.83 C 3.6 km/h
1894 22-06-2020 21:00:00 20.88333 C 10.93 g/m*3 20.88 C 3.06667 km/h
1895 22-06-2020 22:00:00 17.19167 C 10.43 g/m*3 17.19 C 6.33333 km/h
1896 22-06-2020 23:00:00 15.35 C 10.42 g/m*3 15.35 C 0 km/h
1897 23-06-2020 00:00:00 13.80833 C 10.05 g/m*3 13.81 C 0 km/h
1898 23-06-2020 01:00:00 12.825 C 9.84 g/m*3 12.83 C 0 km/h
1899 23-06-2020 02:00:00 12.29167 C 9.72 g/m*3 12.29 C 0 km/h
1900 23-06-2020 03:00:00 11.875 C 9.6 g/m*3 11.88 C 0.13333 km/h
Sensor: Nr:Datum:Temp:Abs-Feuchte:Windchill:Wind:
Aussen-T/F 1901 23-06-2020 04:00:00 11.28333 C 9.37 g/m*3 11.28 C 0 km/h
1902 23-06-2020 05:00:00 10.81667 C 9.22 g/m*3 10.82 C 0 km/h
1903 23-06-2020 06:00:00 10.94167 C 9.4 g/m*3 10.94 C 0 km/h
1904 23-06-2020 07:00:00 11.55 C 9.84 g/m*3 11.55 C 0 km/h
1905 23-06-2020 08:00:00 12.75 C 10.61 g/m*3 12.75 C 0 km/h
1906 23-06-2020 09:00:00 14.55 C 11.7 g/m*3 14.55 C 0 km/h
1907 23-06-2020 10:00:00 18.63333 C 12.85 g/m*3 18.63 C 1.73333 km/h
1908 23-06-2020 11:00:00 22.6 C 11.82 g/m*3 22.6 C 4.94167 km/h
1909 23-06-2020 12:00:00 23.39167 C 11.14 g/m*3 23.39 C 7.375 km/h
1910 23-06-2020 13:00:00 24.44167 C 10.56 g/m*3 24.44 C 9.69167 km/h
1911 23-06-2020 14:00:00 25.49167 C 10.12 g/m*3 25.49 C 10.63333 km/h
1912 23-06-2020 15:00:00 27.05833 C 10.65 g/m*3 27.06 C 9.81667 km/h
1913 23-06-2020 16:00:00 28.29167 C 10.71 g/m*3 28.29 C 10.36667 km/h
1914 23-06-2020 17:00:00 29.35833 C 11.47 g/m*3 29.36 C 7.1 km/h
1915 23-06-2020 18:00:00 29.2 C 11.57 g/m*3 29.2 C 9.15833 km/h
1916 23-06-2020 19:00:00 28.45833 C 11.69 g/m*3 28.46 C 8.34167 km/h
1917 23-06-2020 20:00:00 27.425 C 12.73 g/m*3 27.43 C 4.68333 km/h
1918 23-06-2020 21:00:00 23.875 C 13.2 g/m*3 23.88 C 3.73333 km/h
1919 23-06-2020 22:00:00 20.55 C 11.91 g/m*3 20.55 C 6.275 km/h
1920 23-06-2020 23:00:00 18.83333 C 11.82 g/m*3 18.83 C 3.06667 km/h
1921 24-06-2020 00:00:00 17.66667 C 11.52 g/m*3 17.67 C 2.8 km/h
1922 24-06-2020 01:00:00 17.03333 C 11.16 g/m*3 17.03 C 2.53333 km/h
1923 24-06-2020 02:00:00 16.04167 C 10.88 g/m*3 16.04 C 0.4 km/h
1924 24-06-2020 03:00:00 14.64167 C 10.62 g/m*3 14.64 C 0 km/h
1925 24-06-2020 04:00:00 13.6 C 10.32 g/m*3 13.6 C 0 km/h
Sensor: Nr:Datum:Temp:Abs-Feuchte:Windchill:Wind:
Aussen-T/F 1926 24-06-2020 05:00:00 12.9 C 10.11 g/m*3 12.9 C 0 km/h
1927 24-06-2020 06:00:00 12.78333 C 10.25 g/m*3 12.78 C 0 km/h
1928 24-06-2020 07:00:00 13.375 C 10.77 g/m*3 13.38 C 0 km/h
1929 24-06-2020 08:00:00 14.59167 C 11.5 g/m*3 14.59 C 0 km/h
1930 24-06-2020 09:00:00 17.15 C 12.18 g/m*3 17.15 C 2 km/h
1931 24-06-2020 10:00:00 21.9 C 11.66 g/m*3 21.9 C 6.30833 km/h
1932 24-06-2020 11:00:00 24.74167 C 10.46 g/m*3 24.74 C 13.025 km/h
1933 24-06-2020 12:00:00 25.44167 C 10.21 g/m*3 25.44 C 15.03333 km/h
1934 24-06-2020 13:00:00 26.3 C 9.84 g/m*3 26.3 C 16.23333 km/h
1935 24-06-2020 14:00:00 27.05 C 9.7 g/m*3 27.05 C 15.7 km/h
1936 24-06-2020 15:00:00 27.85 C 9.22 g/m*3 27.85 C 17.575 km/h
1937 24-06-2020 16:00:00 28.68333 C 8.28 g/m*3 28.68 C 17.96667 km/h
1938 24-06-2020 17:00:00 28.83333 C 7.8 g/m*3 28.83 C 15.3 km/h
1939 24-06-2020 18:00:00 28.81667 C 7.37 g/m*3 28.82 C 14.5 km/h
1940 24-06-2020 19:00:00 27.825 C 8.08 g/m*3 27.83 C 13.96667 km/h
1941 24-06-2020 20:00:00 27.20833 C 9.52 g/m*3 27.21 C 6.325 km/h
1942 24-06-2020 21:00:00 24.25833 C 11.33 g/m*3 24.26 C 3.73333 km/h
1943 24-06-2020 22:00:00 20.86667 C 11.39 g/m*3 20.87 C 2.40833 km/h
1944 24-06-2020 23:00:00 19.75833 C 11.22 g/m*3 19.76 C 1.73333 km/h
1945 25-06-2020 00:00:00 18.66667 C 11.04 g/m*3 18.67 C 2.13333 km/h
1946 25-06-2020 01:00:00 18.20833 C 11.02 g/m*3 18.21 C 1.6 km/h
1947 25-06-2020 02:00:00 17.09167 C 10.9 g/m*3 17.09 C 0.13333 km/h
1948 25-06-2020 03:00:00 15.925 C 10.81 g/m*3 15.93 C 1.73333 km/h
1949 25-06-2020 04:00:00 15.2 C 10.76 g/m*3 15.2 C 1.46667 km/h
1950 25-06-2020 05:00:00 14.60833 C 10.81 g/m*3 14.61 C 1.33333 km/h
Sensor: Nr:Datum:Temp:Abs-Feuchte:Windchill:Wind:
Aussen-T/F 1951 25-06-2020 06:00:00 14.675 C 11.11 g/m*3 14.68 C 2.53333 km/h
1952 25-06-2020 07:00:00 15.9 C 11.74 g/m*3 15.9 C 2.13333 km/h
1953 25-06-2020 08:00:00 17.25833 C 12.26 g/m*3 17.26 C 2.80833 km/h
1954 25-06-2020 09:00:00 20.175 C 12.51 g/m*3 20.18 C 8.19167 km/h
1955 25-06-2020 10:00:00 23.33333 C 12.66 g/m*3 23.33 C 11.16667 km/h
1956 25-06-2020 11:00:00 24.675 C 12.75 g/m*3 24.68 C 13.56667 km/h
1957 25-06-2020 12:00:00 25.45833 C 12.75 g/m*3 25.46 C 13.29167 km/h
1958 25-06-2020 13:00:00 26.75833 C 13.12 g/m*3 26.76 C 13.96667 km/h
1959 25-06-2020 14:00:00 27.05 C 13.38 g/m*3 27.05 C 14.1 km/h
1960 25-06-2020 15:00:00 26.73333 C 14.01 g/m*3 26.73 C 9.55 km/h
1961 25-06-2020 16:00:00 26.15 C 14.36 g/m*3 26.15 C 7.675 km/h
1962 25-06-2020 17:00:00 26.225 C 14.63 g/m*3 26.23 C 10.1 km/h
1963 25-06-2020 18:00:00 26.66667 C 14.91 g/m*3 26.67 C 8.18333 km/h
1964 25-06-2020 19:00:00 27.66667 C 14.55 g/m*3 27.67 C 8.48333 km/h
1965 25-06-2020 20:00:00 26.66667 C 14.32 g/m*3 26.67 C 6.29167 km/h
1966 25-06-2020 21:00:00 24.66667 C 14.84 g/m*3 24.67 C 2.13333 km/h
1967 25-06-2020 22:00:00 21.51667 C 13.53 g/m*3 21.52 C 3.06667 km/h
1968 25-06-2020 23:00:00 19.59167 C 13.03 g/m*3 19.59 C 4.4 km/h
1969 26-06-2020 00:00:00 18.05833 C 12.55 g/m*3 18.06 C 0.8 km/h
1970 26-06-2020 01:00:00 16.56667 C 11.96 g/m*3 16.57 C 0.13333 km/h
1971 26-06-2020 02:00:00 15.73333 C 11.74 g/m*3 15.73 C 0.13333 km/h
1972 26-06-2020 03:00:00 15.05833 C 11.42 g/m*3 15.06 C 0.4 km/h
1973 26-06-2020 04:00:00 14.43333 C 11.21 g/m*3 14.43 C 0.13333 km/h
1974 26-06-2020 05:00:00 13.88333 C 10.98 g/m*3 13.88 C 0 km/h
1975 26-06-2020 06:00:00 13.81667 C 11.09 g/m*3 13.82 C 0.26667 km/h
Sensor: Nr:Datum:Temp:Abs-Feuchte:Windchill:Wind:
Aussen-T/F 1976 26-06-2020 07:00:00 14.56667 C 11.74 g/m*3 14.57 C 0.4 km/h
1977 26-06-2020 08:00:00 15.825 C 12.56 g/m*3 15.83 C 1.06667 km/h
1978 26-06-2020 09:00:00 18.29167 C 13.27 g/m*3 18.29 C 3.75833 km/h
1979 26-06-2020 10:00:00 23.24167 C 13.56 g/m*3 23.24 C 6.85 km/h
1980 26-06-2020 11:00:00 25.975 C 12.52 g/m*3 25.98 C 9.00833 km/h
1981 26-06-2020 12:00:00 26.65 C 11.97 g/m*3 26.65 C 8.59167 km/h
1982 26-06-2020 13:00:00 27.28333 C 12.42 g/m*3 27.28 C 11.025 km/h
1983 26-06-2020 14:00:00 28.46667 C 12.86 g/m*3 28.47 C 9.95833 km/h
1984 26-06-2020 15:00:00 30.15833 C 12.95 g/m*3 30.16 C 9.28333 km/h
1985 26-06-2020 16:00:00 31.70833 C 13.05 g/m*3 31.71 C 11.80833 km/h
1986 26-06-2020 17:00:00 31.23333 C 13.69 g/m*3 31.23 C 5.1 km/h
1987 26-06-2020 18:00:00 28.06667 C 15.1 g/m*3 28.07 C 3.90833 km/h
1988 26-06-2020 19:00:00 25.25 C 14.26 g/m*3 25.25 C 15.29167 km/h
1989 26-06-2020 20:00:00 23.20833 C 14.56 g/m*3 23.21 C 4.55 km/h
1990 26-06-2020 21:00:00 21.55833 C 14.79 g/m*3 21.56 C 4.55833 km/h
1991 26-06-2020 22:00:00 21.00833 C 14.81 g/m*3 21.01 C 2.95 km/h
1992 26-06-2020 23:00:00 20.21667 C 14.56 g/m*3 20.22 C 2 km/h
1993 27-06-2020 00:00:00 20.35833 C 14.28 g/m*3 20.36 C 6.85833 km/h
1994 27-06-2020 01:00:00 19.39167 C 13.92 g/m*3 19.39 C 0.53333 km/h
1995 27-06-2020 02:00:00 18.29167 C 13.64 g/m*3 18.29 C 0.4 km/h
1996 27-06-2020 03:00:00 18.29167 C 13.96 g/m*3 18.29 C 0.13333 km/h
1997 27-06-2020 04:00:00 18.13333 C 13.83 g/m*3 18.13 C 0.4 km/h
1998 27-06-2020 05:00:00 17.46667 C 13.61 g/m*3 17.47 C 0.53333 km/h
1999 27-06-2020 06:00:00 18.24167 C 14.31 g/m*3 18.24 C 2.26667 km/h
2000 27-06-2020 07:00:00 19.68333 C 14.89 g/m*3 19.68 C 6.45 km/h
Sensor: Nr:Datum:Temp:Abs-Feuchte:Windchill:Wind:
Aussen-T/F 2001 27-06-2020 08:00:00 21 C 14.84 g/m*3 21 C 13.83333 km/h
2002 27-06-2020 09:00:00 21.7 C 14.78 g/m*3 21.7 C 4.55 km/h
2003 27-06-2020 10:00:00 23 C 14.75 g/m*3 23 C 8.46667 km/h
2004 27-06-2020 11:00:00 23.09167 C 14.62 g/m*3 23.09 C 7.8 km/h
2005 27-06-2020 12:00:00 22.55833 C 15 g/m*3 22.56 C 5.88333 km/h
2006 27-06-2020 13:00:00 23.075 C 15.55 g/m*3 23.08 C 5.75833 km/h
2007 27-06-2020 14:00:00 25.38333 C 15.19 g/m*3 25.38 C 15.83333 km/h
2008 27-06-2020 15:00:00 27.83333 C 14.35 g/m*3 27.83 C 19.16667 km/h
2009 27-06-2020 16:00:00 28.875 C 14.62 g/m*3 28.88 C 17.96667 km/h
2010 27-06-2020 17:00:00 28.89167 C 14.42 g/m*3 28.89 C 15.56667 km/h
2011 27-06-2020 18:00:00 28.04167 C 14.08 g/m*3 28.04 C 13.425 km/h
2012 27-06-2020 19:00:00 26.70833 C 13.7 g/m*3 26.71 C 11.425 km/h
2013 27-06-2020 20:00:00 25.525 C 13.55 g/m*3 25.53 C 8.875 km/h
2014 27-06-2020 21:00:00 24.375 C 13.67 g/m*3 24.38 C 5.625 km/h
2015 27-06-2020 22:00:00 22.85 C 13.93 g/m*3 22.85 C 3.46667 km/h
2016 27-06-2020 23:00:00 21.74167 C 14.12 g/m*3 21.74 C 1.6 km/h
2017 28-06-2020 00:00:00 20.975 C 14.01 g/m*3 20.98 C 0.53333 km/h
2018 28-06-2020 01:00:00 20.04167 C 13.95 g/m*3 20.04 C 0 km/h
2019 28-06-2020 02:00:00 20.36667 C 14.2 g/m*3 20.37 C 0.4 km/h
2020 28-06-2020 03:00:00 20.075 C 14.9 g/m*3 20.08 C 2.94167 km/h
2021 28-06-2020 04:00:00 19.375 C 14.84 g/m*3 19.38 C 0.66667 km/h
2022 28-06-2020 05:00:00 19.11667 C 14.67 g/m*3 19.12 C 1.06667 km/h
2023 28-06-2020 06:00:00 19.14167 C 14.15 g/m*3 19.14 C 3.20833 km/h
2024 28-06-2020 07:00:00 19.94167 C 13.84 g/m*3 19.94 C 7.38333 km/h
2025 28-06-2020 08:00:00 20.65833 C 13.51 g/m*3 20.66 C 13.16667 km/h
Sensor: Nr:Datum:Temp:Abs-Feuchte:Windchill:Wind:
Aussen-T/F 2026 28-06-2020 09:00:00 20.225 C 12.16 g/m*3 20.23 C 13.43333 km/h
2027 28-06-2020 10:00:00 19.9 C 11.54 g/m*3 19.9 C 13.96667 km/h
2028 28-06-2020 11:00:00 20.425 C 11.81 g/m*3 20.43 C 8.6 km/h
2029 28-06-2020 12:00:00 20.56667 C 11.19 g/m*3 20.57 C 9.15833 km/h
2030 28-06-2020 13:00:00 21.83333 C 10.97 g/m*3 21.83 C 12.9 km/h
2031 28-06-2020 14:00:00 20.24167 C 11.47 g/m*3 20.24 C 8.73333 km/h
2032 28-06-2020 15:00:00 19.45833 C 11.51 g/m*3 19.46 C 6.56667 km/h
2033 28-06-2020 16:00:00 20.45833 C 11.21 g/m*3 20.46 C 11.95 km/h
2034 28-06-2020 17:00:00 20.71667 C 11.22 g/m*3 20.72 C 8.325 km/h
2035 28-06-2020 18:00:00 20.89167 C 11.13 g/m*3 20.89 C 8.60833 km/h
2036 28-06-2020 19:00:00 20.45833 C 11.12 g/m*3 20.46 C 5.89167 km/h
2037 28-06-2020 20:00:00 20.175 C 11.17 g/m*3 20.18 C 6.975 km/h
2038 28-06-2020 21:00:00 19.43333 C 11.21 g/m*3 19.43 C 5.09167 km/h
2039 28-06-2020 22:00:00 16.975 C 10.9 g/m*3 16.98 C 3.2 km/h
2040 28-06-2020 23:00:00 15.425 C 10.76 g/m*3 15.43 C 4.26667 km/h
2041 29-06-2020 00:00:00 15.06667 C 10.83 g/m*3 15.07 C 3.86667 km/h
2042 29-06-2020 01:00:00 14.7 C 10.75 g/m*3 14.7 C 1.06667 km/h
2043 29-06-2020 02:00:00 13.85 C 10.63 g/m*3 13.85 C 1.6 km/h
2044 29-06-2020 03:00:00 13.96667 C 10.86 g/m*3 13.97 C 1.46667 km/h
2045 29-06-2020 04:00:00 14.1 C 11.04 g/m*3 14.1 C 0.8 km/h
2046 29-06-2020 05:00:00 14.90833 C 11.34 g/m*3 14.91 C 3.2 km/h
2047 29-06-2020 06:00:00 15.41667 C 11.41 g/m*3 15.42 C 4.14167 km/h
2048 29-06-2020 07:00:00 16.38333 C 11.76 g/m*3 16.38 C 1.73333 km/h
2049 29-06-2020 08:00:00 16.51667 C 11.15 g/m*3 16.52 C 10.45833 km/h
2050 29-06-2020 09:00:00 12.51667 C 9.99 g/m*3 12.52 C 7.375 km/h
Sensor: Nr:Datum:Temp:Abs-Feuchte:Windchill:Wind:
Aussen-T/F 2051 29-06-2020 10:00:00 13.25833 C 10.78 g/m*3 13.26 C 2.8 km/h
2052 29-06-2020 11:00:00 15.76667 C 11.61 g/m*3 15.77 C 6.43333 km/h
2053 29-06-2020 12:00:00 17.65833 C 11.86 g/m*3 17.66 C 8.48333 km/h
2054 29-06-2020 13:00:00 20.00833 C 12.03 g/m*3 20.01 C 13.43333 km/h
2055 29-06-2020 14:00:00 21.44167 C 11.56 g/m*3 21.44 C 15.96667 km/h
2056 29-06-2020 15:00:00 22.74167 C 9.79 g/m*3 22.74 C 18.36667 km/h
2057 29-06-2020 16:00:00 23.84167 C 9.61 g/m*3 23.84 C 17.03333 km/h
2058 29-06-2020 17:00:00 24.025 C 9.75 g/m*3 24.03 C 14.9 km/h
2059 29-06-2020 18:00:00 23.36667 C 9.23 g/m*3 23.37 C 13.56667 km/h
2060 29-06-2020 19:00:00 22.15 C 8.99 g/m*3 22.15 C 13.15833 km/h
2061 29-06-2020 20:00:00 20.75833 C 8.79 g/m*3 20.76 C 9.275 km/h
2062 29-06-2020 21:00:00 19.43333 C 9.08 g/m*3 19.43 C 5.75833 km/h
2063 29-06-2020 22:00:00 17.28333 C 9.14 g/m*3 17.28 C 4.40833 km/h
2064 29-06-2020 23:00:00 15.59167 C 9.01 g/m*3 15.59 C 4.93333 km/h
2065 30-06-2020 00:00:00 13.73333 C 9.05 g/m*3 13.73 C 2.13333 km/h
2066 30-06-2020 01:00:00 13.04167 C 8.97 g/m*3 13.04 C 0 km/h
2067 30-06-2020 02:00:00 11.975 C 8.8 g/m*3 11.98 C 0 km/h
2068 30-06-2020 03:00:00 11.075 C 8.72 g/m*3 11.08 C 0 km/h
2069 30-06-2020 04:00:00 10.61667 C 8.66 g/m*3 10.62 C 0 km/h
2070 30-06-2020 05:00:00 9.99167 C 8.48 g/m*3 9.99 C 0 km/h
2071 30-06-2020 06:00:00 9.83333 C 8.56 g/m*3 9.83 C 0 km/h
2072 30-06-2020 07:00:00 11.08333 C 9.22 g/m*3 11.08 C 0.13333 km/h
2073 30-06-2020 08:00:00 13.675 C 9.97 g/m*3 13.68 C 0.13333 km/h
2074 30-06-2020 09:00:00 15.98333 C 10.08 g/m*3 15.98 C 0 km/h
2075 30-06-2020 10:00:00 17.325 C 9.95 g/m*3 17.33 C 7.51667 km/h
Sensor: Nr:Datum:Temp:Abs-Feuchte:Windchill:Wind:
Aussen-T/F 2076 30-06-2020 11:00:00 17.8 C 9.98 g/m*3 17.8 C 7.78333 km/h
2077 30-06-2020 12:00:00 18.24167 C 10.21 g/m*3 18.24 C 10.075 km/h
2078 30-06-2020 13:00:00 19.69167 C 10.45 g/m*3 19.69 C 12.36667 km/h
2079 30-06-2020 14:00:00 20.9 C 10.43 g/m*3 20.9 C 16.36667 km/h
2080 30-06-2020 15:00:00 21.525 C 10.54 g/m*3 21.53 C 16.23333 km/h
2081 30-06-2020 16:00:00 22.15833 C 10.89 g/m*3 22.16 C 15.3 km/h
2082 30-06-2020 17:00:00 23.20833 C 10.82 g/m*3 23.21 C 15.025 km/h
2083 30-06-2020 18:00:00 22.73333 C 10.78 g/m*3 22.73 C 15.3 km/h
2084 30-06-2020 19:00:00 21.325 C 11.01 g/m*3 21.33 C 12.5 km/h
2085 30-06-2020 20:00:00 20.94167 C 11.33 g/m*3 20.94 C 11.69167 km/h
2086 30-06-2020 21:00:00 20.05833 C 11.56 g/m*3 20.06 C 6.175 km/h
2087 30-06-2020 22:00:00 19.04167 C 11.72 g/m*3 19.04 C 4.95833 km/h
2088 30-06-2020 23:00:00 19.20833 C 11.74 g/m*3 19.21 C 7.25 km/h
2089 01-07-2020 00:00:00 19.40833 C 11.75 g/m*3 19.41 C 9.54167 km/h
2090 01-07-2020 01:00:00 19.025 C 11.86 g/m*3 19.02 C 5.75833 km/h
2091 01-07-2020 02:00:00 18.175 C 11.78 g/m*3 18.18 C 7.1 km/h
2092 01-07-2020 03:00:00 17.78333 C 11.85 g/m*3 17.78 C 3.33333 km/h
2093 01-07-2020 04:00:00 17.15833 C 11.8 g/m*3 17.16 C 2 km/h
2094 01-07-2020 05:00:00 16.54167 C 11.72 g/m*3 16.54 C 0.53333 km/h
2095 01-07-2020 06:00:00 15.71667 C 11.69 g/m*3 15.72 C 1.33333 km/h
2096 01-07-2020 07:00:00 16.675 C 12.4 g/m*3 16.68 C 4.28333 km/h
2097 01-07-2020 08:00:00 19.09167 C 12.85 g/m*3 19.09 C 9.825 km/h
2098 01-07-2020 09:00:00 20.89167 C 13.53 g/m*3 20.89 C 9.26667 km/h
2099 01-07-2020 10:00:00 21.55 C 13.84 g/m*3 21.55 C 13.43333 km/h
2100 01-07-2020 11:00:00 22.125 C 13.9 g/m*3 22.13 C 11.96667 km/h
Sensor: Nr:Datum:Temp:Abs-Feuchte:Windchill:Wind:
Aussen-T/F 2101 01-07-2020 12:00:00 23.56667 C 13.87 g/m*3 23.57 C 17.7 km/h
2102 01-07-2020 13:00:00 24.09167 C 14.01 g/m*3 24.09 C 19.03333 km/h
2103 01-07-2020 14:00:00 24.7 C 14.07 g/m*3 24.7 C 19.84167 km/h
2104 01-07-2020 15:00:00 24.725 C 14.15 g/m*3 24.73 C 18.36667 km/h
2105 01-07-2020 16:00:00 25.20833 C 14.32 g/m*3 25.21 C 16.23333 km/h
2106 01-07-2020 17:00:00 25.61667 C 14.16 g/m*3 25.62 C 17.3 km/h
2107 01-07-2020 18:00:00 25.05833 C 13.82 g/m*3 25.06 C 14.23333 km/h
2108 01-07-2020 19:00:00 24.51667 C 13.93 g/m*3 24.52 C 13.56667 km/h
2109 01-07-2020 20:00:00 24.53333 C 14.03 g/m*3 24.53 C 11.95833 km/h
2110 01-07-2020 21:00:00 23.34167 C 13.78 g/m*3 23.34 C 9.95 km/h
2111 01-07-2020 22:00:00 22.125 C 13.9 g/m*3 22.13 C 3.075 km/h
2112 01-07-2020 23:00:00 19.55 C 14.17 g/m*3 19.55 C 10.2 km/h
2113 02-07-2020 00:00:00 17.83333 C 14.09 g/m*3 17.83 C 0.26667 km/h
2114 02-07-2020 01:00:00 17.71667 C 14.17 g/m*3 17.72 C 0 km/h
2115 02-07-2020 02:00:00 17.46667 C 14.02 g/m*3 17.47 C 0.66667 km/h
2116 02-07-2020 03:00:00 16.525 C 13.31 g/m*3 16.52 C 3.6 km/h
2117 02-07-2020 04:00:00 15.71667 C 12.72 g/m*3 15.72 C 2.8 km/h
2118 02-07-2020 05:00:00 15.05 C 12.24 g/m*3 15.05 C 0.13333 km/h
2119 02-07-2020 06:00:00 15.575 C 12.77 g/m*3 15.58 C 0 km/h
2120 02-07-2020 07:00:00 16.475 C 13.56 g/m*3 16.48 C 0 km/h
2121 02-07-2020 08:00:00 16.56667 C 13.59 g/m*3 16.57 C 0 km/h
2122 02-07-2020 09:00:00 17.98333 C 14.88 g/m*3 17.98 C 1.2 km/h
2123 02-07-2020 10:00:00 18.85833 C 15.16 g/m*3 18.86 C 5.625 km/h
2124 02-07-2020 11:00:00 21.075 C 14.03 g/m*3 21.08 C 12.89167 km/h
2125 02-07-2020 12:00:00 21.9 C 12.41 g/m*3 21.9 C 14.63333 km/h
Sensor: Nr:Datum:Temp:Abs-Feuchte:Windchill:Wind:
Aussen-T/F 2126 02-07-2020 13:00:00 22.575 C 12.39 g/m*3 22.58 C 14.9 km/h
2127 02-07-2020 14:00:00 20.58333 C 13.26 g/m*3 20.58 C 4.29167 km/h
2128 02-07-2020 15:00:00 21.075 C 12.85 g/m*3 21.08 C 8.6 km/h
2129 02-07-2020 16:00:00 21.825 C 12.99 g/m*3 21.83 C 2.93333 km/h
2130 02-07-2020 17:00:00 22.85833 C 12.22 g/m*3 22.86 C 13.81667 km/h
2131 02-07-2020 18:00:00 21.40833 C 11.94 g/m*3 21.41 C 14.63333 km/h
2132 02-07-2020 19:00:00 19.16667 C 11.97 g/m*3 19.17 C 8.2 km/h
2133 02-07-2020 20:00:00 19.13333 C 11.72 g/m*3 19.13 C 6.30833 km/h
2134 02-07-2020 21:00:00 18.85833 C 11.72 g/m*3 18.86 C 4.15 km/h
2135 02-07-2020 22:00:00 17.43333 C 11.74 g/m*3 17.43 C 4.40833 km/h
2136 02-07-2020 23:00:00 15.89167 C 11.29 g/m*3 15.89 C 3.46667 km/h
2137 03-07-2020 00:00:00 14.88333 C 11.08 g/m*3 14.88 C 2.13333 km/h
2138 03-07-2020 01:00:00 14.03333 C 10.79 g/m*3 14.03 C 1.73333 km/h
2139 03-07-2020 02:00:00 13.31667 C 10.47 g/m*3 13.32 C 0.4 km/h
2140 03-07-2020 03:00:00 12.45 C 10.11 g/m*3 12.45 C 0.26667 km/h
2141 03-07-2020 04:00:00 11.875 C 9.86 g/m*3 11.88 C 1.33333 km/h
2142 03-07-2020 05:00:00 11.39167 C 9.64 g/m*3 11.39 C 0.66667 km/h
2143 03-07-2020 06:00:00 11.33333 C 9.68 g/m*3 11.33 C 0.26667 km/h
2144 03-07-2020 07:00:00 11.79167 C 10.02 g/m*3 11.79 C 1.2 km/h
2145 03-07-2020 08:00:00 13.74167 C 10.52 g/m*3 13.74 C 5.36667 km/h
2146 03-07-2020 09:00:00 15.85 C 10.68 g/m*3 15.85 C 5.35 km/h
2147 03-07-2020 10:00:00 18.13333 C 11.29 g/m*3 18.13 C 6.84167 km/h
2148 03-07-2020 11:00:00 19.875 C 11.37 g/m*3 19.88 C 8.73333 km/h
2149 03-07-2020 12:00:00 20.14167 C 11.17 g/m*3 20.14 C 7.78333 km/h
2150 03-07-2020 13:00:00 21.05833 C 11.06 g/m*3 21.06 C 7.65833 km/h
Sensor: Nr:Datum:Temp:Abs-Feuchte:Windchill:Wind:
Aussen-T/F 2151 03-07-2020 14:00:00 22.25 C 10.91 g/m*3 22.25 C 10.475 km/h
2152 03-07-2020 15:00:00 23.49167 C 10.9 g/m*3 23.49 C 13.29167 km/h
2153 03-07-2020 16:00:00 24.025 C 10.46 g/m*3 24.03 C 12.89167 km/h
2154 03-07-2020 17:00:00 24.09167 C 10.46 g/m*3 24.09 C 13.16667 km/h
2155 03-07-2020 18:00:00 23.98333 C 10.38 g/m*3 23.98 C 10.20833 km/h
2156 03-07-2020 19:00:00 23.86667 C 10.04 g/m*3 23.87 C 11.425 km/h
2157 03-07-2020 20:00:00 22.20833 C 10 g/m*3 22.21 C 10.86667 km/h
2158 03-07-2020 21:00:00 19.60833 C 10.81 g/m*3 19.61 C 4.26667 km/h
2159 03-07-2020 22:00:00 16.91667 C 10.57 g/m*3 16.92 C 3.86667 km/h
2160 03-07-2020 23:00:00 15.43333 C 10.41 g/m*3 15.43 C 1.46667 km/h
2161 04-07-2020 00:00:00 14.35833 C 10.25 g/m*3 14.36 C 0 km/h
2162 04-07-2020 01:00:00 13.55833 C 10.08 g/m*3 13.56 C 1.86667 km/h
2163 04-07-2020 02:00:00 13.24167 C 9.97 g/m*3 13.24 C 2.41667 km/h
2164 04-07-2020 03:00:00 12.84167 C 9.84 g/m*3 12.84 C 1.46667 km/h
2165 04-07-2020 04:00:00 12.53333 C 9.77 g/m*3 12.53 C 2.94167 km/h
2166 04-07-2020 05:00:00 12.65833 C 9.72 g/m*3 12.66 C 1.60833 km/h
2167 04-07-2020 06:00:00 12.80833 C 10 g/m*3 12.81 C 2 km/h
2168 04-07-2020 07:00:00 14.11667 C 10.4 g/m*3 14.12 C 0.26667 km/h
2169 04-07-2020 08:00:00 15.375 C 10.8 g/m*3 15.38 C 0 km/h
2170 04-07-2020 09:00:00 17.14167 C 10.93 g/m*3 17.14 C 8.05833 km/h
2171 04-07-2020 10:00:00 20.19167 C 10.94 g/m*3 20.19 C 13.16667 km/h
2172 04-07-2020 11:00:00 21.70833 C 10.81 g/m*3 21.71 C 18.36667 km/h
2173 04-07-2020 12:00:00 22.21667 C 10.96 g/m*3 22.22 C 17.43333 km/h
2174 04-07-2020 13:00:00 22.39167 C 11.02 g/m*3 22.39 C 17.85 km/h
2175 04-07-2020 14:00:00 23.1 C 10.89 g/m*3 23.1 C 17.04167 km/h
Sensor: Nr:Datum:Temp:Abs-Feuchte:Windchill:Wind:
Aussen-T/F 2176 04-07-2020 15:00:00 23.31667 C 10.52 g/m*3 23.32 C 16.1 km/h
2177 04-07-2020 16:00:00 24.075 C 11.18 g/m*3 24.08 C 13.56667 km/h
2178 04-07-2020 17:00:00 24.90833 C 11.47 g/m*3 24.91 C 14.23333 km/h
2179 04-07-2020 18:00:00 24.61667 C 11.79 g/m*3 24.62 C 15.3 km/h
2180 04-07-2020 19:00:00 24.78333 C 12.2 g/m*3 24.78 C 14.89167 km/h
2181 04-07-2020 20:00:00 23.03333 C 11.77 g/m*3 23.03 C 13.95833 km/h
2182 04-07-2020 21:00:00 22.25833 C 12.1 g/m*3 22.26 C 10.09167 km/h
2183 04-07-2020 22:00:00 21.71667 C 12.33 g/m*3 21.72 C 6.04167 km/h
2184 04-07-2020 23:00:00 21.40833 C 12.77 g/m*3 21.41 C 8.19167 km/h

Maximal/Minimal-Werte vom 23.02.2003 - 03.08.2020

Sensor Min Max Avg
Temp
(Aussen-T/F)
-16.4 °C
20-12-2009  01:30:01
40.4 °C
25-07-2019  16:20:00
11.23 °C

Die Daten stammen von einer Davis Vantage Pro 2 Wetter-Station und werden unter Linux mit der Software wview2wettercgi und aufbereitet. Alle Angaben erfolgen ohne Gewähr für ihre Vollständigkeit oder Richtigkeit.
Kontakt: Rainer Krienke krienke@uni-koblenz.de . Meine Webseiten an der Uni Koblenz oder privat.
Version: $Revision: 0.78 $